Provisional Data: Sterling Run near Sterling Run, PA


Please select a monitoring station.
Please select start date.
Please select start date.

Toggle Unit: C/F Toggle Unit: C/F
Sample Time Temperature (C) Temperature (F) Specific Conductivity (mS/cm) pH   Turbidity (NTU+) DO (mg/L)
6/29/2021 12:00:00 AM 20.18 68.324 0.083 6.56 1.33 8.26
6/29/2021 12:15:00 AM 20.12 68.216 0.083 6.55 1.37 8.28
6/29/2021 12:30:00 AM 20.08 68.144 0.083 6.56 1.36 8.33
6/29/2021 12:45:00 AM 20.03 68.054 0.083 6.57 1.41 8.32
6/29/2021 1:00:00 AM 19.97 67.946 0.083 6.56 1.31 8.33
6/29/2021 1:15:00 AM 19.93 67.874 0.083 6.56 1.35 8.3
6/29/2021 1:30:00 AM 19.84 67.712 0.083 6.56 1.35 8.34
6/29/2021 1:45:00 AM 19.8 67.64 0.083 6.58 1.41 8.37
6/29/2021 2:00:00 AM 19.73 67.514 0.083 6.57 1.32 8.38
6/29/2021 2:15:00 AM 19.64 67.352 0.083 6.56 1.36 8.39
6/29/2021 2:30:00 AM 19.57 67.226 0.083 6.56 1.42 8.46
6/29/2021 2:45:00 AM 19.54 67.172 0.083 6.56 1.42 8.41
6/29/2021 3:00:00 AM 19.5 67.1 0.083 6.57 1.38 8.45
6/29/2021 3:15:00 AM 19.42 66.956 0.083 6.57 1.4 8.48
6/29/2021 3:30:00 AM 19.39 66.902 0.083 6.57 1.33 8.47
6/29/2021 3:45:00 AM 19.35 66.83 0.083 6.56 1.37 8.46
6/29/2021 4:00:00 AM 19.34 66.812 0.083 6.59 1.34 8.42
6/29/2021 4:15:00 AM 19.29 66.722 0.083 6.57 1.38 8.5
6/29/2021 4:30:00 AM 19.26 66.668 0.083 6.58 3.43 8.48
6/29/2021 4:45:00 AM 19.23 66.614 0.083 6.57 1.35 8.47
6/29/2021 5:00:00 AM 19.18 66.524 0.083 6.6 1.33 8.54
6/29/2021 5:15:00 AM 19.14 66.452 0.083 6.57 1.32 8.5
6/29/2021 5:30:00 AM 19.09 66.362 0.083 6.58 1.61 8.55
6/29/2021 5:45:00 AM 19.07 66.326 0.083 6.57 1.52 8.55
6/29/2021 6:00:00 AM 19.04 66.272 0.083 6.61 1.4 8.52
6/29/2021 6:15:00 AM 19.01 66.218 0.083 6.6 1.22 8.54
6/29/2021 6:30:00 AM 18.99 66.182 0.083 6.59 1.28 8.59
6/29/2021 6:45:00 AM 18.97 66.146 0.083 6.59 1.52 8.69
6/29/2021 7:00:00 AM 18.96 66.128 0.083 6.59 1.51 8.61
6/29/2021 7:15:00 AM 18.97 66.146 0.083 6.6 1.32 8.67
6/29/2021 7:30:00 AM 18.95 66.11 0.083 6.62 1.37 8.8
6/29/2021 7:45:00 AM 18.97 66.146 0.083 6.62 1.29 8.77
6/29/2021 8:00:00 AM 18.95 66.11 0.083 6.63 1.28 8.84
6/29/2021 8:15:00 AM 19.02 66.236 0.082 6.67 1.27 8.85
6/29/2021 8:30:00 AM 19.06 66.308 0.083 6.64 1.37 8.85
6/29/2021 8:45:00 AM 19.09 66.362 0.082 6.65 1.31 8.86
6/29/2021 9:00:00 AM 19.16 66.488 0.083 6.65 1.29 8.87
6/29/2021 9:15:00 AM 19.28 66.704 0.083 6.65 1.33 8.83
6/29/2021 9:30:00 AM 19.38 66.884 0.083 6.66 1.28 8.86
6/29/2021 9:45:00 AM 19.57 67.226 0.083 6.67 1.35 8.81
6/29/2021 10:00:00 AM 19.79 67.622 0.083 6.68 1.23 8.82
6/29/2021 10:15:00 AM 20.03 68.054 0.083 6.69 1.23 8.84
6/29/2021 10:30:00 AM 20.28 68.504 0.082 6.7 1.2 8.77
6/29/2021 10:45:00 AM 20.58 69.044 0.082 6.71 1.14 8.77
6/29/2021 11:00:00 AM 20.86 69.548 0.082 6.7 1.18 8.71
6/29/2021 11:15:00 AM 21.14 70.052 0.082 6.71 1.19 8.7
6/29/2021 11:30:00 AM 21.41 70.538 0.082 6.74 1.16 8.7
6/29/2021 11:45:00 AM 21.63 70.934 0.082 6.72 1.29 8.68
6/29/2021 12:00:00 PM 21.94 71.492 0.082 6.74 1.38 8.67
6/29/2021 12:15:00 PM 22.09 71.762 0.082 6.72 1.33 8.65
6/29/2021 12:30:00 PM 22.35 72.23 0.082 6.73 1.23 8.62
6/29/2021 12:45:00 PM 22.69 72.842 0.082 6.75 1.35 8.63
6/29/2021 1:00:00 PM 22.78 73.004 0.082 6.72 1.16 8.52
6/29/2021 1:15:00 PM 23.02 73.436 0.082 6.74 1.18 8.52
6/29/2021 1:30:00 PM 23.17 73.706 0.082 6.76 1.33 8.5
6/29/2021 1:45:00 PM 23.35 74.03 0.082 6.75 1.9 8.47
6/29/2021 2:00:00 PM 23.49 74.282 0.082 6.75 1.68 8.41
6/29/2021 2:15:00 PM 23.41 74.138 0.082 6.69 1.24 8.35
6/29/2021 2:30:00 PM 23.68 74.624 0.082 6.73 1.23 8.36
6/29/2021 2:45:00 PM 23.78 74.804 0.083 6.71 1.19 8.26
6/29/2021 3:00:00 PM 23.81 74.858 0.082 6.7 1.18 8.31
6/29/2021 3:15:00 PM 23.89 75.002 0.082 6.71 1.14 8.26
6/29/2021 3:30:00 PM 23.9 75.02 0.083 6.68 1.86 8.21
6/29/2021 3:45:00 PM 23.89 75.002 0.083 6.67 1.28 8.19
6/29/2021 4:00:00 PM 23.83 74.894 0.083 6.67 1.27 8.19
6/29/2021 4:15:00 PM 23.84 74.912 0.083 6.67 1.71 8.19
6/29/2021 4:30:00 PM 23.78 74.804 0.083 6.67 1.18 8.19
6/29/2021 4:45:00 PM 23.7 74.66 0.083 6.67 1.4 8.13
6/29/2021 5:00:00 PM 23.66 74.588 0.083 6.66 1.25 8.17
6/29/2021 5:15:00 PM 23.59 74.462 0.083 6.66 1.25 8.16
6/29/2021 5:30:00 PM 23.57 74.426 0.083 6.65 1.25 8.1
6/29/2021 5:45:00 PM 23.4 74.12 0.083 6.64 1.36 8.14
6/29/2021 6:00:00 PM 23.25 73.85 0.083 6.62 1.37 8.16
6/29/2021 6:15:00 PM 23.16 73.688 0.083 6.63 1.39 8.12
6/29/2021 6:30:00 PM 23 73.4 0.083 6.59 1.15 8.09
6/29/2021 6:45:00 PM 22.9 73.22 0.083 6.61 1.23 8.11
6/29/2021 7:00:00 PM 22.73 72.914 0.083 6.58 1.52 8.06
6/29/2021 7:15:00 PM 22.61 72.698 0.083 6.58 1.33 8.08
6/29/2021 7:30:00 PM 22.53 72.554 0.083 6.6 1.5 8.02
6/29/2021 7:45:00 PM 22.47 72.446 0.083 6.6 1.46 8.02
6/29/2021 8:00:00 PM 22.36 72.248 0.083 6.58 1.34 7.98
6/29/2021 8:15:00 PM 22.26 72.068 0.083 6.58 1.38 7.98
6/29/2021 8:30:00 PM 22.18 71.924 0.083 6.57 1.47 7.97
6/29/2021 8:45:00 PM 22.1 71.78 0.083 6.57 1.43 7.93
6/29/2021 9:00:00 PM 22.03 71.654 0.083 6.57 1.42 7.89
6/29/2021 9:15:00 PM 21.94 71.492 0.083 6.58 1.37 7.95
6/29/2021 9:30:00 PM 21.86 71.348 0.083 6.58 1.35 7.96
6/29/2021 9:45:00 PM 21.8 71.24 0.083 6.59 1.33 7.94
6/29/2021 10:00:00 PM 21.76 71.168 0.083 6.57 1.31 7.88
6/29/2021 10:15:00 PM 21.69 71.042 0.083 6.57 1.32 7.9
6/29/2021 10:30:00 PM 21.6 70.88 0.083 6.58 1.35 8.03
6/29/2021 10:45:00 PM 21.52 70.736 0.083 6.58 1.4 8.04
6/29/2021 11:00:00 PM 21.49 70.682 0.083 6.57 1.25 7.89
6/29/2021 11:15:00 PM 21.38 70.484 0.083 6.57 1.31 8.01
6/29/2021 11:30:00 PM 21.35 70.43 0.083 6.55 1.25 7.88
6/29/2021 11:45:00 PM 21.19 70.142 0.083 6.56 1.4 8.01
6/30/2021 12:00:00 AM 21.1 69.98 0.083 6.57 1.26 8.03
6/30/2021 12:15:00 AM 21.04 69.872 0.083 6.57 1.36 8.04
6/30/2021 12:30:00 AM 20.95 69.71 0.083 6.57 1.31 8.06
6/30/2021 12:45:00 AM 20.89 69.602 0.083 6.57 1.34 8.04
6/30/2021 1:00:00 AM 20.8 69.44 0.083 6.58 1.37 8.08
6/30/2021 1:15:00 AM 20.71 69.278 0.083 6.6 1.28 8.1
6/30/2021 1:30:00 AM 20.64 69.152 0.083 6.57 1.4 8.08
6/30/2021 1:45:00 AM 20.56 69.008 0.083 6.6 1.34 8.17
6/30/2021 2:00:00 AM 20.51 68.918 0.083 6.57 1.36 8.12
6/30/2021 2:15:00 AM 20.4 68.72 0.083 6.58 1.27 8.18
6/30/2021 2:30:00 AM 20.35 68.63 0.083 6.57 1.37 8.16
6/30/2021 2:45:00 AM 20.27 68.486 0.083 6.58 1.26 8.21
6/30/2021 3:00:00 AM 20.23 68.414 0.083 6.57 1.36 8.18
6/30/2021 3:15:00 AM 20.11 68.198 0.083 6.59 1.37 8.25
6/30/2021 3:30:00 AM 20.1 68.18 0.083 6.58 1.31 8.24
6/30/2021 3:45:00 AM 19.99 67.982 0.083 6.59 1.3 8.28
6/30/2021 4:00:00 AM 19.89 67.802 0.083 6.63 1.26 8.38
6/30/2021 4:15:00 AM 19.86 67.748 0.083 6.6 1.4 8.32
6/30/2021 4:30:00 AM 19.83 67.694 0.083 6.6 1.33 8.26
6/30/2021 4:45:00 AM 19.74 67.532 0.083 6.58 1.3 8.27
6/30/2021 5:00:00 AM 19.69 67.442 0.083 6.59 1.3 8.31
6/30/2021 5:15:00 AM 19.64 67.352 0.083 6.59 1.42 8.34
6/30/2021 5:30:00 AM 19.58 67.244 0.083 6.59 1.48 8.33
6/30/2021 5:45:00 AM 19.51 67.118 0.083 6.61 1.3 8.36
6/30/2021 6:00:00 AM 19.44 66.992 0.083 6.6 1.37 8.39
6/30/2021 6:15:00 AM 19.38 66.884 0.083 6.6 1.3 8.4
6/30/2021 6:30:00 AM 19.38 66.884 0.083 6.6 1.27 8.36
6/30/2021 6:45:00 AM 19.34 66.812 0.083 6.61 1.33 8.48
6/30/2021 7:00:00 AM 19.29 66.722 0.083 6.62 1.59 8.55
6/30/2021 7:15:00 AM 19.31 66.758 0.083 6.66 1.21 8.6
6/30/2021 7:30:00 AM 19.34 66.812 0.083 6.65 1.48 8.59
6/30/2021 7:45:00 AM 19.31 66.758 0.083 6.66 1.43 8.68
6/30/2021 8:00:00 AM 19.33 66.794 0.083 6.67 1.16 8.7
6/30/2021 8:15:00 AM 19.44 66.992 0.083 6.69 1.16 8.66
6/30/2021 8:30:00 AM 19.58 67.244 0.083 6.68 1.33 8.71
6/30/2021 8:45:00 AM 19.63 67.334 0.083 6.68 1.18 8.69
6/30/2021 9:00:00 AM 19.62 67.316 0.083 6.67 1.17 8.71
6/30/2021 9:15:00 AM 19.67 67.406 0.083 6.7 1.13 8.67
6/30/2021 9:30:00 AM 19.78 67.604 0.083 6.7 1.14 8.75
6/30/2021 9:45:00 AM 20 68 0.083 6.7 1.18 8.69
6/30/2021 10:00:00 AM 20.2 68.36 0.082 6.73 1.18 8.79
6/30/2021 10:15:00 AM 20.42 68.756 0.083 6.7 1.13 8.62
6/30/2021 10:30:00 AM 20.69 69.242 0.082 6.75 1.49 8.69
6/30/2021 10:45:00 AM 20.94 69.692 0.082 6.73 1.16 8.64
6/30/2021 11:00:00 AM 21.24 70.232 0.082 6.72 1.14 8.62
6/30/2021 11:15:00 AM 21.49 70.682 0.082 6.71 1.62 8.58
6/30/2021 11:30:00 AM 21.75 71.15 0.082 6.72 1.16 8.57
6/30/2021 11:45:00 AM 21.9 71.42 0.082 6.76 1.5 8.58
6/30/2021 12:00:00 PM 22 71.6 0.082 6.75 1.11 8.59
6/30/2021 12:15:00 PM 21.85 71.33 0.082 6.7 1.09 8.53
6/30/2021 12:30:00 PM 21.98 71.564 0.082 6.73 1.19 8.57
6/30/2021 12:45:00 PM 21.81 71.258 0.082 6.71 1.45 8.52
6/30/2021 1:00:00 PM 22.07 71.726 0.082 6.76 1.1 8.57
6/30/2021 1:15:00 PM 22.3 72.14 0.082 6.72 1.18 8.47
6/30/2021 1:30:00 PM 22.49 72.482 0.082 6.74 1.1 8.47
6/30/2021 1:45:00 PM 22.73 72.914 0.082 6.75 1.12 8.45
6/30/2021 2:00:00 PM 22.94 73.292 0.082 6.75 1.14 8.41
6/30/2021 2:15:00 PM 22.86 73.148 0.082 6.72 1.14 8.42
6/30/2021 2:30:00 PM 22.8 73.04 0.082 6.71 1.13 8.35
6/30/2021 2:45:00 PM 22.53 72.554 0.082 6.68 1.14 8.38
6/30/2021 3:00:00 PM 22.65 72.77 0.082 6.72 1.1 8.4
6/30/2021 3:15:00 PM 22.93 73.274 0.082 6.74 1.05 8.31
6/30/2021 3:30:00 PM 22.94 73.292 0.082 6.71 1.19 8.36
6/30/2021 3:45:00 PM 22.89 73.202 0.082 6.71 1.05 8.38
6/30/2021 4:00:00 PM 22.74 72.932 0.082 6.7 1.13 8.36
6/30/2021 4:15:00 PM 22.51 72.518 0.082 6.66 1.09 8.28
6/30/2021 4:30:00 PM 22.35 72.23 0.082 6.65 1.03 8.18
6/30/2021 4:45:00 PM 22.25 72.05 0.082 6.62 1.1 8.11
6/30/2021 5:00:00 PM 22.08 71.744 0.082 6.64 1.06 8.16
6/30/2021 5:15:00 PM 21.79 71.222 0.072 6.67 8.86 8.02
6/30/2021 5:30:00 PM 21.79 71.222 0.073 6.75 8.03 8.21
6/30/2021 5:45:00 PM 21.6 70.88 0.074 6.71 8.32 8.25
6/30/2021 6:00:00 PM 21.4 70.52 0.071 6.67 14.01 8.29
6/30/2021 6:15:00 PM 21.2 70.16 0.069 6.59 16.66 8.35
6/30/2021 6:30:00 PM 21.01 69.818 0.066 6.57 13.89 8.38
6/30/2021 6:45:00 PM 20.79 69.422 0.067 6.59 15.59 8.55
6/30/2021 7:00:00 PM 20.58 69.044 0.068 6.62 23.68 8.64
6/30/2021 7:15:00 PM 20.34 68.612 0.063 6.69 42.09 8.74
6/30/2021 7:30:00 PM 20.06 68.108 0.061 6.71 49.06 8.82
6/30/2021 7:45:00 PM 19.75 67.55 0.064 6.8 111.19 8.91
6/30/2021 8:00:00 PM 19.58 67.244 0.072 6.87 59.75 8.96
6/30/2021 8:15:00 PM 19.42 66.956 0.075 6.91 55.57 9.02
6/30/2021 8:30:00 PM 19.27 66.686 0.082 6.92 49.9 9.05
6/30/2021 8:45:00 PM 19.17 66.506 0.089 6.97 47.1 9.09
6/30/2021 9:00:00 PM 19.1 66.38 0.088 6.94 43.26 9.09
6/30/2021 9:15:00 PM 19.03 66.254 0.086 6.92 38.68 9.1
6/30/2021 9:30:00 PM 18.97 66.146 0.085 6.88 37.16 9.12
6/30/2021 9:45:00 PM 18.92 66.056 0.084 6.84 35.94 9.12
6/30/2021 10:00:00 PM 18.88 65.984 0.083 6.82 37.21 9.14
6/30/2021 10:15:00 PM 18.84 65.912 0.083 6.83 39.58 9.13
6/30/2021 10:30:00 PM 18.82 65.876 0.083 6.8 33.23 9.13
6/30/2021 10:45:00 PM 18.79 65.82201 0.083 6.81 26.94 9.13
6/30/2021 11:00:00 PM 18.77 65.786 0.084 6.78 20.75 9.13
6/30/2021 11:15:00 PM 18.75 65.75 0.084 6.77 17.95 9.11
6/30/2021 11:30:00 PM 18.73 65.714 0.085 6.76 15.55 9.12
6/30/2021 11:45:00 PM 18.71 65.67799 0.085 6.75 14.07 9.1
7/1/2021 12:00:00 AM 18.68 65.624 0.086 6.76 12.61 9.11
7/1/2021 12:15:00 AM 18.66 65.588 0.085 6.75 11.31 9.11
7/1/2021 12:30:00 AM 18.64 65.552 0.085 6.74 12.73 9.12
7/1/2021 12:45:00 AM 18.62 65.516 0.085 6.73 9.87 9.12
7/1/2021 1:00:00 AM 18.59 65.462 0.085 6.73 8.19 9.11
7/1/2021 1:15:00 AM 18.55 65.39 0.085 6.73 7.69 9.12
7/1/2021 1:30:00 AM 18.53 65.354 0.085 6.74 6.83 9.08
7/1/2021 1:45:00 AM 18.5 65.3 0.085 6.72 6.68 9.09
7/1/2021 2:00:00 AM 18.49 65.282 0.084 6.72 5.97 9.07
7/1/2021 2:15:00 AM 18.46 65.228 0.084 6.72 5.91 9.09
7/1/2021 2:30:00 AM 18.45 65.21 0.083 6.72 5.32 9.12
7/1/2021 2:45:00 AM 18.45 65.21 0.082 6.72 5.27 9.1
7/1/2021 3:00:00 AM 18.43 65.174 0.082 6.74 5.06 9.1
7/1/2021 3:15:00 AM 18.4 65.12 0.082 6.72 4.54 9.07
7/1/2021 3:30:00 AM 18.42 65.156 0.08 6.73 4.74 9.11
7/1/2021 3:45:00 AM 18.41 65.138 0.079 6.73 4.8 9.13
7/1/2021 4:00:00 AM 18.39 65.102 0.08 6.73 6 9.12
7/1/2021 4:15:00 AM 18.35 65.03 0.079 6.7 5.85 9.09
7/1/2021 4:30:00 AM 18.31 64.958 0.079 6.71 6.15 9.12
7/1/2021 4:45:00 AM 18.28 64.904 0.079 6.69 6.39 9.14
7/1/2021 5:00:00 AM 18.23 64.814 0.079 6.7 7.36 9.14
7/1/2021 5:15:00 AM 18.18 64.724 0.078 6.73 8.16 9.21
7/1/2021 5:30:00 AM 18.1 64.58 0.078 6.75 9.19 9.27
7/1/2021 5:45:00 AM 18 64.4 0.076 6.76 11.33 9.31
7/1/2021 6:00:00 AM 17.89 64.202 0.074 6.75 11.97 9.35
7/1/2021 6:15:00 AM 17.79 64.022 0.074 6.77 13.66 9.4
7/1/2021 6:30:00 AM 17.7 63.86 0.074 6.78 13.88 9.42
7/1/2021 6:45:00 AM 17.66 63.788 0.076 6.75 13.88 9.44
7/1/2021 7:00:00 AM 17.62 63.716 0.079 6.75 13.57 9.44
7/1/2021 7:15:00 AM 17.59 63.662 0.081 6.75 13.89 9.46
7/1/2021 7:30:00 AM 17.57 63.626 0.081 6.76 13.08 9.47
7/1/2021 7:45:00 AM 17.55 63.59 0.081 6.73 11.86 9.48
7/1/2021 8:00:00 AM 17.54 63.572 0.081 6.72 11.81 9.49
7/1/2021 8:15:00 AM 17.53 63.554 0.081 6.72 11.73 9.49
7/1/2021 8:30:00 AM 17.51 63.518 0.08 6.71 12.49 9.48
7/1/2021 8:45:00 AM 17.51 63.518 0.08 6.71 12.65 9.49
7/1/2021 9:00:00 AM 17.51 63.518 0.079 6.71 12.62 9.49
7/1/2021 9:15:00 AM 17.53 63.554 0.079 6.7 10.98 9.5
7/1/2021 9:30:00 AM 17.54 63.572 0.079 6.74 9.72 9.51
7/1/2021 9:45:00 AM 17.54 63.572 0.079 6.71 8.57 9.51
7/1/2021 10:00:00 AM 17.56 63.608 0.079 6.71 7.94 9.5
7/1/2021 10:15:00 AM 17.56 63.608 0.079 6.72 7.14 9.51
7/1/2021 10:30:00 AM 17.57 63.626 0.079 6.73 6.7 9.51
7/1/2021 10:45:00 AM 17.58 63.644 0.079 6.73 6.19 9.51
7/1/2021 11:00:00 AM 17.6 63.68 0.079 6.74 5.91 9.51
7/1/2021 11:15:00 AM 17.62 63.716 0.079 6.77 5.43 9.51
7/1/2021 11:30:00 AM 17.65 63.77 0.079 6.74 6.95 9.51
7/1/2021 11:45:00 AM 17.66 63.788 0.079 6.74 5.3 9.51
7/1/2021 12:00:00 PM 17.67 63.806 0.079 6.76 5.08 9.49
7/1/2021 12:15:00 PM 17.67 63.806 0.078 6.75 5.72 9.48
7/1/2021 12:30:00 PM 17.65 63.77 0.078 6.77 5.5 9.47
7/1/2021 12:45:00 PM 17.66 63.788 0.078 6.75 4.33 9.46
7/1/2021 1:00:00 PM 17.67 63.806 0.078 6.75 4.26 9.48
7/1/2021 1:15:00 PM 17.68 63.824 0.078 6.76 4.22 9.49
7/1/2021 1:30:00 PM 17.69 63.842 0.077 6.76 4.17 9.47
7/1/2021 1:45:00 PM 17.71 63.878 0.077 6.76 3.99 9.48
7/1/2021 2:00:00 PM 17.72 63.896 0.077 6.76 4.23 9.49
7/1/2021 2:15:00 PM 17.77 63.986 0.077 6.76 4.92 9.47
7/1/2021 2:30:00 PM 17.82 64.076 0.077 6.77 3.67 9.48
7/1/2021 2:45:00 PM 17.87 64.166 0.076 6.77 3.88 9.47
7/1/2021 3:00:00 PM 17.89 64.202 0.076 6.77 3.76 9.47
7/1/2021 3:15:00 PM 17.93 64.274 0.076 6.77 3.52 9.47
7/1/2021 3:30:00 PM 17.95 64.31 0.076 6.77 3.6 9.46
7/1/2021 3:45:00 PM 17.94 64.292 0.076 6.77 3.41 9.45
7/1/2021 4:00:00 PM 17.95 64.31 0.076 6.76 3.33 9.41
7/1/2021 4:15:00 PM 17.98 64.364 0.076 6.77 3.41 9.42
7/1/2021 4:30:00 PM 17.99 64.382 0.076 6.76 3.39 9.41
7/1/2021 4:45:00 PM 17.99 64.382 0.076 6.76 3.41 9.4
7/1/2021 5:00:00 PM 18 64.4 0.076 6.77 3.21 9.42
7/1/2021 5:15:00 PM 17.98 64.364 0.076 6.78 3.21 9.38
7/1/2021 5:30:00 PM 17.95 64.31 0.076 6.75 3.09 9.33
7/1/2021 5:45:00 PM 17.91 64.238 0.076 6.77 3.16 9.34
7/1/2021 6:00:00 PM 17.88 64.184 0.076 6.74 3.13 9.33
7/1/2021 6:15:00 PM 17.84 64.112 0.076 6.74 3.06 9.33
7/1/2021 6:30:00 PM 17.8 64.04 0.076 6.73 3.03 9.32
7/1/2021 6:45:00 PM 17.76 63.968 0.076 6.73 3.04 9.33
7/1/2021 7:00:00 PM 17.73 63.914 0.076 6.72 3.39 9.32
7/1/2021 7:15:00 PM 17.68 63.824 0.076 6.72 2.91 9.31
7/1/2021 7:30:00 PM 17.65 63.77 0.076 6.72 2.92 9.32
7/1/2021 7:45:00 PM 17.61 63.698 0.076 6.73 3.04 9.32
7/1/2021 8:00:00 PM 17.58 63.644 0.076 6.72 3.02 9.31
7/1/2021 8:15:00 PM 17.55 63.59 0.076 6.72 2.98 9.32
7/1/2021 8:30:00 PM 17.53 63.554 0.076 6.71 2.98 9.33
7/1/2021 8:45:00 PM 17.49 63.482 0.076 6.7 2.95 9.34
7/1/2021 9:00:00 PM 17.45 63.41 0.076 6.69 2.85 9.33
7/1/2021 9:15:00 PM 17.42 63.356 0.076 6.69 2.89 9.32
7/1/2021 9:30:00 PM 17.4 63.32 0.076 6.7 2.86 9.31
7/1/2021 9:45:00 PM 17.36 63.248 0.076 6.68 3.03 9.34
7/1/2021 10:00:00 PM 17.34 63.212 0.076 6.68 2.89 9.33
7/1/2021 10:15:00 PM 17.31 63.158 0.076 6.68 2.99 9.33
7/1/2021 10:30:00 PM 17.29 63.122 0.076 6.69 3.04 9.36
7/1/2021 10:45:00 PM 17.28 63.104 0.076 6.69 2.72 9.37
7/1/2021 11:00:00 PM 17.26 63.068 0.076 6.71 2.8 9.36
7/1/2021 11:15:00 PM 17.23 63.014 0.076 6.7 2.74 9.39
7/1/2021 11:30:00 PM 17.21 62.978 0.076 6.71 2.62 9.35
7/1/2021 11:45:00 PM 17.18 62.924 0.076 6.71 2.73 9.38
7/2/2021 12:00:00 AM 17.16 62.888 0.076 6.7 2.59 9.38
7/2/2021 12:15:00 AM 17.13 62.834 0.076 6.72 2.82 9.39
7/2/2021 12:30:00 AM 17.1 62.78 0.076 6.72 2.59 9.4
7/2/2021 12:45:00 AM 17.08 62.744 0.076 6.72 2.62 9.41
7/2/2021 1:00:00 AM 17.05 62.69 0.076 6.72 2.56 9.41
7/2/2021 1:15:00 AM 17.02 62.636 0.076 6.71 2.89 9.4
7/2/2021 1:30:00 AM 16.99 62.582 0.076 6.71 2.8 9.4
7/2/2021 1:45:00 AM 16.97 62.546 0.076 6.74 2.59 9.42
7/2/2021 2:00:00 AM 16.94 62.492 0.076 6.72 2.44 9.42
7/2/2021 2:15:00 AM 16.91 62.438 0.076 6.72 2.57 9.43
7/2/2021 2:30:00 AM 16.88 62.384 0.076 6.71 2.6 9.42
7/2/2021 2:45:00 AM 16.86 62.348 0.076 6.71 2.48 9.4
7/2/2021 3:00:00 AM 16.84 62.312 0.076 6.72 2.46 9.42
7/2/2021 3:15:00 AM 16.81 62.258 0.076 6.73 2.54 9.44
7/2/2021 3:30:00 AM 16.78 62.204 0.076 6.71 2.58 9.44
7/2/2021 3:45:00 AM 16.74 62.132 0.076 6.74 2.5 9.44
7/2/2021 4:00:00 AM 16.7 62.06 0.076 6.71 2.65 9.47
7/2/2021 4:15:00 AM 16.67 62.006 0.076 6.71 2.39 9.46
7/2/2021 4:30:00 AM 16.63 61.934 0.076 6.71 2.66 9.47
7/2/2021 4:45:00 AM 16.6 61.88 0.076 6.74 2.46 9.48
7/2/2021 5:00:00 AM 16.55 61.79 0.076 6.7 2.44 9.5
7/2/2021 5:15:00 AM 16.52 61.736 0.076 6.71 2.55 9.51
7/2/2021 5:30:00 AM 16.5 61.7 0.076 6.71 2.54 9.5
7/2/2021 5:45:00 AM 16.47 61.646 0.076 6.71 2.47 9.51
7/2/2021 6:00:00 AM 16.44 61.592 0.076 6.72 2.49 9.53
7/2/2021 6:15:00 AM 16.41 61.538 0.076 6.7 2.68 9.53
7/2/2021 6:30:00 AM 16.38 61.484 0.076 6.71 2.26 9.55
7/2/2021 6:45:00 AM 16.35 61.43 0.076 6.71 2.36 9.56
7/2/2021 7:00:00 AM 16.34 61.412 0.076 6.71 2.74 9.57
7/2/2021 7:15:00 AM 16.33 61.394 0.076 6.73 2.23 9.61
7/2/2021 7:30:00 AM 16.32 61.376 0.076 6.72 2.18 9.63
7/2/2021 7:45:00 AM 16.32 61.376 0.076 6.73 2.13 9.66
7/2/2021 8:00:00 AM 16.32 61.376 0.076 6.73 2.62 9.68
7/2/2021 8:15:00 AM 16.34 61.412 0.076 6.73 2.1 9.68
7/2/2021 8:30:00 AM 16.36 61.448 0.076 6.75 2.07 9.7
7/2/2021 8:45:00 AM 16.37 61.466 0.076 6.75 2.1 9.69
7/2/2021 9:00:00 AM 16.35 61.43 0.076 6.75 2.08 9.68
7/2/2021 9:15:00 AM 16.34 61.412 0.076 6.74 2.02 9.66
7/2/2021 9:30:00 AM 16.34 61.412 0.076 6.75 2.05 9.67
7/2/2021 9:45:00 AM 16.37 61.466 0.076 6.75 2.06 9.69
7/2/2021 10:00:00 AM 16.36 61.448 0.076 6.76 2.01 9.71
7/2/2021 10:15:00 AM 16.37 61.466 0.076 6.76 1.93 9.7
7/2/2021 10:30:00 AM 16.36 61.448 0.076 6.76 2.03 9.7
7/2/2021 10:45:00 AM 16.37 61.466 0.076 6.78 1.95 9.71
7/2/2021 11:00:00 AM 16.49 61.682 0.076 6.79 1.98 9.74
7/2/2021 11:15:00 AM 16.72 62.096 0.076 6.85 2.12 9.79
7/2/2021 11:30:00 AM 16.91 62.438 0.076 6.82 2.04 9.77
7/2/2021 11:45:00 AM 16.86 62.348 0.076 6.8 1.99 9.74
7/2/2021 12:00:00 PM 16.9 62.42 0.076 6.79 1.91 9.72
7/2/2021 12:15:00 PM 17.25 63.05 0.076 6.84 1.91 9.72
7/2/2021 12:30:00 PM 17.19 62.942 0.076 6.82 1.92 9.68
7/2/2021 12:45:00 PM 17.4 63.32 0.076 6.82 1.97 9.68
7/2/2021 1:00:00 PM 17.29 63.122 0.076 6.8 1.96 9.64
7/2/2021 1:15:00 PM 17.34 63.212 0.076 6.8 1.91 9.63
7/2/2021 1:30:00 PM 17.71 63.878 0.076 6.84 2.01 9.61
7/2/2021 1:45:00 PM 17.51 63.518 0.076 6.77 1.97 9.54
7/2/2021 2:00:00 PM 17.41 63.338 0.076 6.76 1.88 9.55
7/2/2021 2:15:00 PM 17.6 63.68 0.076 6.8 1.92 9.57
7/2/2021 2:30:00 PM 17.62 63.716 0.076 6.79 1.89 9.57
7/2/2021 2:45:00 PM 17.62 63.716 0.076 6.79 1.88 9.57
7/2/2021 3:00:00 PM 17.62 63.716 0.076 6.79 1.89 9.56
7/2/2021 3:15:00 PM 17.69 63.842 0.076 6.81 1.89 9.56
7/2/2021 3:30:00 PM 17.62 63.716 0.076 6.79 1.87 9.55
7/2/2021 3:45:00 PM 17.59 63.662 0.076 6.8 1.91 9.53
7/2/2021 4:00:00 PM 17.62 63.716 0.076 6.8 1.96 9.54
7/2/2021 4:15:00 PM 17.63 63.734 0.076 6.8 1.84 9.51
7/2/2021 4:30:00 PM 17.64 63.752 0.076 6.8 1.92 9.51
7/2/2021 4:45:00 PM 17.62 63.716 0.076 6.79 1.88 9.5
7/2/2021 5:00:00 PM 17.57 63.626 0.076 6.79 1.94 9.49
7/2/2021 5:15:00 PM 17.52 63.536 0.076 6.77 1.87 9.49
7/2/2021 5:30:00 PM 17.45 63.41 0.076 6.76 1.87 9.49
7/2/2021 5:45:00 PM 17.42 63.356 0.077 6.76 1.88 9.5
7/2/2021 6:00:00 PM 17.35 63.23 0.077 6.76 1.81 9.51
7/2/2021 6:15:00 PM 17.28 63.104 0.077 6.76 1.87 9.53
7/2/2021 6:30:00 PM 17.22 62.996 0.077 6.75 1.9 9.53
7/2/2021 6:45:00 PM 17.15 62.87 0.077 6.76 1.87 9.55
7/2/2021 7:00:00 PM 17.05 62.69 0.077 6.74 1.8 9.53
7/2/2021 7:15:00 PM 16.97 62.546 0.077 6.73 1.82 9.53
7/2/2021 7:30:00 PM 16.89 62.402 0.077 6.74 1.84 9.52
7/2/2021 7:45:00 PM 16.83 62.294 0.078 6.74 1.86 9.53
7/2/2021 8:00:00 PM 16.79 62.222 0.078 6.73 1.86 9.54
7/2/2021 8:15:00 PM 16.74 62.132 0.078 6.73 1.8 9.54
7/2/2021 8:30:00 PM 16.68 62.024 0.079 6.72 1.8 9.51
7/2/2021 8:45:00 PM 16.61 61.898 0.079 6.71 1.91 9.52
7/2/2021 9:00:00 PM 16.54 61.772 0.079 6.71 1.96 9.52
7/2/2021 9:15:00 PM 16.5 61.7 0.078 6.71 1.82 9.51
7/2/2021 9:30:00 PM 16.47 61.646 0.078 6.69 2.08 9.52
7/2/2021 9:45:00 PM 16.42 61.556 0.078 6.69 1.95 9.51
7/2/2021 10:00:00 PM 16.38 61.484 0.078 6.69 2.05 9.5
7/2/2021 10:15:00 PM 16.31 61.358 0.078 6.71 1.98 9.53
7/2/2021 10:30:00 PM 16.26 61.268 0.078 6.68 1.96 9.54
7/2/2021 10:45:00 PM 16.2 61.16 0.078 6.69 1.93 9.53
7/2/2021 11:00:00 PM 16.15 61.07 0.078 6.69 1.97 9.56
7/2/2021 11:15:00 PM 16.08 60.944 0.078 6.68 1.88 9.57
7/2/2021 11:30:00 PM 16.04 60.872 0.078 6.71 1.96 9.58
7/2/2021 11:45:00 PM 15.99 60.782 0.078 6.69 1.92 9.59
7/3/2021 12:00:00 AM 15.94 60.692 0.078 6.68 2.01 9.6
7/3/2021 12:15:00 AM 15.88 60.584 0.078 6.68 1.88 9.61
7/3/2021 12:30:00 AM 15.84 60.512 0.078 6.68 1.86 9.61
7/3/2021 12:45:00 AM 15.8 60.44 0.078 6.69 1.83 9.64
7/3/2021 1:00:00 AM 15.75 60.35 0.078 6.69 1.87 9.64
7/3/2021 1:15:00 AM 15.7 60.26 0.078 6.68 1.9 9.65
7/3/2021 1:30:00 AM 15.67 60.206 0.078 6.68 1.82 9.64
7/3/2021 1:45:00 AM 15.64 60.152 0.078 6.69 1.95 9.66
7/3/2021 2:00:00 AM 15.6 60.08 0.078 6.68 1.82 9.66
7/3/2021 2:15:00 AM 15.56 60.008 0.078 6.68 1.86 9.69
7/3/2021 2:30:00 AM 15.54 59.972 0.078 6.68 1.95 9.67
7/3/2021 2:45:00 AM 15.51 59.918 0.078 6.68 1.94 9.7
7/3/2021 3:00:00 AM 15.48 59.864 0.078 6.68 1.84 9.7
7/3/2021 3:15:00 AM 15.44 59.792 0.078 6.68 1.86 9.7
7/3/2021 3:30:00 AM 15.42 59.756 0.078 6.68 1.8 9.7
7/3/2021 3:45:00 AM 15.4 59.72 0.078 6.68 1.82 9.71
7/3/2021 4:00:00 AM 15.38 59.684 0.078 6.68 1.84 9.71
7/3/2021 4:15:00 AM 15.35 59.63 0.078 6.68 1.81 9.71
7/3/2021 4:30:00 AM 15.33 59.594 0.078 6.71 1.8 9.72
7/3/2021 4:45:00 AM 15.31 59.558 0.078 6.68 1.86 9.72
7/3/2021 5:00:00 AM 15.29 59.522 0.078 6.67 1.79 9.72
7/3/2021 5:15:00 AM 15.28 59.504 0.078 6.68 1.88 9.72
7/3/2021 5:30:00 AM 15.26 59.468 0.078 6.68 1.86 9.72
7/3/2021 5:45:00 AM 15.24 59.432 0.078 6.68 1.83 9.72
7/3/2021 6:00:00 AM 15.23 59.414 0.078 6.7 1.79 9.74
7/3/2021 6:15:00 AM 15.21 59.378 0.078 6.67 1.77 9.75
7/3/2021 6:30:00 AM 15.21 59.378 0.078 6.69 1.73 9.78
7/3/2021 6:45:00 AM 15.21 59.378 0.078 6.7 1.74 9.77
7/3/2021 7:00:00 AM 15.2 59.36 0.078 6.7 1.74 9.81
7/3/2021 7:15:00 AM 15.19 59.342 0.078 6.7 1.64 9.81
7/3/2021 7:30:00 AM 15.2 59.36 0.078 6.71 1.7 9.85
7/3/2021 7:45:00 AM 15.22 59.396 0.078 6.71 1.71 9.87
7/3/2021 8:00:00 AM 15.22 59.396 0.078 6.71 1.71 9.87
7/3/2021 8:15:00 AM 15.26 59.468 0.078 6.72 1.73 9.9
7/3/2021 8:30:00 AM 15.3 59.54 0.078 6.74 1.69 9.94
7/3/2021 8:45:00 AM 15.33 59.594 0.078 6.74 1.69 9.94
7/3/2021 9:00:00 AM 15.39 59.702 0.078 6.77 1.69 9.96
7/3/2021 9:15:00 AM 15.46 59.828 0.078 6.76 1.65 9.97
7/3/2021 9:30:00 AM 15.5 59.9 0.078 6.76 1.65 9.96
7/3/2021 9:45:00 AM 15.55 59.99 0.078 6.77 1.66 9.97
7/3/2021 10:00:00 AM 15.58 60.044 0.078 6.76 1.67 9.95
7/3/2021 10:15:00 AM 15.71 60.278 0.078 6.79 1.69 9.98
7/3/2021 10:30:00 AM 15.69 60.242 0.078 6.77 1.68 9.93
7/3/2021 10:45:00 AM 15.68 60.224 0.078 6.76 1.61 9.89
7/3/2021 11:00:00 AM 15.72 60.296 0.077 6.77 1.72 9.93
7/3/2021 11:15:00 AM 15.82 60.476 0.078 6.78 1.62 9.93
7/3/2021 11:30:00 AM 15.99 60.782 0.077 6.8 1.63 9.94
7/3/2021 11:45:00 AM 16.36 61.448 0.078 6.81 1.69 9.92
7/3/2021 12:00:00 PM 16.55 61.79 0.077 6.8 1.66 9.9
7/3/2021 12:15:00 PM 16.79 62.222 0.077 6.82 1.64 9.86
7/3/2021 12:30:00 PM 16.76 62.168 0.077 6.79 1.69 9.83
7/3/2021 12:45:00 PM 16.8 62.24 0.077 6.8 1.63 9.79
7/3/2021 1:00:00 PM 16.87 62.366 0.078 6.77 1.64 9.74
7/3/2021 1:15:00 PM 17.12 62.816 0.078 6.8 1.62 9.69
7/3/2021 1:30:00 PM 17.02 62.636 0.078 6.76 1.61 9.69
7/3/2021 1:45:00 PM 17.49 63.482 0.078 6.82 1.56 9.68
7/3/2021 2:00:00 PM 17.39 63.302 0.078 6.77 1.66 9.66
7/3/2021 2:15:00 PM 17.38 63.284 0.078 6.79 1.62 9.68
7/3/2021 2:30:00 PM 17.41 63.338 0.078 6.77 1.62 9.66
7/3/2021 2:45:00 PM 17.45 63.41 0.078 6.76 1.67 9.6
7/3/2021 3:00:00 PM 17.56 63.608 0.077 6.79 1.92 9.6
7/3/2021 3:15:00 PM 17.59 63.662 0.077 6.78 1.67 9.59
7/3/2021 3:30:00 PM 17.61 63.698 0.077 6.76 1.66 9.59
7/3/2021 3:45:00 PM 17.75 63.95 0.077 6.82 1.63 9.59
7/3/2021 4:00:00 PM 17.81 64.058 0.077 6.79 1.83 9.58
7/3/2021 4:15:00 PM 17.69 63.842 0.078 6.75 1.65 9.53
7/3/2021 4:30:00 PM 17.85 64.13 0.078 6.8 1.58 9.55
7/3/2021 4:45:00 PM 17.71 63.878 0.078 6.76 1.63 9.53
7/3/2021 5:00:00 PM 17.71 63.878 0.078 6.77 1.64 9.57
7/3/2021 5:15:00 PM 17.74 63.932 0.078 6.76 1.83 9.55
7/3/2021 5:30:00 PM 17.7 63.86 0.078 6.76 1.64 9.55
7/3/2021 5:45:00 PM 17.51 63.518 0.078 6.73 1.62 9.51
7/3/2021 6:00:00 PM 17.49 63.482 0.078 6.75 1.64 9.52
7/3/2021 6:15:00 PM 17.42 63.356 0.078 6.73 1.67 9.47
7/3/2021 6:30:00 PM 17.39 63.302 0.078 6.72 1.61 9.44
7/3/2021 6:45:00 PM 17.36 63.248 0.078 6.71 1.83 9.41
7/3/2021 7:00:00 PM 17.32 63.176 0.078 6.72 1.75 9.38
7/3/2021 7:15:00 PM 17.26 63.068 0.078 6.71 1.68 9.38
7/3/2021 7:30:00 PM 17.23 63.014 0.078 6.71 1.72 9.4
7/3/2021 7:45:00 PM 17.2 62.96 0.078 6.73 1.62 9.39
7/3/2021 8:00:00 PM 17.13 62.834 0.078 6.7 1.66 9.36
7/3/2021 8:15:00 PM 17.08 62.744 0.078 6.69 1.63 9.34
7/3/2021 8:30:00 PM 17.02 62.636 0.078 6.69 1.72 9.34
7/3/2021 8:45:00 PM 16.96 62.528 0.078 6.69 1.72 9.34
7/3/2021 9:00:00 PM 16.91 62.438 0.078 6.7 1.86 9.33
7/3/2021 9:15:00 PM 16.87 62.366 0.078 6.68 1.68 9.33
7/3/2021 9:30:00 PM 16.84 62.312 0.079 6.68 1.73 9.31
7/3/2021 9:45:00 PM 16.79 62.222 0.079 6.67 1.73 9.32
7/3/2021 10:00:00 PM 16.76 62.168 0.079 6.67 1.69 9.32
7/3/2021 10:15:00 PM 16.71 62.078 0.079 6.67 1.66 9.34
7/3/2021 10:30:00 PM 16.65 61.97 0.079 6.67 1.68 9.34
7/3/2021 10:45:00 PM 16.61 61.898 0.079 6.67 1.77 9.34
7/3/2021 11:00:00 PM 16.56 61.808 0.079 6.67 1.76 9.36
7/3/2021 11:15:00 PM 16.52 61.736 0.079 6.67 1.69 9.36
7/3/2021 11:30:00 PM 16.49 61.682 0.079 6.69 1.74 9.36
7/3/2021 11:45:00 PM 16.46 61.628 0.079 6.68 2.09 9.37
7/4/2021 12:00:00 AM 16.42 61.556 0.079 6.67 1.7 9.39
7/4/2021 12:15:00 AM 16.37 61.466 0.079 6.67 1.73 9.38
7/4/2021 12:30:00 AM 16.33 61.394 0.079 6.66 1.71 9.39
7/4/2021 12:45:00 AM 16.27 61.286 0.079 6.66 1.85 9.4
7/4/2021 1:00:00 AM 16.23 61.214 0.079 6.66 1.77 9.4
7/4/2021 1:15:00 AM 16.18 61.124 0.079 6.66 1.79 9.44
7/4/2021 1:30:00 AM 16.13 61.034 0.079 6.66 1.6 9.43
7/4/2021 1:45:00 AM 16.09 60.962 0.079 6.66 1.59 9.43
7/4/2021 2:00:00 AM 16.04 60.872 0.079 6.65 1.61 9.44
7/4/2021 2:15:00 AM 16 60.8 0.079 6.66 1.52 9.44
7/4/2021 2:30:00 AM 15.95 60.71 0.079 6.66 1.61 9.46
7/4/2021 2:45:00 AM 15.91 60.638 0.079 6.66 1.61 9.47
7/4/2021 3:00:00 AM 15.88 60.584 0.079 6.67 1.53 9.48
7/4/2021 3:15:00 AM 15.83 60.494 0.079 6.66 1.56 9.48
7/4/2021 3:30:00 AM 15.76 60.368 0.079 6.66 1.48 9.49
7/4/2021 3:45:00 AM 15.71 60.278 0.079 6.67 1.52 9.51
7/4/2021 4:00:00 AM 15.67 60.206 0.079 6.66 1.57 9.52
7/4/2021 4:15:00 AM 15.64 60.152 0.079 6.66 1.53 9.53
7/4/2021 4:30:00 AM 15.59 60.062 0.079 6.66 1.6 9.52
7/4/2021 4:45:00 AM 15.55 59.99 0.079 6.66 1.62 9.54
7/4/2021 5:00:00 AM 15.5 59.9 0.079 6.69 1.64 9.55
7/4/2021 5:15:00 AM 15.44 59.792 0.079 6.65 1.72 9.55
7/4/2021 5:30:00 AM 15.4 59.72 0.079 6.65 1.64 9.56
7/4/2021 5:45:00 AM 15.35 59.63 0.079 6.67 1.66 9.58
7/4/2021 6:00:00 AM 15.32 59.576 0.079 6.66 1.57 9.6
7/4/2021 6:15:00 AM 15.3 59.54 0.079 6.67 1.49 9.63
7/4/2021 6:30:00 AM 15.27 59.486 0.079 6.67 1.48 9.64
7/4/2021 6:45:00 AM 15.25 59.45 0.079 6.67 1.5 9.66
7/4/2021 7:00:00 AM 15.21 59.378 0.079 6.69 1.48 9.7
7/4/2021 7:15:00 AM 15.19 59.342 0.079 6.68 1.49 9.75
7/4/2021 7:30:00 AM 15.19 59.342 0.079 6.72 1.47 9.8
7/4/2021 7:45:00 AM 15.21 59.378 0.079 6.71 1.47 9.84
7/4/2021 8:00:00 AM 15.2 59.36 0.079 6.71 1.43 9.85
7/4/2021 8:15:00 AM 15.18 59.324 0.079 6.72 1.47 9.87
7/4/2021 8:30:00 AM 15.2 59.36 0.079 6.72 1.48 9.89
7/4/2021 8:45:00 AM 15.27 59.486 0.079 6.76 1.44 9.89
7/4/2021 9:00:00 AM 15.35 59.63 0.079 6.74 1.51 9.89
7/4/2021 9:15:00 AM 15.44 59.792 0.079 6.74 1.45 9.87
7/4/2021 9:30:00 AM 15.54 59.972 0.079 6.76 1.52 9.88
7/4/2021 9:45:00 AM 15.67 60.206 0.079 6.77 1.5 9.87
7/4/2021 10:00:00 AM 15.84 60.512 0.079 6.78 1.45 9.84
7/4/2021 10:15:00 AM 16.04 60.872 0.079 6.77 1.42 9.82
7/4/2021 10:30:00 AM 16.25 61.25 0.079 6.79 1.41 9.81
7/4/2021 10:45:00 AM 16.46 61.628 0.079 6.78 1.45 9.78
7/4/2021 11:00:00 AM 16.68 62.024 0.079 6.77 1.38 9.73
7/4/2021 11:15:00 AM 16.89 62.402 0.079 6.77 1.49 9.7
7/4/2021 11:30:00 AM 17.1 62.78 0.079 6.79 1.44 9.64
7/4/2021 11:45:00 AM 17.33 63.194 0.079 6.78 1.43 9.65
7/4/2021 12:00:00 PM 17.55 63.59 0.079 6.79 1.39 9.6
7/4/2021 12:15:00 PM 17.8 64.04 0.079 6.78 1.4 9.56
7/4/2021 12:30:00 PM 18.03 64.454 0.079 6.78 1.34 9.53
7/4/2021 12:45:00 PM 18.26 64.868 0.079 6.81 1.34 9.5
7/4/2021 1:00:00 PM 18.48 65.264 0.079 6.78 1.38 9.45
7/4/2021 1:15:00 PM 18.69 65.642 0.079 6.79 1.47 9.41
7/4/2021 1:30:00 PM 18.88 65.984 0.079 6.78 1.41 9.4
7/4/2021 1:45:00 PM 19.08 66.344 0.079 6.78 1.43 9.33
7/4/2021 2:00:00 PM 19.24 66.632 0.079 6.78 1.35 9.32
7/4/2021 2:15:00 PM 19.37 66.866 0.079 6.78 1.44 9.3
7/4/2021 2:30:00 PM 19.52 67.136 0.079 6.77 1.37 9.26
7/4/2021 2:45:00 PM 19.61 67.298 0.079 6.77 1.34 9.25
7/4/2021 3:00:00 PM 19.64 67.352 0.079 6.75 1.38 9.23
7/4/2021 3:15:00 PM 19.77 67.586 0.079 6.77 1.29 9.21
7/4/2021 3:30:00 PM 19.64 67.352 0.079 6.75 1.39 9.19
7/4/2021 3:45:00 PM 19.76 67.568 0.079 6.75 1.36 9.19
7/4/2021 4:00:00 PM 19.81 67.658 0.079 6.74 1.42 9.18
7/4/2021 4:15:00 PM 19.76 67.568 0.079 6.75 1.45 9.19
7/4/2021 4:30:00 PM 19.65 67.37 0.079 6.73 1.35 9.18
7/4/2021 4:45:00 PM 19.53 67.154 0.079 6.7 1.43 9.18
7/4/2021 5:00:00 PM 19.49 67.082 0.079 6.7 1.42 9.17
7/4/2021 5:15:00 PM 19.4 66.92 0.079 6.7 1.44 9.18
7/4/2021 5:30:00 PM 19.31 66.758 0.079 6.69 1.5 9.17
7/4/2021 5:45:00 PM 19.18 66.524 0.079 6.68 1.43 9.15
7/4/2021 6:00:00 PM 19.08 66.344 0.079 6.69 1.37 9.13
7/4/2021 6:15:00 PM 18.96 66.128 0.08 6.66 1.48 9.11
7/4/2021 6:30:00 PM 18.83 65.894 0.08 6.66 1.49 9.1
7/4/2021 6:45:00 PM 18.71 65.67799 0.08 6.65 1.36 9.08
7/4/2021 7:00:00 PM 18.61 65.498 0.08 6.63 1.47 9.04
7/4/2021 7:15:00 PM 18.52 65.336 0.08 6.64 1.42 9.04
7/4/2021 7:30:00 PM 18.43 65.174 0.08 6.66 1.48 9.03
7/4/2021 7:45:00 PM 18.34 65.012 0.08 6.63 1.46 9
7/4/2021 8:00:00 PM 18.26 64.868 0.08 6.63 1.41 8.99
7/4/2021 8:15:00 PM 18.18 64.724 0.08 6.62 1.46 8.97
7/4/2021 8:30:00 PM 18.1 64.58 0.08 6.62 1.4 8.96
7/4/2021 8:45:00 PM 18.02 64.436 0.08 6.61 1.46 8.95
7/4/2021 9:00:00 PM 17.93 64.274 0.08 6.6 1.51 8.93
7/4/2021 9:15:00 PM 17.85 64.13 0.08 6.61 1.57 8.93
7/4/2021 9:30:00 PM 17.77 63.986 0.08 6.61 1.45 8.92
7/4/2021 9:45:00 PM 17.69 63.842 0.081 6.6 1.51 8.9
7/4/2021 10:00:00 PM 17.63 63.734 0.081 6.6 1.45 8.91
7/4/2021 10:15:00 PM 17.55 63.59 0.081 6.6 1.48 8.96
7/4/2021 10:30:00 PM 17.47 63.446 0.081 6.6 1.55 8.96
7/4/2021 10:45:00 PM 17.4 63.32 0.081 6.61 1.53 8.96
7/4/2021 11:00:00 PM 17.34 63.212 0.081 6.6 1.48 8.98
7/4/2021 11:15:00 PM 17.28 63.104 0.081 6.6 1.64 8.98
7/4/2021 11:30:00 PM 17.21 62.978 0.081 6.6 1.47 9
7/4/2021 11:45:00 PM 17.16 62.888 0.081 6.59 1.48 8.98
7/5/2021 12:00:00 AM 17.09 62.762 0.081 6.63 1.54 9.02
7/5/2021 12:15:00 AM 17.02 62.636 0.081 6.6 1.44 9.03
7/5/2021 12:30:00 AM 16.96 62.528 0.081 6.61 1.45 9.03
7/5/2021 12:45:00 AM 16.9 62.42 0.081 6.6 1.42 9.05
7/5/2021 1:00:00 AM 16.82 62.276 0.081 6.61 1.42 9.09
7/5/2021 1:15:00 AM 16.76 62.168 0.081 6.63 1.51 9.09
7/5/2021 1:30:00 AM 16.71 62.078 0.081 6.6 1.59 9.1
7/5/2021 1:45:00 AM 16.66 61.988 0.081 6.61 1.47 9.11
7/5/2021 2:00:00 AM 16.59 61.862 0.081 6.61 1.52 9.13
7/5/2021 2:15:00 AM 16.52 61.736 0.081 6.61 1.42 9.14
7/5/2021 2:30:00 AM 16.48 61.664 0.081 6.61 1.53 9.15
7/5/2021 2:45:00 AM 16.42 61.556 0.081 6.63 1.54 9.17
7/5/2021 3:00:00 AM 16.37 61.466 0.081 6.62 1.47 9.2
7/5/2021 3:15:00 AM 16.34 61.412 0.081 6.62 1.55 9.19
7/5/2021 3:30:00 AM 16.28 61.304 0.08 6.62 1.44 9.24
7/5/2021 3:45:00 AM 16.24 61.232 0.08 6.63 1.42 9.23
7/5/2021 4:00:00 AM 16.23 61.214 0.081 6.62 1.45 9.21
7/5/2021 4:15:00 AM 16.19 61.142 0.081 6.64 1.51 9.21
7/5/2021 4:30:00 AM 16.11 60.998 0.081 6.63 1.48 9.24
7/5/2021 4:45:00 AM 16.12 61.016 0.081 6.63 1.46 9.22
7/5/2021 5:00:00 AM 16.07 60.926 0.081 6.62 1.55 9.26
7/5/2021 5:15:00 AM 16.05 60.89 0.081 6.62 1.61 9.26
7/5/2021 5:30:00 AM 16.02 60.836 0.081 6.62 1.61 9.27
7/5/2021 5:45:00 AM 15.97 60.746 0.081 6.65 1.53 9.28
7/5/2021 6:00:00 AM 15.97 60.746 0.081 6.63 1.47 9.27
7/5/2021 6:15:00 AM 15.92 60.656 0.081 6.62 1.49 9.3
7/5/2021 6:30:00 AM 15.89 60.602 0.081 6.64 1.41 9.36
7/5/2021 6:45:00 AM 15.89 60.602 0.081 6.63 1.46 9.31
7/5/2021 7:00:00 AM 15.85 60.53 0.081 6.64 1.5 9.4
7/5/2021 7:15:00 AM 15.84 60.512 0.081 6.64 1.5 9.4
7/5/2021 7:30:00 AM 15.83 60.494 0.08 6.66 1.42 9.5
7/5/2021 7:45:00 AM 15.85 60.53 0.08 6.67 1.44 9.54
7/5/2021 8:00:00 AM 15.87 60.566 0.08 6.67 1.54 9.59
7/5/2021 8:15:00 AM 15.91 60.638 0.08 6.68 1.41 9.58
7/5/2021 8:30:00 AM 15.93 60.674 0.08 6.69 1.4 9.65
7/5/2021 8:45:00 AM 15.97 60.746 0.08 6.7 1.39 9.68
7/5/2021 9:00:00 AM 16.04 60.872 0.08 6.73 1.44 9.7
7/5/2021 9:15:00 AM 16.11 60.998 0.08 6.71 1.44 9.73
7/5/2021 9:30:00 AM 16.19 61.142 0.08 6.72 1.39 9.7
7/5/2021 9:45:00 AM 16.3 61.34 0.08 6.72 1.41 9.68
7/5/2021 10:00:00 AM 16.47 61.646 0.08 6.74 1.47 9.69
7/5/2021 10:15:00 AM 16.65 61.97 0.081 6.73 1.41 9.61
7/5/2021 10:30:00 AM 16.85 62.33 0.081 6.72 1.34 9.57
7/5/2021 10:45:00 AM 17.07 62.726 0.08 6.72 1.37 9.57
7/5/2021 11:00:00 AM 17.3 63.14 0.08 6.75 1.38 9.53
7/5/2021 11:15:00 AM 17.49 63.482 0.08 6.73 1.33 9.52
7/5/2021 11:30:00 AM 17.72 63.896 0.08 6.74 1.35 9.53
7/5/2021 11:45:00 AM 17.91 64.238 0.08 6.73 1.35 9.47
7/5/2021 12:00:00 PM 18.1 64.58 0.08 6.74 1.36 9.46
7/5/2021 12:15:00 PM 18.36 65.048 0.08 6.75 1.39 9.44
7/5/2021 12:30:00 PM 18.56 65.408 0.08 6.76 1.32 9.43
7/5/2021 12:45:00 PM 18.78 65.804 0.08 6.75 1.3 9.4
7/5/2021 1:00:00 PM 19.03 66.254 0.08 6.76 1.35 9.36
7/5/2021 1:15:00 PM 19.26 66.668 0.08 6.76 1.31 9.3
7/5/2021 1:30:00 PM 19.44 66.992 0.08 6.78 1.4 9.28
7/5/2021 1:45:00 PM 19.66 67.388 0.08 6.77 1.32 9.29
7/5/2021 2:00:00 PM 19.82 67.676 0.08 6.76 1.35 9.21
7/5/2021 2:15:00 PM 20.02 68.036 0.08 6.76 1.34 9.22
7/5/2021 2:30:00 PM 20.11 68.198 0.08 6.77 1.33 9.2
7/5/2021 2:45:00 PM 20.22 68.396 0.08 6.75 1.34 9.14
7/5/2021 3:00:00 PM 20.31 68.558 0.08 6.75 1.3 9.13
7/5/2021 3:15:00 PM 20.4 68.72 0.08 6.79 1.44 9.11
7/5/2021 3:30:00 PM 20.41 68.738 0.08 6.74 1.34 9.12
7/5/2021 3:45:00 PM 20.38 68.684 0.08 6.72 1.47 9.1
7/5/2021 4:00:00 PM 20.43 68.774 0.08 6.75 1.35 9.06
7/5/2021 4:15:00 PM 20.25 68.45 0.08 6.71 1.51 9.05
7/5/2021 4:30:00 PM 20.27 68.486 0.08 6.71 1.38 9.04
7/5/2021 4:45:00 PM 20.32 68.576 0.08 6.7 1.34 9.01
7/5/2021 5:00:00 PM 20.22 68.396 0.08 6.69 1.35 9.04
7/5/2021 5:15:00 PM 20.13 68.234 0.08 6.69 1.3 9.06
7/5/2021 5:30:00 PM 20.13 68.234 0.08 6.68 1.35 9.02
7/5/2021 5:45:00 PM 20.03 68.054 0.08 6.68 1.32 8.99
7/5/2021 6:00:00 PM 19.93 67.874 0.08 6.68 1.34 9
7/5/2021 6:15:00 PM 19.85 67.73 0.08 6.68 1.31 9.02
7/5/2021 6:30:00 PM 19.75 67.55 0.08 6.67 1.29 8.95
7/5/2021 6:45:00 PM 19.68 67.424 0.08 6.66 1.36 8.91
7/5/2021 7:00:00 PM 19.61 67.298 0.08 6.65 1.33 8.91
7/5/2021 7:15:00 PM 19.54 67.172 0.08 6.65 1.3 8.87
7/5/2021 7:30:00 PM 19.47 67.046 0.08 6.65 1.34 8.87
7/5/2021 7:45:00 PM 19.39 66.902 0.08 6.64 1.31 8.84
7/5/2021 8:00:00 PM 19.32 66.776 0.081 6.63 1.34 8.78
7/5/2021 8:15:00 PM 19.24 66.632 0.081 6.62 1.34 8.77
7/5/2021 8:30:00 PM 19.16 66.488 0.081 6.61 1.35 8.75
7/5/2021 8:45:00 PM 19.08 66.344 0.081 6.6 1.36 8.71
7/5/2021 9:00:00 PM 19.01 66.218 0.081 6.6 1.41 8.7
7/5/2021 9:15:00 PM 18.95 66.11 0.081 6.6 1.35 8.68
7/5/2021 9:30:00 PM 18.89 66.002 0.081 6.59 1.4 8.65
7/5/2021 9:45:00 PM 18.81 65.858 0.081 6.61 1.47 8.69
7/5/2021 10:00:00 PM 18.75 65.75 0.081 6.6 1.5 8.76
7/5/2021 10:15:00 PM 18.69 65.642 0.081 6.6 1.54 8.71
7/5/2021 10:30:00 PM 18.64 65.552 0.081 6.6 1.44 8.66
7/5/2021 10:45:00 PM 18.58 65.444 0.081 6.59 1.41 8.74
7/5/2021 11:00:00 PM 18.53 65.354 0.081 6.59 1.54 8.74
7/5/2021 11:15:00 PM 18.47 65.246 0.082 6.6 1.45 8.78
7/5/2021 11:30:00 PM 18.42 65.156 0.081 6.62 1.49 8.76
7/5/2021 11:45:00 PM 18.36 65.048 0.081 6.61 1.44 8.76
7/6/2021 12:00:00 AM 18.31 64.958 0.082 6.59 1.49 8.76
7/6/2021 12:15:00 AM 18.25 64.85 0.082 6.6 1.44 8.78
7/6/2021 12:30:00 AM 18.19 64.742 0.082 6.62 1.44 8.82
7/6/2021 12:45:00 AM 18.14 64.652 0.082 6.61 1.51 8.82
7/6/2021 1:00:00 AM 18.1 64.58 0.082 6.61 1.48 8.81
7/6/2021 1:15:00 AM 18.05 64.49 0.082 6.6 1.43 8.82
7/6/2021 1:30:00 AM 18 64.4 0.082 6.6 1.42 8.85
7/6/2021 1:45:00 AM 17.96 64.328 0.082 6.6 1.5 8.86
7/6/2021 2:00:00 AM 17.93 64.274 0.082 6.59 1.5 8.84
7/6/2021 2:15:00 AM 17.88 64.184 0.082 6.6 1.45 8.85
7/6/2021 2:30:00 AM 17.83 64.094 0.082 6.6 1.4 8.84
7/6/2021 2:45:00 AM 17.8 64.04 0.082 6.6 1.48 8.9
7/6/2021 3:00:00 AM 17.76 63.968 0.082 6.6 1.46 8.9
7/6/2021 3:15:00 AM 17.71 63.878 0.082 6.6 1.49 8.91
7/6/2021 3:30:00 AM 17.7 63.86 0.082 6.59 1.42 8.88
7/6/2021 3:45:00 AM 17.65 63.77 0.082 6.62 1.42 8.92
7/6/2021 4:00:00 AM 17.61 63.698 0.082 6.6 1.45 8.97
7/6/2021 4:15:00 AM 17.56 63.608 0.082 6.62 1.43 8.96
7/6/2021 4:30:00 AM 17.52 63.536 0.082 6.6 1.47 8.94
7/6/2021 4:45:00 AM 17.48 63.464 0.082 6.59 1.52 8.96
7/6/2021 5:00:00 AM 17.46 63.428 0.082 6.59 1.46 8.95
7/6/2021 5:15:00 AM 17.42 63.356 0.082 6.62 1.44 8.96
7/6/2021 5:30:00 AM 17.38 63.284 0.082 6.6 1.51 8.96
7/6/2021 5:45:00 AM 17.35 63.23 0.082 6.59 1.41 8.99
7/6/2021 6:00:00 AM 17.33 63.194 0.082 6.6 1.45 8.96
7/6/2021 6:15:00 AM 17.28 63.104 0.082 6.6 1.4 9.03
7/6/2021 6:30:00 AM 17.29 63.122 0.082 6.6 1.42 9
7/6/2021 6:45:00 AM 17.25 63.05 0.082 6.61 1.42 9.07
7/6/2021 7:00:00 AM 17.26 63.068 0.082 6.61 1.39 9.14
7/6/2021 7:15:00 AM 17.25 63.05 0.081 6.65 1.38 9.18
7/6/2021 7:30:00 AM 17.3 63.14 0.082 6.63 1.41 9.17
7/6/2021 7:45:00 AM 17.31 63.158 0.081 6.64 1.39 9.25
7/6/2021 8:00:00 AM 17.35 63.23 0.081 6.64 1.38 9.26
7/6/2021 8:15:00 AM 17.38 63.284 0.081 6.66 1.38 9.31
7/6/2021 8:30:00 AM 17.47 63.446 0.081 6.66 1.31 9.31
7/6/2021 8:45:00 AM 17.56 63.608 0.082 6.7 1.29 9.36
7/6/2021 9:00:00 AM 17.62 63.716 0.081 6.69 1.39 9.36
7/6/2021 9:15:00 AM 17.75 63.95 0.081 6.7 1.35 9.4
7/6/2021 9:30:00 AM 17.85 64.13 0.081 6.72 1.38 9.43
7/6/2021 9:45:00 AM 18.02 64.436 0.081 6.73 1.55 9.4
7/6/2021 10:00:00 AM 18.17 64.706 0.081 6.73 1.37 9.41
7/6/2021 10:15:00 AM 18.41 65.138 0.081 6.75 1.38 9.38
7/6/2021 10:30:00 AM 18.61 65.498 0.081 6.75 1.39 9.31
7/6/2021 10:45:00 AM 18.86 65.948 0.081 6.76 1.32 9.37
7/6/2021 11:00:00 AM 19.12 66.416 0.081 6.76 1.29 9.26
7/6/2021 11:15:00 AM 19.34 66.812 0.081 6.77 1.33 9.25
7/6/2021 11:30:00 AM 19.65 67.37 0.081 6.78 1.3 9.29
7/6/2021 11:45:00 AM 19.85 67.73 0.081 6.77 1.29 9.24
7/6/2021 12:00:00 PM 19.9 67.82 0.081 6.75 1.35 9.23
7/6/2021 12:15:00 PM 19.99 67.982 0.081 6.76 1.31 9.19
7/6/2021 12:30:00 PM 20.19 68.342 0.081 6.78 1.28 9.16
7/6/2021 12:45:00 PM 20.39 68.702 0.081 6.79 1.29 9.13
7/6/2021 1:00:00 PM 20.66 69.188 0.081 6.79 1.36 9.09
7/6/2021 1:15:00 PM 20.78 69.404 0.081 6.78 1.33 9.13
7/6/2021 1:30:00 PM 21.03 69.854 0.081 6.8 1.34 9.1
7/6/2021 1:45:00 PM 20.99 69.782 0.081 6.74 1.35 9.06
7/6/2021 2:00:00 PM 20.92 69.656 0.081 6.75 1.32 9.03
7/6/2021 2:15:00 PM 20.8 69.44 0.081 6.74 1.33 9.03
7/6/2021 2:30:00 PM 20.91 69.638 0.08 6.77 1.32 9.03
7/6/2021 2:45:00 PM 21.09 69.962 0.081 6.79 1.29 9.02
7/6/2021 3:00:00 PM 21.15 70.07 0.081 6.76 1.28 9
7/6/2021 3:15:00 PM 21.4 70.52 0.081 6.8 1.38 8.96
7/6/2021 3:30:00 PM 21.49 70.682 0.081 6.78 1.37 8.97
7/6/2021 3:45:00 PM 21.31 70.358 0.081 6.73 1.32 8.94
7/6/2021 4:00:00 PM 21.09 69.962 0.081 6.71 1.27 8.9
7/6/2021 4:15:00 PM 21.13 70.034 0.081 6.74 1.33 8.94
7/6/2021 4:30:00 PM 21.05 69.89 0.081 6.71 1.29 8.92
7/6/2021 4:45:00 PM 20.92 69.656 0.081 6.7 1.3 8.84
7/6/2021 5:00:00 PM 20.81 69.458 0.081 6.69 1.27 8.85
7/6/2021 5:15:00 PM 20.73 69.314 0.081 6.68 1.33 8.81
7/6/2021 5:30:00 PM 20.67 69.206 0.081 6.67 1.34 8.78
7/6/2021 5:45:00 PM 20.57 69.026 0.081 6.66 1.33 8.68
7/6/2021 6:00:00 PM 20.49 68.882 0.081 6.66 1.37 8.69
7/6/2021 6:15:00 PM 20.41 68.738 0.081 6.66 1.3 8.74
7/6/2021 6:30:00 PM 20.37 68.666 0.081 6.66 1.29 8.75
7/6/2021 6:45:00 PM 20.38 68.684 0.081 6.7 1.34 8.81
7/6/2021 7:00:00 PM 20.31 68.558 0.081 6.69 1.35 8.82
7/6/2021 7:15:00 PM 20.22 68.396 0.082 6.67 1.32 8.78
7/6/2021 7:30:00 PM 20.11 68.198 0.082 6.66 1.5 8.73
7/6/2021 7:45:00 PM 20.02 68.036 0.082 6.65 1.36 8.69
7/6/2021 8:00:00 PM 19.96 67.92799 0.082 6.65 1.32 8.69
7/6/2021 8:15:00 PM 19.9 67.82 0.082 6.63 1.35 8.63
7/6/2021 8:30:00 PM 19.81 67.658 0.082 6.64 1.39 8.61
7/6/2021 8:45:00 PM 19.78 67.604 0.082 6.64 1.45 8.6
7/6/2021 9:00:00 PM 19.71 67.478 0.082 6.62 1.46 8.56
7/6/2021 9:15:00 PM 19.62 67.316 0.082 6.61 2.08 8.59
7/6/2021 9:30:00 PM 19.54 67.172 0.082 6.61 1.45 8.57
7/6/2021 9:45:00 PM 19.46 67.028 0.082 6.61 1.46 8.54
7/6/2021 10:00:00 PM 19.39 66.902 0.082 6.64 1.43 8.59
7/6/2021 10:15:00 PM 19.32 66.776 0.082 6.61 1.46 8.6
7/6/2021 10:30:00 PM 19.25 66.65 0.082 6.62 1.52 8.62
7/6/2021 10:45:00 PM 19.2 66.56 0.082 6.6 1.47 8.59
7/6/2021 11:00:00 PM 19.14 66.452 0.082 6.6 1.48 8.61
7/6/2021 11:15:00 PM 19.1 66.38 0.082 6.61 1.43 8.59
7/6/2021 11:30:00 PM 19.07 66.326 0.082 6.6 1.43 8.55
7/6/2021 11:45:00 PM 18.99 66.182 0.082 6.59 13.73 8.54
7/7/2021 12:00:00 AM 18.95 66.11 0.082 6.6 1.41 8.59
7/7/2021 12:15:00 AM 18.88 65.984 0.082 6.61 1.33 8.65
7/7/2021 12:30:00 AM 18.84 65.912 0.082 6.61 1.33 8.65
7/7/2021 12:45:00 AM 18.82 65.876 0.082 6.61 1.37 8.64
7/7/2021 1:00:00 AM 18.78 65.804 0.082 6.61 1.35 8.67
7/7/2021 1:15:00 AM 18.73 65.714 0.082 6.65 1.39 8.71
7/7/2021 1:30:00 AM 18.72 65.696 0.082 6.62 1.24 8.67
7/7/2021 1:45:00 AM 18.68 65.624 0.082 6.62 1.28 8.66
7/7/2021 2:00:00 AM 18.65 65.57 0.082 6.61 1.28 8.68
7/7/2021 2:15:00 AM 18.65 65.57 0.082 6.61 1.3 8.64
7/7/2021 2:30:00 AM 18.61 65.498 0.082 6.62 1.37 8.67
7/7/2021 2:45:00 AM 18.61 65.498 0.082 6.62 1.4 8.61
7/7/2021 3:00:00 AM 18.56 65.408 0.082 6.6 1.29 8.67
7/7/2021 3:15:00 AM 18.53 65.354 0.082 6.6 1.36 8.73
7/7/2021 3:30:00 AM 18.53 65.354 0.082 6.61 1.29 8.66
7/7/2021 3:45:00 AM 18.49 65.282 0.082 6.6 1.39 8.7
7/7/2021 4:00:00 AM 18.45 65.21 0.082 6.62 1.41 8.72
7/7/2021 4:15:00 AM 18.43 65.174 0.083 6.59 1.41 8.69
7/7/2021 4:30:00 AM 18.4 65.12 0.083 6.59 1.35 8.65
7/7/2021 4:45:00 AM 18.37 65.066 0.083 6.59 1.28 8.67
7/7/2021 5:00:00 AM 18.39 65.102 0.083 6.59 1.35 8.65
7/7/2021 5:15:00 AM 18.34 65.012 0.083 6.62 1.43 8.68
7/7/2021 5:30:00 AM 18.33 64.994 0.083 6.59 1.43 8.64
7/7/2021 5:45:00 AM 18.31 64.958 0.083 6.59 1.45 8.65
7/7/2021 6:00:00 AM 18.29 64.922 0.083 6.6 1.4 8.68
7/7/2021 6:15:00 AM 18.29 64.922 0.083 6.62 1.32 8.68
7/7/2021 6:30:00 AM 18.24 64.832 0.082 6.61 1.32 8.73
7/7/2021 6:45:00 AM 18.23 64.814 0.082 6.61 1.36 8.76
7/7/2021 7:00:00 AM 18.23 64.814 0.082 6.63 1.31 8.81
7/7/2021 7:15:00 AM 18.23 64.814 0.082 6.62 1.33 8.82
7/7/2021 7:30:00 AM 18.21 64.778 0.082 6.62 1.25 8.88
7/7/2021 7:45:00 AM 18.22 64.796 0.072 6.63 11.66 8.89
7/7/2021 8:00:00 AM 18.25 64.85 0.082 6.66 1.26 8.92
7/7/2021 8:15:00 AM 18.29 64.922 0.082 6.66 1.34 9.02
7/7/2021 8:30:00 AM 18.31 64.958 0.082 6.67 1.33 9.09
7/7/2021 8:45:00 AM 18.36 65.048 0.082 6.66 1.31 9.07
7/7/2021 9:00:00 AM 18.4 65.12 0.082 6.7 1.21 9.15
7/7/2021 9:15:00 AM 18.46 65.228 0.082 6.7 1.27 9.21
7/7/2021 9:30:00 AM 18.53 65.354 0.082 6.7 1.3 9.13
7/7/2021 9:45:00 AM 18.66 65.588 0.082 6.73 1.24 9.2
7/7/2021 10:00:00 AM 18.84 65.912 0.082 6.75 1.26 9.21
7/7/2021 10:15:00 AM 19.03 66.254 0.082 6.74 1.27 9.13
7/7/2021 10:30:00 AM 19.26 66.668 0.082 6.76 1.24 9.19
7/7/2021 10:45:00 AM 19.4 66.92 0.082 6.74 1.26 9.18
7/7/2021 11:00:00 AM 19.48 67.064 0.082 6.77 1.19 9.17
7/7/2021 11:15:00 AM 19.65 67.37 0.082 6.74 1.24 9.12
7/7/2021 11:30:00 AM 19.85 67.73 0.082 6.74 1.19 9.09
7/7/2021 11:45:00 AM 20.06 68.108 0.082 6.77 1.24 9.13
7/7/2021 12:00:00 PM 20.18 68.324 0.081 6.77 1.18 9.13
7/7/2021 12:15:00 PM 20.35 68.63 0.081 6.77 1.29 9.09
7/7/2021 12:30:00 PM 20.64 69.152 0.081 6.8 1.29 9.09
7/7/2021 12:45:00 PM 20.57 69.026 0.081 6.75 1.3 9.08
7/7/2021 1:00:00 PM 20.6 69.08 0.081 6.76 1.45 9.08
7/7/2021 1:15:00 PM 20.63 69.134 0.081 6.75 1.52 9.02
7/7/2021 1:30:00 PM 20.8 69.44 0.081 6.76 1.29 9.01
7/7/2021 1:45:00 PM 20.93 69.674 0.081 6.77 1.5 8.98
7/7/2021 2:00:00 PM 21.05 69.89 0.081 6.79 1.37 8.94
7/7/2021 2:15:00 PM 21.12 70.016 0.081 6.77 1.39 8.93
7/7/2021 2:30:00 PM 21.35 70.43 0.081 6.8 1.44 8.93
7/7/2021 2:45:00 PM 21.39 70.502 0.081 6.78 1.37 8.91
7/7/2021 3:00:00 PM 21.32 70.376 0.081 6.75 1.26 8.89
7/7/2021 3:15:00 PM 21.59 70.862 0.081 6.79 1.27 8.93
7/7/2021 3:30:00 PM 21.72 71.096 0.081 6.79 1.26 8.85
7/7/2021 3:45:00 PM 21.85 71.33 0.081 6.78 1.19 8.86
7/7/2021 4:00:00 PM 21.9 71.42 0.081 6.77 1.22 8.86
7/7/2021 4:15:00 PM 21.96 71.528 0.081 6.78 1.25 8.82
7/7/2021 4:30:00 PM 21.9 71.42 0.081 6.75 1.23 8.75
7/7/2021 4:45:00 PM 21.9 71.42 0.081 6.75 1.19 8.75
7/7/2021 5:00:00 PM 21.84 71.312 0.081 6.75 1.2 8.8
7/7/2021 5:15:00 PM 21.8 71.24 0.081 6.74 1.2 8.79
7/7/2021 5:30:00 PM 21.74 71.132 0.081 6.75 1.15 8.78
7/7/2021 5:45:00 PM 21.61 70.898 0.081 6.72 1.39 8.79
7/7/2021 6:00:00 PM 21.56 70.808 0.081 6.71 1.22 8.74
7/7/2021 6:15:00 PM 21.46 70.628 0.081 6.71 1.22 8.74
7/7/2021 6:30:00 PM 21.33 70.394 0.081 6.7 1.27 8.72
7/7/2021 6:45:00 PM 21.23 70.214 0.081 6.68 1.28 8.62
7/7/2021 7:00:00 PM 21.14 70.052 0.081 6.67 1.22 8.57
7/7/2021 7:15:00 PM 21.02 69.836 0.082 6.67 1.37 8.48
7/7/2021 7:30:00 PM 20.86 69.548 0.08 6.63 2521.74 8.39
7/7/2021 7:45:00 PM 20.78 69.404 0.081 6.64 2.1 8.31
7/7/2021 8:00:00 PM 20.65 69.17 0.08 6.61 1.75 8.32
7/7/2021 8:15:00 PM 20.56 69.008 0.08 6.62 1.86 8.25
7/7/2021 8:30:00 PM 20.48 68.864 0.081 6.59 1.71 8.23
7/7/2021 8:45:00 PM 20.41 68.738 0.081 6.6 1.65 8.26
7/7/2021 9:00:00 PM 20.32 68.576 0.081 6.6 1.42 8.22
7/7/2021 9:15:00 PM 20.25 68.45 0.081 6.58 1.41 8.21
7/7/2021 9:30:00 PM 20.16 68.288 0.081 6.58 1.44 8.24
7/7/2021 9:45:00 PM 20.07 68.126 0.081 6.58 1.38 8.2
7/7/2021 10:00:00 PM 20.02 68.036 0.082 6.58 1.44 8.21
7/7/2021 10:15:00 PM 19.94 67.892 0.081 6.59 1.38 8.29
7/7/2021 10:30:00 PM 19.83 67.694 0.081 6.61 1.48 8.43
7/7/2021 10:45:00 PM 19.75 67.55 0.081 6.62 1.48 8.47
7/7/2021 11:00:00 PM 19.68 67.424 0.081 6.63 1.46 8.52
7/7/2021 11:15:00 PM 19.62 67.316 0.081 6.63 1.5 8.56
7/7/2021 11:30:00 PM 19.54 67.172 0.081 6.63 1.5 8.58
7/7/2021 11:45:00 PM 19.48 67.064 0.081 6.64 1.5 8.63
7/8/2021 12:00:00 AM 19.41 66.938 0.081 6.63 1.79 8.63
7/8/2021 12:15:00 AM 19.36 66.848 0.081 6.65 1.79 8.63
7/8/2021 12:30:00 AM 19.31 66.758 0.08 6.65 2.1 8.62
7/8/2021 12:45:00 AM 19.24 66.632 0.08 6.64 1.87 8.63
7/8/2021 1:00:00 AM 19.19 66.542 0.08 6.64 1.88 8.64
7/8/2021 1:15:00 AM 19.13 66.434 0.08 6.65 2.01 8.65
7/8/2021 1:30:00 AM 19.08 66.344 0.079 6.66 1.97 8.66
7/8/2021 1:45:00 AM 19.04 66.272 0.079 6.66 2.05 8.67
7/8/2021 2:00:00 AM 18.99 66.182 0.079 6.66 2.08 8.68
7/8/2021 2:15:00 AM 18.96 66.128 0.079 6.66 2 8.69
7/8/2021 2:30:00 AM 18.93 66.074 0.079 6.66 1.91 8.67
7/8/2021 2:45:00 AM 18.9 66.02 0.079 6.66 2.13 8.68
7/8/2021 3:00:00 AM 18.87 65.966 0.079 6.66 1.87 8.67
7/8/2021 3:15:00 AM 18.84 65.912 0.079 6.67 1.89 8.68
7/8/2021 3:30:00 AM 18.81 65.858 0.079 6.68 1.73 8.66
7/8/2021 3:45:00 AM 18.77 65.786 0.079 6.68 1.89 8.68
7/8/2021 4:00:00 AM 18.74 65.732 0.08 6.67 1.75 8.7
7/8/2021 4:15:00 AM 18.71 65.67799 0.08 6.66 1.64 8.68
7/8/2021 4:30:00 AM 18.68 65.624 0.08 6.65 1.68 8.66
7/8/2021 4:45:00 AM 18.64 65.552 0.08 6.65 1.63 8.67
7/8/2021 5:00:00 AM 18.6 65.48 0.08 6.65 1.77 8.69
7/8/2021 5:15:00 AM 18.59 65.462 0.081 6.64 1.66 8.65
7/8/2021 5:30:00 AM 18.57 65.426 0.081 6.64 1.71 8.66
7/8/2021 5:45:00 AM 18.53 65.354 0.081 6.64 1.57 8.67
7/8/2021 6:00:00 AM 18.51 65.318 0.081 6.64 1.51 8.64
7/8/2021 6:15:00 AM 18.49 65.282 0.081 6.64 1.61 8.67
7/8/2021 6:30:00 AM 18.47 65.246 0.081 6.63 1.65 8.66
7/8/2021 6:45:00 AM 18.46 65.228 0.082 6.66 1.51 8.68
7/8/2021 7:00:00 AM 18.43 65.174 0.082 6.64 1.5 8.68
7/8/2021 7:15:00 AM 18.41 65.138 0.082 6.63 1.48 8.74
7/8/2021 7:30:00 AM 18.38 65.084 0.082 6.64 1.43 8.74
7/8/2021 7:45:00 AM 18.39 65.102 0.082 6.66 1.46 8.72
7/8/2021 8:00:00 AM 18.38 65.084 0.082 6.65 1.5 8.81
7/8/2021 8:15:00 AM 18.38 65.084 0.082 6.65 1.42 8.82
7/8/2021 8:30:00 AM 18.38 65.084 0.082 6.65 1.47 8.85
7/8/2021 8:45:00 AM 18.38 65.084 0.082 6.68 1.48 8.9
7/8/2021 9:00:00 AM 18.39 65.102 0.082 6.65 1.44 8.85
7/8/2021 9:15:00 AM 18.39 65.102 0.082 6.65 1.47 8.87
7/8/2021 9:30:00 AM 18.4 65.12 0.082 6.65 1.51 8.89
7/8/2021 9:45:00 AM 18.44 65.192 0.082 6.67 1.46 8.96
7/8/2021 10:00:00 AM 18.49 65.282 0.082 6.68 1.52 9.04
7/8/2021 10:15:00 AM 18.55 65.39 0.082 6.69 1.57 9.09
7/8/2021 10:30:00 AM 18.62 65.516 0.082 6.71 1.42 9.14
7/8/2021 10:45:00 AM 18.73 65.714 0.082 6.72 1.44 9.18
7/8/2021 11:00:00 AM 18.91 66.038 0.082 6.74 1.43 9.19
7/8/2021 11:15:00 AM 18.95 66.11 0.082 6.73 1.33 9.18
7/8/2021 11:30:00 AM 19.08 66.344 0.082 6.77 1.34 9.17
7/8/2021 11:45:00 AM 19.1 66.38 0.082 6.73 1.33 9.13
7/8/2021 12:00:00 PM 19.06 66.308 0.082 6.73 1.64 9.16
7/8/2021 12:15:00 PM 19.06 66.308 0.082 6.72 1.32 9.1
7/8/2021 12:30:00 PM 19.06 66.308 0.082 6.73 1.37 9.13
7/8/2021 12:45:00 PM 19.08 66.344 0.082 6.71 1.33 9.09
7/8/2021 1:00:00 PM 19.16 66.488 0.082 6.74 1.33 9.12
7/8/2021 1:15:00 PM 19.24 66.632 0.081 6.76 1.37 9.19
7/8/2021 1:30:00 PM 19.25 66.65 0.082 6.74 1.37 9.1
7/8/2021 1:45:00 PM 19.25 66.65 0.082 6.72 1.35 9.04
7/8/2021 2:00:00 PM 19.2 66.56 0.082 6.72 1.43 8.97
7/8/2021 2:15:00 PM 19.17 66.506 0.082 6.71 1.34 8.96
7/8/2021 2:30:00 PM 19.24 66.632 0.081 6.73 1.33 9.04
7/8/2021 2:45:00 PM 19.33 66.794 0.082 6.73 1.34 9.06
7/8/2021 3:00:00 PM 19.32 66.776 0.081 6.72 1.27 9.06
7/8/2021 3:15:00 PM 19.27 66.686 0.081 6.71 1.3 9.04
7/8/2021 3:30:00 PM 19.27 66.686 0.082 6.71 1.32 9
7/8/2021 3:45:00 PM 19.27 66.686 0.082 6.72 1.33 9.07
7/8/2021 4:00:00 PM 19.36 66.848 0.081 6.74 1.27 9.09
7/8/2021 4:15:00 PM 19.43 66.974 0.082 6.74 1.31 9.07
7/8/2021 4:30:00 PM 19.41 66.938 0.081 6.74 1.29 9.08
7/8/2021 4:45:00 PM 19.36 66.848 0.081 6.72 1.31 8.94
7/8/2021 5:00:00 PM 19.37 66.866 0.081 6.71 1.44 9.01
7/8/2021 5:15:00 PM 19.38 66.884 0.081 6.73 1.43 9
7/8/2021 5:30:00 PM 19.39 66.902 0.081 6.72 1.3 9.03
7/8/2021 5:45:00 PM 19.45 67.01 0.082 6.73 1.32 9.03
7/8/2021 6:00:00 PM 19.45 67.01 0.081 6.72 1.39 9.03
7/8/2021 6:15:00 PM 19.42 66.956 0.081 6.72 1.4 8.99
7/8/2021 6:30:00 PM 19.36 66.848 0.082 6.69 1.52 8.86
7/8/2021 6:45:00 PM 19.28 66.704 0.082 6.69 1.3 8.85
7/8/2021 7:00:00 PM 19.28 66.704 0.081 6.67 1.48 8.77
7/8/2021 7:15:00 PM 19.28 66.704 0.082 6.7 1.54 8.76
7/8/2021 7:30:00 PM 19.21 66.578 0.082 6.67 1.37 8.8
7/8/2021 7:45:00 PM 19.2 66.56 0.082 6.66 1.4 8.74
7/8/2021 8:00:00 PM 19.19 66.542 0.082 6.64 1.42 8.66
7/8/2021 8:15:00 PM 19.12 66.416 0.082 6.67 1.41 8.7
7/8/2021 8:30:00 PM 19.1 66.38 0.082 6.64 1.34 8.6
7/8/2021 8:45:00 PM 19.04 66.272 0.082 6.63 1.52 8.61
7/8/2021 9:00:00 PM 18.97 66.146 0.082 6.63 1.42 8.59
7/8/2021 9:15:00 PM 18.93 66.074 0.082 6.63 1.48 8.58
7/8/2021 9:30:00 PM 18.9 66.02 0.082 6.62 1.51 8.58
7/8/2021 9:45:00 PM 18.87 65.966 0.082 6.62 2.3 8.59
7/8/2021 10:00:00 PM 18.84 65.912 0.083 6.6 1.42 8.56
7/8/2021 10:15:00 PM 18.81 65.858 0.083 6.6 1.39 8.59
7/8/2021 10:30:00 PM 18.76 65.768 0.083 6.6 1.35 8.58
7/8/2021 10:45:00 PM 18.71 65.67799 0.082 6.6 1.4 8.61
7/8/2021 11:00:00 PM 18.69 65.642 0.083 6.6 1.49 8.6
7/8/2021 11:15:00 PM 18.67 65.606 0.083 6.61 1.35 8.58
7/8/2021 11:30:00 PM 18.63 65.534 0.083 6.61 1.43 8.61
7/8/2021 11:45:00 PM 18.6 65.48 0.083 6.61 1.35 8.61
7/9/2021 12:00:00 AM 18.58 65.444 0.083 6.61 1.36 8.59
7/9/2021 12:15:00 AM 18.55 65.39 0.082 6.63 1.37 8.66
7/9/2021 12:30:00 AM 18.49 65.282 0.082 6.64 1.36 8.69
7/9/2021 12:45:00 AM 18.47 65.246 0.082 6.63 1.35 8.66
7/9/2021 1:00:00 AM 18.43 65.174 0.082 6.64 1.37 8.69
7/9/2021 1:15:00 AM 18.39 65.102 0.082 6.63 1.37 8.66
7/9/2021 1:30:00 AM 18.38 65.084 0.083 6.64 1.41 8.65
7/9/2021 1:45:00 AM 18.32 64.976 0.082 6.64 1.53 8.73
7/9/2021 2:00:00 AM 18.31 64.958 0.083 6.64 1.39 8.69
7/9/2021 2:15:00 AM 18.29 64.922 0.082 6.64 1.58 8.72
7/9/2021 2:30:00 AM 18.27 64.886 0.083 6.64 1.47 8.73
7/9/2021 2:45:00 AM 18.24 64.832 0.083 6.66 1.39 8.73
7/9/2021 3:00:00 AM 18.22 64.796 0.083 6.64 1.33 8.74
7/9/2021 3:15:00 AM 18.21 64.778 0.083 6.64 1.42 8.72
7/9/2021 3:30:00 AM 18.19 64.742 0.083 6.64 1.38 8.73
7/9/2021 3:45:00 AM 18.16 64.688 0.083 6.64 1.4 8.76
7/9/2021 4:00:00 AM 18.13 64.634 0.083 6.64 1.39 8.76
7/9/2021 4:15:00 AM 18.12 64.616 0.083 6.64 1.36 8.77
7/9/2021 4:30:00 AM 18.1 64.58 0.083 6.64 1.37 8.73
7/9/2021 4:45:00 AM 18.1 64.58 0.083 6.64 1.37 8.76
7/9/2021 5:00:00 AM 18.09 64.562 0.083 6.65 1.49 8.72
7/9/2021 5:15:00 AM 18.06 64.508 0.083 6.65 1.35 8.75
7/9/2021 5:30:00 AM 18.05 64.49 0.083 6.64 1.4 8.74
7/9/2021 5:45:00 AM 18.03 64.454 0.083 6.64 1.41 8.76
7/9/2021 6:00:00 AM 17.99 64.382 0.083 6.65 1.36 8.79
7/9/2021 6:15:00 AM 17.98 64.364 0.083 6.64 1.37 8.76
7/9/2021 6:30:00 AM 17.97 64.346 0.083 6.64 1.28 8.81
7/9/2021 6:45:00 AM 17.97 64.346 0.083 6.65 1.28 8.9
7/9/2021 7:00:00 AM 17.96 64.328 0.083 6.65 1.39 8.85
7/9/2021 7:15:00 AM 17.97 64.346 0.083 6.65 1.29 8.93
7/9/2021 7:30:00 AM 18.01 64.418 0.083 6.68 1.36 9.02
7/9/2021 7:45:00 AM 18 64.4 0.083 6.68 1.31 9.05
7/9/2021 8:00:00 AM 18.04 64.472 0.083 6.66 1.34 9.03
7/9/2021 8:15:00 AM 18.09 64.562 0.083 6.7 1.32 9.15
7/9/2021 8:30:00 AM 18.09 64.562 0.083 6.69 1.31 9.12
7/9/2021 8:45:00 AM 18.09 64.562 0.083 6.68 1.3 9.07
7/9/2021 9:00:00 AM 18.14 64.652 0.083 6.69 1.29 9.16
7/9/2021 9:15:00 AM 18.17 64.706 0.083 6.73 1.34 9.16
7/9/2021 9:30:00 AM 18.21 64.778 0.082 6.7 1.48 9.09
7/9/2021 9:45:00 AM 18.28 64.904 0.083 6.7 1.44 9.14
7/9/2021 10:00:00 AM 18.28 64.904 0.082 6.7 1.31 9.19
7/9/2021 10:15:00 AM 18.36 65.048 0.082 6.74 1.32 9.27
7/9/2021 10:30:00 AM 18.43 65.174 0.083 6.74 1.33 9.29
7/9/2021 10:45:00 AM 18.5 65.3 0.083 6.74 1.33 9.27
7/9/2021 11:00:00 AM 18.51 65.318 0.083 6.72 1.34 9.25
7/9/2021 11:15:00 AM 18.51 65.318 0.082 6.74 1.3 9.27
7/9/2021 11:30:00 AM 18.55 65.39 0.082 6.72 1.35 9.25
7/9/2021 11:45:00 AM 18.59 65.462 0.082 6.72 1.31 9.26
7/9/2021 12:00:00 PM 18.7 65.66 0.082 6.75 1.34 9.32
7/9/2021 12:15:00 PM 18.9 66.02 0.082 6.77 1.3 9.31
7/9/2021 12:30:00 PM 19.24 66.632 0.082 6.77 1.36 9.26
7/9/2021 12:45:00 PM 19.31 66.758 0.082 6.75 1.39 9.2
7/9/2021 1:00:00 PM 19.61 67.298 0.082 6.77 1.35 9.18
7/9/2021 1:15:00 PM 19.95 67.91 0.082 6.76 1.29 9.08
7/9/2021 1:30:00 PM 20.14 68.252 0.082 6.77 1.28 9.11
7/9/2021 1:45:00 PM 20.22 68.396 0.083 6.75 1.28 9.04
7/9/2021 2:00:00 PM 20.21 68.378 0.082 6.73 1.35 9.05
7/9/2021 2:15:00 PM 20.59 69.062 0.082 6.79 1.38 9.04
7/9/2021 2:30:00 PM 20.84 69.512 0.082 6.79 1.26 9.02
7/9/2021 2:45:00 PM 20.67 69.206 0.082 6.75 1.31 8.95
7/9/2021 3:00:00 PM 20.96 69.728 0.082 6.8 1.29 8.99
7/9/2021 3:15:00 PM 21.11 69.998 0.082 6.78 1.25 8.96
7/9/2021 3:30:00 PM 21.01 69.818 0.082 6.74 1.35 8.92
7/9/2021 3:45:00 PM 21.04 69.872 0.082 6.74 1.35 8.91
7/9/2021 4:00:00 PM 21.12 70.016 0.082 6.79 1.34 8.91
7/9/2021 4:15:00 PM 21.17 70.106 0.082 6.77 1.26 8.9
7/9/2021 4:30:00 PM 21.16 70.088 0.082 6.77 1.34 8.84
7/9/2021 4:45:00 PM 21.09 69.962 0.082 6.75 1.35 8.91
7/9/2021 5:00:00 PM 21.07 69.926 0.082 6.75 1.39 8.87
7/9/2021 5:15:00 PM 20.94 69.692 0.082 6.74 1.41 8.88
7/9/2021 5:30:00 PM 20.88 69.584 0.082 6.76 1.33 8.87
7/9/2021 5:45:00 PM 20.8 69.44 0.082 6.72 1.45 8.84
7/9/2021 6:00:00 PM 20.7 69.26 0.082 6.73 1.41 8.84
7/9/2021 6:15:00 PM 20.59 69.062 0.082 6.72 1.34 8.81
7/9/2021 6:30:00 PM 20.46 68.828 0.082 6.7 1.37 8.8
7/9/2021 6:45:00 PM 20.33 68.594 0.083 6.7 1.39 8.74
7/9/2021 7:00:00 PM 20.18 68.324 0.083 6.68 1.39 8.71
7/9/2021 7:15:00 PM 20.09 68.162 0.083 6.7 1.52 8.71
7/9/2021 7:30:00 PM 19.99 67.982 0.083 6.69 1.46 8.71
7/9/2021 7:45:00 PM 19.92 67.856 0.083 6.67 1.44 8.69
7/9/2021 8:00:00 PM 19.83 67.694 0.083 6.69 1.57 8.69
7/9/2021 8:15:00 PM 19.74 67.532 0.083 6.66 1.53 8.66
7/9/2021 8:30:00 PM 19.66 67.388 0.083 6.65 1.49 8.63
7/9/2021 8:45:00 PM 19.56 67.208 0.083 6.67 1.43 8.6
7/9/2021 9:00:00 PM 19.45 67.01 0.084 6.64 1.47 8.59
7/9/2021 9:15:00 PM 19.36 66.848 0.084 6.62 1.47 8.58
7/9/2021 9:30:00 PM 19.27 66.686 0.084 6.63 1.44 8.59
7/9/2021 9:45:00 PM 19.2 66.56 0.084 6.62 1.47 8.59
7/9/2021 10:00:00 PM 19.12 66.416 0.084 6.62 1.41 8.58
7/9/2021 10:15:00 PM 19.03 66.254 0.084 6.61 1.43 8.56
7/9/2021 10:30:00 PM 18.95 66.11 0.084 6.61 1.37 8.57
7/9/2021 10:45:00 PM 18.83 65.894 0.084 6.64 1.5 8.65
7/9/2021 11:00:00 PM 18.77 65.786 0.084 6.62 1.39 8.63
7/9/2021 11:15:00 PM 18.66 65.588 0.084 6.61 1.41 8.68
7/9/2021 11:30:00 PM 18.61 65.498 0.084 6.64 1.4 8.65
7/9/2021 11:45:00 PM 18.51 65.318 0.083 6.62 1.42 8.67
7/10/2021 12:00:00 AM 18.48 65.264 0.084 6.62 1.4 8.68
7/10/2021 12:15:00 AM 18.39 65.102 0.083 6.63 1.37 8.73
7/10/2021 12:30:00 AM 18.35 65.03 0.083 6.63 1.37 8.75
7/10/2021 12:45:00 AM 18.3 64.94 0.083 6.64 1.38 8.76
7/10/2021 1:00:00 AM 18.24 64.832 0.083 6.66 1.28 8.78
7/10/2021 1:15:00 AM 18.19 64.742 0.083 6.64 1.36 8.76
7/10/2021 1:30:00 AM 18.16 64.688 0.083 6.64 1.34 8.77
7/10/2021 1:45:00 AM 18.1 64.58 0.083 6.64 1.59 8.8
7/10/2021 2:00:00 AM 18.05 64.49 0.083 6.65 1.38 8.83
7/10/2021 2:15:00 AM 18.01 64.418 0.083 6.65 1.36 8.84
7/10/2021 2:30:00 AM 18 64.4 0.083 6.65 1.38 8.85
7/10/2021 2:45:00 AM 17.97 64.346 0.083 6.64 1.48 8.86
7/10/2021 3:00:00 AM 17.93 64.274 0.083 6.63 1.31 8.84
7/10/2021 3:15:00 AM 17.92 64.256 0.083 6.63 1.38 8.82
7/10/2021 3:30:00 AM 17.89 64.202 0.083 6.65 1.29 8.86
7/10/2021 3:45:00 AM 17.86 64.148 0.083 6.64 1.48 8.86
7/10/2021 4:00:00 AM 17.81 64.058 0.083 6.63 1.41 8.84
7/10/2021 4:15:00 AM 17.78 64.004 0.083 6.63 1.34 8.82
7/10/2021 4:30:00 AM 17.76 63.968 0.083 6.63 1.32 8.82
7/10/2021 4:45:00 AM 17.75 63.95 0.083 6.64 1.29 8.88
7/10/2021 5:00:00 AM 17.72 63.896 0.083 6.65 1.36 8.87
7/10/2021 5:15:00 AM 17.69 63.842 0.083 6.63 1.36 8.84
7/10/2021 5:30:00 AM 17.67 63.806 0.083 6.65 1.61 8.85
7/10/2021 5:45:00 AM 17.64 63.752 0.083 6.64 1.32 8.89
7/10/2021 6:00:00 AM 17.62 63.716 0.083 6.64 1.24 8.91
7/10/2021 6:15:00 AM 17.6 63.68 0.082 6.64 1.35 8.91
7/10/2021 6:30:00 AM 17.6 63.68 0.082 6.66 1.32 8.94
7/10/2021 6:45:00 AM 17.6 63.68 0.082 6.64 1.23 8.93
7/10/2021 7:00:00 AM 17.59 63.662 0.083 6.65 1.32 9.02
7/10/2021 7:15:00 AM 17.58 63.644 0.082 6.67 1.24 9.12
7/10/2021 7:30:00 AM 17.55 63.59 0.082 6.68 1.26 9.19
7/10/2021 7:45:00 AM 17.55 63.59 0.082 6.73 1.24 9.22
7/10/2021 8:00:00 AM 17.58 63.644 0.082 6.7 1.32 9.18
7/10/2021 8:15:00 AM 17.62 63.716 0.082 6.71 1.26 9.3
7/10/2021 8:30:00 AM 17.67 63.806 0.082 6.73 1.28 9.28
7/10/2021 8:45:00 AM 17.72 63.896 0.082 6.73 1.29 9.33
7/10/2021 9:00:00 AM 17.76 63.968 0.082 6.75 1.24 9.38
7/10/2021 9:15:00 AM 17.88 64.184 0.082 6.77 1.26 9.39
7/10/2021 9:30:00 AM 18.03 64.454 0.082 6.77 1.25 9.4
7/10/2021 9:45:00 AM 18.21 64.778 0.081 6.77 1.32 9.36
7/10/2021 10:00:00 AM 18.32 64.976 0.082 6.76 1.28 9.37
7/10/2021 10:15:00 AM 18.46 65.228 0.082 6.77 1.24 9.38
7/10/2021 10:30:00 AM 18.47 65.246 0.082 6.75 1.28 9.39
7/10/2021 10:45:00 AM 18.47 65.246 0.081 6.75 1.32 9.38
7/10/2021 11:00:00 AM 18.63 65.534 0.081 6.78 1.34 9.42
7/10/2021 11:15:00 AM 18.96 66.128 0.081 6.8 1.27 9.38
7/10/2021 11:30:00 AM 19.07 66.326 0.082 6.78 1.24 9.42
7/10/2021 11:45:00 AM 19.36 66.848 0.081 6.8 1.27 9.33
7/10/2021 12:00:00 PM 19.32 66.776 0.081 6.76 1.2 9.32
7/10/2021 12:15:00 PM 19.55 67.19 0.081 6.8 1.27 9.29
7/10/2021 12:30:00 PM 19.56 67.208 0.081 6.78 1.26 9.3
7/10/2021 12:45:00 PM 19.45 67.01 0.081 6.76 1.29 9.34
7/10/2021 1:00:00 PM 19.76 67.568 0.081 6.8 1.37 9.31
7/10/2021 1:15:00 PM 19.82 67.676 0.081 6.8 1.43 9.3
7/10/2021 1:30:00 PM 19.72 67.496 0.081 6.76 1.34 9.26
7/10/2021 1:45:00 PM 20.02 68.036 0.081 6.81 1.35 9.33
7/10/2021 2:00:00 PM 20.38 68.684 0.081 6.83 1.32 9.29
7/10/2021 2:15:00 PM 20.49 68.882 0.081 6.81 1.32 9.24
7/10/2021 2:30:00 PM 20.28 68.504 0.081 6.76 1.32 9.22
7/10/2021 2:45:00 PM 20.23 68.414 0.081 6.77 1.31 9.25
7/10/2021 3:00:00 PM 20.13 68.234 0.081 6.73 1.3 9.2
7/10/2021 3:15:00 PM 20.07 68.126 0.081 6.75 1.24 9.2
7/10/2021 3:30:00 PM 20.05 68.09 0.081 6.74 1.3 9.2
7/10/2021 3:45:00 PM 20.09 68.162 0.081 6.76 1.31 9.22
7/10/2021 4:00:00 PM 20.32 68.576 0.081 6.81 1.21 9.2
7/10/2021 4:15:00 PM 20.45 68.81 0.081 6.79 1.21 9.11
7/10/2021 4:30:00 PM 20.49 68.882 0.081 6.78 1.19 9.1
7/10/2021 4:45:00 PM 20.48 68.864 0.081 6.78 1.26 9.11
7/10/2021 5:00:00 PM 20.43 68.774 0.081 6.77 1.19 9.12
7/10/2021 5:15:00 PM 20.39 68.702 0.081 6.76 1.25 9.11
7/10/2021 5:30:00 PM 20.12 68.216 0.081 6.76 1.31 9.16
7/10/2021 5:45:00 PM 20.07 68.126 0.081 6.77 1.24 9.18
7/10/2021 6:00:00 PM 20.05 68.09 0.081 6.77 1.33 9.16
7/10/2021 6:15:00 PM 19.95 67.91 0.081 6.78 1.31 9.16
7/10/2021 6:30:00 PM 19.88 67.784 0.081 6.76 1.26 9.15
7/10/2021 6:45:00 PM 19.82 67.676 0.082 6.76 1.27 9.11
7/10/2021 7:00:00 PM 19.74 67.532 0.082 6.75 1.28 9.05
7/10/2021 7:15:00 PM 19.75 67.55 0.082 6.74 1.28 9.01
7/10/2021 7:30:00 PM 19.7 67.46 0.082 6.74 1.27 8.99
7/10/2021 7:45:00 PM 19.61 67.298 0.082 6.73 1.25 8.94
7/10/2021 8:00:00 PM 19.54 67.172 0.082 6.74 1.33 8.88
7/10/2021 8:15:00 PM 19.44 66.992 0.082 6.72 1.27 8.85
7/10/2021 8:30:00 PM 19.38 66.884 0.082 6.7 1.29 8.81
7/10/2021 8:45:00 PM 19.32 66.776 0.082 6.7 1.78 8.77
7/10/2021 9:00:00 PM 19.24 66.632 0.082 6.68 1.33 8.74
7/10/2021 9:15:00 PM 19.21 66.578 0.083 6.67 1.39 8.7
7/10/2021 9:30:00 PM 19.11 66.398 0.083 6.67 1.27 8.7
7/10/2021 9:45:00 PM 19.04 66.272 0.083 6.66 1.3 8.67
7/10/2021 10:00:00 PM 18.98 66.164 0.083 6.66 1.37 8.68
7/10/2021 10:15:00 PM 18.89 66.002 0.083 6.65 1.27 8.69
7/10/2021 10:30:00 PM 18.83 65.894 0.083 6.67 1.41 8.7
7/10/2021 10:45:00 PM 18.76 65.768 0.083 6.65 1.3 8.71
7/10/2021 11:00:00 PM 18.7 65.66 0.083 6.65 1.33 8.72
7/10/2021 11:15:00 PM 18.63 65.534 0.083 6.65 1.43 8.75
7/10/2021 11:30:00 PM 18.56 65.408 0.083 6.66 1.4 8.74
7/10/2021 11:45:00 PM 18.5 65.3 0.083 6.65 1.35 8.76
7/11/2021 12:00:00 AM 18.43 65.174 0.083 6.65 1.31 8.78
7/11/2021 12:15:00 AM 18.37 65.066 0.083 6.67 1.3 8.76
7/11/2021 12:30:00 AM 18.29 64.922 0.083 6.66 1.33 8.81
7/11/2021 12:45:00 AM 18.22 64.796 0.083 6.66 1.29 8.85
7/11/2021 1:00:00 AM 18.16 64.688 0.083 6.66 1.22 8.85
7/11/2021 1:15:00 AM 18.13 64.634 0.083 6.65 1.29 8.83
7/11/2021 1:30:00 AM 18.05 64.49 0.083 6.68 1.31 8.91
7/11/2021 1:45:00 AM 18.02 64.436 0.083 6.67 1.3 8.85
7/11/2021 2:00:00 AM 17.99 64.382 0.083 6.67 1.26 8.9
7/11/2021 2:15:00 AM 17.95 64.31 0.083 6.67 1.24 8.94
7/11/2021 2:30:00 AM 17.9 64.22 0.082 6.68 1.29 8.94
7/11/2021 2:45:00 AM 17.87 64.166 0.083 6.67 1.23 8.95
7/11/2021 3:00:00 AM 17.83 64.094 0.083 6.67 1.4 8.95
7/11/2021 3:15:00 AM 17.79 64.022 0.083 6.67 1.29 8.95
7/11/2021 3:30:00 AM 17.75 63.95 0.082 6.69 1.29 8.94
7/11/2021 3:45:00 AM 17.72 63.896 0.083 6.68 1.29 8.96
7/11/2021 4:00:00 AM 17.69 63.842 0.083 6.68 1.27 8.97
7/11/2021 4:30:00 AM 17.63 63.734 0.083 6.67 1.3 8.98
7/11/2021 4:45:00 AM 17.57 63.626 0.082 6.67 1.34 9.03
7/11/2021 5:00:00 AM 17.54 63.572 0.082 6.67 1.31 9
7/11/2021 5:15:00 AM 17.51 63.518 0.083 6.67 1.53 9.03
7/11/2021 5:30:00 AM 17.47 63.446 0.083 6.67 1.32 9.02
7/11/2021 5:45:00 AM 17.44 63.392 0.082 6.69 1.32 9.04
7/11/2021 6:00:00 AM 17.42 63.356 0.082 6.68 1.3 9.01
7/11/2021 6:15:00 AM 17.41 63.338 0.082 6.67 1.3 9.02
7/11/2021 6:30:00 AM 17.38 63.284 0.082 6.67 1.27 9.03
7/11/2021 6:45:00 AM 17.36 63.248 0.082 6.67 1.25 9.04
7/11/2021 7:00:00 AM 17.35 63.23 0.082 6.67 1.24 9.13
7/11/2021 7:15:00 AM 17.36 63.248 0.082 6.7 1.25 9.17
7/11/2021 7:30:00 AM 17.37 63.266 0.082 6.7 1.27 9.24
7/11/2021 7:45:00 AM 17.36 63.248 0.082 6.72 1.22 9.24
7/11/2021 8:00:00 AM 17.37 63.266 0.082 6.72 1.23 9.32
7/11/2021 8:15:00 AM 17.41 63.338 0.082 6.75 1.2 9.41
7/11/2021 8:30:00 AM 17.47 63.446 0.082 6.76 1.25 9.46
7/11/2021 8:45:00 AM 17.52 63.536 0.082 6.77 1.19 9.51
7/11/2021 9:00:00 AM 17.57 63.626 0.082 6.79 1.23 9.55
7/11/2021 9:15:00 AM 17.73 63.914 0.082 6.82 1.25 9.57
7/11/2021 9:30:00 AM 17.84 64.112 0.082 6.82 1.26 9.57
7/11/2021 9:45:00 AM 18.02 64.436 0.082 6.83 1.23 9.57
7/11/2021 10:00:00 AM 18.19 64.742 0.082 6.85 1.23 9.6
7/11/2021 10:15:00 AM 18.28 64.904 0.081 6.84 1.21 9.63
7/11/2021 10:30:00 AM 18.31 64.958 0.082 6.83 1.23 9.58
7/11/2021 10:45:00 AM 18.31 64.958 0.081 6.83 1.19 9.59
7/11/2021 11:00:00 AM 18.35 65.03 0.081 6.86 1.24 9.59
7/11/2021 11:15:00 AM 18.42 65.156 0.081 6.84 1.2 9.62
7/11/2021 11:30:00 AM 18.49 65.282 0.081 6.85 1.43 9.6
7/11/2021 11:45:00 AM 18.52 65.336 0.081 6.86 1.23 9.63
7/11/2021 12:00:00 PM 18.51 65.318 0.081 6.83 1.2 9.55
7/11/2021 12:15:00 PM 18.65 65.57 0.081 6.86 1.21 9.56
7/11/2021 12:30:00 PM 18.83 65.894 0.081 6.88 1.22 9.62
7/11/2021 12:45:00 PM 18.99 66.182 0.081 6.86 1.18 9.55
7/11/2021 1:00:00 PM 19.17 66.506 0.081 6.88 1.29 9.54
7/11/2021 1:15:00 PM 19.27 66.686 0.081 6.87 1.15 9.56
7/11/2021 1:30:00 PM 19.35 66.83 0.081 6.86 1.18 9.52
7/11/2021 1:45:00 PM 19.38 66.884 0.081 6.85 1.15 9.5
7/11/2021 2:00:00 PM 19.38 66.884 0.081 6.86 1.28 9.46
7/11/2021 2:15:00 PM 19.31 66.758 0.081 6.85 1.18 9.45
7/11/2021 2:30:00 PM 19.28 66.704 0.081 6.84 1.22 9.43
7/11/2021 2:45:00 PM 19.6 67.28 0.081 6.9 1.21 9.45
7/11/2021 3:00:00 PM 19.76 67.568 0.081 6.88 1.23 9.41
7/11/2021 3:15:00 PM 19.7 67.46 0.081 6.86 1.31 9.44
7/11/2021 3:30:00 PM 19.65 67.37 0.081 6.84 1.37 9.39
7/11/2021 3:45:00 PM 19.54 67.172 0.081 6.82 1.26 9.29
7/11/2021 4:00:00 PM 19.45 67.01 0.081 6.8 1.31 9.21
7/11/2021 4:15:00 PM 19.38 66.884 0.081 6.78 1.39 9.08
7/11/2021 4:30:00 PM 19.35 66.83 0.08 6.75 1.51 8.93
7/11/2021 4:45:00 PM 19.33 66.794 0.081 6.76 1.57 9.03
7/11/2021 5:00:00 PM 19.29 66.722 0.08 6.75 1.52 8.93
7/11/2021 5:15:00 PM 19.24 66.632 0.081 6.71 1.79 8.81
7/11/2021 5:30:00 PM 19.22 66.596 0.081 6.7 1.96 8.69
7/11/2021 5:45:00 PM 19.27 66.686 0.077 6.7 2.41 8.65
7/11/2021 6:00:00 PM 19.35 66.83 0.071 6.77 5.95 8.92
7/11/2021 6:15:00 PM 19.29 66.722 0.071 6.79 9.8 8.9
7/11/2021 6:30:00 PM 18.94 66.092 0.067 6.72 24.11 9.11
7/11/2021 6:45:00 PM 18.74 65.732 0.065 6.71 103.5 9.29
7/11/2021 7:00:00 PM 18.15 64.67 0.065 6.77 366.87 9.49
7/11/2021 7:15:00 PM 17.97 64.346 0.058 6.41 864.5 9.52
7/11/2021 7:30:00 PM 18.09 64.562 0.053 6.17 894.44 9.49
7/11/2021 7:45:00 PM 18.08 64.544 0.051 6.1 690.36 9.53
7/11/2021 8:00:00 PM 18.01 64.418 0.049 6.01 514.06 9.57
7/11/2021 8:15:00 PM 17.93 64.274 0.048 6.02 403.65 9.61
7/11/2021 8:30:00 PM 17.85 64.13 0.047 6.11 346.46 9.63
7/11/2021 8:45:00 PM 17.78 64.004 0.047 6.1 240.32 9.64
7/11/2021 9:00:00 PM 17.72 63.896 0.047 6.11 188.61 9.65
7/11/2021 9:15:00 PM 17.65 63.77 0.047 6.13 154.35 9.67
7/11/2021 9:30:00 PM 17.59 63.662 0.047 6.13 111.99 9.68
7/11/2021 9:45:00 PM 17.53 63.554 0.047 6.15 95.49 9.69
7/11/2021 10:00:00 PM 17.48 63.464 0.047 6.15 74.28 9.7
7/11/2021 10:15:00 PM 17.43 63.374 0.047 6.18 70.4 9.7
7/11/2021 10:30:00 PM 17.38 63.284 0.047 6.2 63.14 9.7
7/11/2021 10:45:00 PM 17.33 63.194 0.047 6.22 54.48 9.71
7/11/2021 11:00:00 PM 17.28 63.104 0.048 6.26 53.58 9.72
7/11/2021 11:15:00 PM 17.24 63.032 0.048 6.25 44.3 9.72
7/11/2021 11:30:00 PM 17.19 62.942 0.048 6.26 42.09 9.73
7/11/2021 11:45:00 PM 17.14 62.852 0.049 6.25 31.42 9.74
7/12/2021 12:00:00 AM 17.1 62.78 0.049 6.27 34.32 9.74
7/12/2021 12:15:00 AM 17.06 62.708 0.049 6.29 32.36 9.75
7/12/2021 12:30:00 AM 17.02 62.636 0.05 6.33 30.12 9.76
7/12/2021 12:45:00 AM 16.97 62.546 0.05 6.3 27.45 9.77
7/12/2021 1:00:00 AM 16.93 62.474 0.05 6.3 26.62 9.77
7/12/2021 1:15:00 AM 16.89 62.402 0.051 6.35 24.89 9.78
7/12/2021 1:30:00 AM 16.85 62.33 0.051 6.33 23.09 9.79
7/12/2021 1:45:00 AM 16.82 62.276 0.051 6.32 21.24 9.79
7/12/2021 2:00:00 AM 16.78 62.204 0.052 6.33 26.25 9.8
7/12/2021 2:15:00 AM 16.75 62.15 0.052 6.33 20.22 9.81
7/12/2021 2:30:00 AM 16.71 62.078 0.052 6.33 18.17 9.81
7/12/2021 2:45:00 AM 16.68 62.024 0.052 6.33 22.76 9.82
7/12/2021 3:00:00 AM 16.65 61.97 0.053 6.34 17.63 9.82
7/12/2021 3:15:00 AM 16.62 61.916 0.053 6.33 14.5 9.83
7/12/2021 3:30:00 AM 16.59 61.862 0.053 6.38 15.53 9.84
7/12/2021 3:45:00 AM 16.56 61.808 0.053 6.36 15.18 9.84
7/12/2021 4:00:00 AM 16.54 61.772 0.054 6.35 14.56 9.84
7/12/2021 4:15:00 AM 16.51 61.718 0.054 6.35 13.82 9.85
7/12/2021 4:30:00 AM 16.49 61.682 0.054 6.38 13.22 9.85
7/12/2021 4:45:00 AM 16.47 61.646 0.054 6.35 12.77 9.85
7/12/2021 5:00:00 AM 16.45 61.61 0.054 6.38 12.92 9.85
7/12/2021 5:15:00 AM 16.43 61.574 0.054 6.35 12.11 9.86
7/12/2021 5:30:00 AM 16.41 61.538 0.055 6.37 11.86 9.86
7/12/2021 5:45:00 AM 16.39 61.502 0.055 6.36 11.31 9.87
7/12/2021 6:00:00 AM 16.37 61.466 0.055 6.37 11.05 9.87
7/12/2021 6:15:00 AM 16.35 61.43 0.055 6.37 10.44 9.87
7/12/2021 6:30:00 AM 16.33 61.394 0.055 6.36 10.6 9.88
7/12/2021 6:45:00 AM 16.32 61.376 0.056 6.4 10.24 9.88
7/12/2021 7:00:00 AM 16.31 61.358 0.056 6.39 10.33 9.89
7/12/2021 7:15:00 AM 16.3 61.34 0.056 6.39 10.28 9.9
7/12/2021 7:30:00 AM 16.29 61.322 0.056 6.39 10.22 9.9
7/12/2021 7:45:00 AM 16.28 61.304 0.056 6.42 9.95 9.91
7/12/2021 8:00:00 AM 16.3 61.34 0.056 6.41 9.36 9.92
7/12/2021 8:15:00 AM 16.31 61.358 0.056 6.43 9.45 9.92
7/12/2021 8:30:00 AM 16.31 61.358 0.056 6.44 8.79 9.93
7/12/2021 8:45:00 AM 16.32 61.376 0.057 6.48 8.53 9.93
7/12/2021 9:00:00 AM 16.33 61.394 0.057 6.48 8.46 9.93
7/12/2021 9:15:00 AM 16.36 61.448 0.057 6.49 8.7 9.93
7/12/2021 9:30:00 AM 16.41 61.538 0.057 6.5 8.13 9.94
7/12/2021 9:45:00 AM 16.43 61.574 0.057 6.51 7.75 9.93
7/12/2021 10:00:00 AM 16.44 61.592 0.057 6.52 8.1 9.93
7/12/2021 10:15:00 AM 16.47 61.646 0.057 6.54 7.69 9.93
7/12/2021 10:30:00 AM 16.54 61.772 0.057 6.56 7.4 9.92
7/12/2021 10:45:00 AM 16.65 61.97 0.057 6.58 7.9 9.91
7/12/2021 11:00:00 AM 16.75 62.15 0.057 6.59 7.3 9.89
7/12/2021 11:15:00 AM 16.82 62.276 0.057 6.6 7.68 9.88
7/12/2021 11:30:00 AM 16.93 62.474 0.057 6.62 7.47 9.87
7/12/2021 11:45:00 AM 16.97 62.546 0.058 6.61 7.12 9.85
7/12/2021 12:00:00 PM 17.02 62.636 0.058 6.61 6.84 9.84
7/12/2021 12:15:00 PM 17.01 62.618 0.058 6.6 7.42 9.83
7/12/2021 12:30:00 PM 16.99 62.582 0.058 6.59 6.93 9.82
7/12/2021 12:45:00 PM 16.98 62.564 0.058 6.63 7.02 9.83
7/12/2021 1:00:00 PM 17.02 62.636 0.058 6.62 6.8 9.84
7/12/2021 1:15:00 PM 17.1 62.78 0.058 6.61 6.97 9.83
7/12/2021 1:30:00 PM 17.16 62.888 0.058 6.61 6.22 9.8
7/12/2021 1:45:00 PM 17.2 62.96 0.058 6.63 6.36 9.79
7/12/2021 2:00:00 PM 17.33 63.194 0.058 6.63 6.53 9.78
7/12/2021 2:15:00 PM 17.38 63.284 0.058 6.62 6.15 9.77
7/12/2021 2:30:00 PM 17.42 63.356 0.058 6.62 7.23 9.75
7/12/2021 2:45:00 PM 17.46 63.428 0.058 6.61 5.99 9.73
7/12/2021 3:00:00 PM 17.59 63.662 0.059 6.63 6.16 9.71
7/12/2021 3:15:00 PM 17.69 63.842 0.059 6.65 5.82 9.68
7/12/2021 3:30:00 PM 17.66 63.788 0.059 6.61 5.8 9.67
7/12/2021 3:45:00 PM 17.71 63.878 0.059 6.61 5.61 9.67
7/12/2021 4:00:00 PM 17.8 64.04 0.059 6.62 5.79 9.66
7/12/2021 4:15:00 PM 17.85 64.13 0.059 6.63 5.74 9.65
7/12/2021 4:30:00 PM 17.8 64.04 0.059 6.61 5.6 9.63
7/12/2021 4:45:00 PM 17.82 64.076 0.059 6.61 5.6 9.62
7/12/2021 5:00:00 PM 17.82 64.076 0.059 6.61 5.47 9.62
7/12/2021 5:15:00 PM 17.77 63.986 0.059 6.59 5.53 9.61
7/12/2021 5:30:00 PM 17.74 63.932 0.059 6.59 5.37 9.61
7/12/2021 5:45:00 PM 17.7 63.86 0.059 6.59 5.28 9.62
7/12/2021 6:00:00 PM 17.69 63.842 0.059 6.61 5.59 9.63
7/12/2021 6:15:00 PM 17.68 63.824 0.059 6.6 5.14 9.63
7/12/2021 6:30:00 PM 17.65 63.77 0.06 6.59 5.01 9.64
7/12/2021 6:45:00 PM 17.66 63.788 0.06 6.6 5.14 9.63
7/12/2021 7:00:00 PM 17.66 63.788 0.06 6.61 4.8 9.61
7/12/2021 7:15:00 PM 17.63 63.734 0.06 6.63 5.04 9.61
7/12/2021 7:30:00 PM 17.61 63.698 0.06 6.6 4.68 9.61
7/12/2021 7:45:00 PM 17.58 63.644 0.06 6.6 4.92 9.61
7/12/2021 8:00:00 PM 17.54 63.572 0.06 6.59 4.98 9.61
7/12/2021 8:15:00 PM 17.49 63.482 0.06 6.59 4.85 9.63
7/12/2021 8:30:00 PM 17.43 63.374 0.06 6.57 4.96 9.61
7/12/2021 8:45:00 PM 17.38 63.284 0.06 6.59 4.71 9.62
7/12/2021 9:00:00 PM 17.33 63.194 0.06 6.55 4.54 9.62
7/12/2021 9:15:00 PM 17.29 63.122 0.06 6.55 4.56 9.62
7/12/2021 9:30:00 PM 17.27 63.086 0.06 6.54 4.51 9.63
7/12/2021 9:45:00 PM 17.23 63.014 0.06 6.54 4.62 9.64
7/12/2021 10:00:00 PM 17.2 62.96 0.061 6.57 4.69 9.64
7/12/2021 10:15:00 PM 17.18 62.924 0.061 6.56 4.47 9.65
7/12/2021 10:30:00 PM 17.16 62.888 0.061 6.54 4.92 9.63
7/12/2021 10:45:00 PM 17.13 62.834 0.061 6.54 4.77 9.66
7/12/2021 11:00:00 PM 17.1 62.78 0.061 6.54 4.82 9.65
7/12/2021 11:15:00 PM 17.08 62.744 0.061 6.54 5.71 9.63
7/12/2021 11:30:00 PM 17.05 62.69 0.061 6.56 4.8 9.67
7/12/2021 11:45:00 PM 17.03 62.654 0.061 6.54 4.31 9.66
7/13/2021 12:00:00 AM 17.01 62.618 0.061 6.53 4.29 9.67
7/13/2021 12:15:00 AM 16.99 62.582 0.061 6.56 4.2 9.67
7/13/2021 12:30:00 AM 16.97 62.546 0.061 6.54 4.08 9.68
7/13/2021 12:45:00 AM 16.96 62.528 0.061 6.56 4.09 9.68
7/13/2021 1:00:00 AM 16.94 62.492 0.061 6.54 4.21 9.68
7/13/2021 1:15:00 AM 16.93 62.474 0.062 6.53 3.89 9.69
7/13/2021 1:30:00 AM 16.9 62.42 0.062 6.53 4.17 9.69
7/13/2021 1:45:00 AM 16.88 62.384 0.062 6.53 3.98 9.68
7/13/2021 2:00:00 AM 16.86 62.348 0.062 6.55 3.92 9.7
7/13/2021 2:15:00 AM 16.85 62.33 0.062 6.52 4.26 9.7
7/13/2021 2:30:00 AM 16.83 62.294 0.062 6.52 4.48 9.71
7/13/2021 2:45:00 AM 16.82 62.276 0.062 6.53 4.12 9.71
7/13/2021 3:00:00 AM 16.8 62.24 0.062 6.53 4.02 9.72
7/13/2021 3:15:00 AM 16.78 62.204 0.062 6.52 4.21 9.74
7/13/2021 3:30:00 AM 16.77 62.186 0.062 6.54 3.98 9.74
7/13/2021 3:45:00 AM 16.76 62.168 0.062 6.54 4.05 9.72
7/13/2021 4:00:00 AM 16.75 62.15 0.062 6.53 4.03 9.72
7/13/2021 4:15:00 AM 16.74 62.132 0.062 6.54 4.79 9.72
7/13/2021 4:30:00 AM 16.74 62.132 0.062 6.54 4.69 9.74
7/13/2021 4:45:00 AM 16.74 62.132 0.062 6.55 4.29 9.74
7/13/2021 5:00:00 AM 16.72 62.096 0.062 6.55 4.32 9.74
7/13/2021 5:15:00 AM 16.72 62.096 0.063 6.56 4.76 9.74
7/13/2021 5:30:00 AM 16.71 62.078 0.063 6.57 4.72 9.75
7/13/2021 5:45:00 AM 16.7 62.06 0.063 6.56 4.18 9.74
7/13/2021 6:00:00 AM 16.7 62.06 0.063 6.56 4.06 9.76
7/13/2021 6:15:00 AM 16.69 62.042 0.063 6.58 3.95 9.73
7/13/2021 6:30:00 AM 16.69 62.042 0.063 6.56 3.93 9.76
7/13/2021 6:45:00 AM 16.68 62.024 0.064 6.59 4.03 9.77
7/13/2021 7:00:00 AM 16.68 62.024 0.064 6.57 3.9 9.76
7/13/2021 7:15:00 AM 16.67 62.006 0.064 6.57 3.96 9.77
7/13/2021 7:30:00 AM 16.68 62.024 0.064 6.57 3.67 9.75
7/13/2021 7:45:00 AM 16.66 61.988 0.064 6.57 4.08 9.76
7/13/2021 8:00:00 AM 16.66 61.988 0.064 6.58 3.9 9.76
7/13/2021 8:15:00 AM 16.66 61.988 0.064 6.59 3.73 9.79
7/13/2021 8:30:00 AM 16.67 62.006 0.064 6.57 3.85 9.8
7/13/2021 8:45:00 AM 16.7 62.06 0.064 6.59 3.66 9.81
7/13/2021 9:00:00 AM 16.75 62.15 0.064 6.6 3.7 9.82
7/13/2021 9:15:00 AM 16.81 62.258 0.064 6.62 3.63 9.82
7/13/2021 9:30:00 AM 16.85 62.33 0.064 6.61 3.65 9.83
7/13/2021 9:45:00 AM 16.88 62.384 0.064 6.65 3.62 9.82
7/13/2021 10:00:00 AM 16.91 62.438 0.064 6.63 3.45 9.8
7/13/2021 10:15:00 AM 16.95 62.51 0.064 6.66 3.52 9.8
7/13/2021 10:30:00 AM 17.05 62.69 0.064 6.64 3.46 9.78
7/13/2021 10:45:00 AM 17.15 62.87 0.064 6.65 3.55 9.78
7/13/2021 11:00:00 AM 17.25 63.05 0.064 6.68 3.51 9.72
7/13/2021 11:15:00 AM 17.42 63.356 0.064 6.68 3.5 9.75
7/13/2021 11:30:00 AM 17.45 63.41 0.064 6.66 3.55 9.71
7/13/2021 11:45:00 AM 17.57 63.626 0.064 6.67 3.47 9.67
7/13/2021 12:00:00 PM 17.67 63.806 0.064 6.69 3.7 9.67
7/13/2021 12:15:00 PM 17.93 64.274 0.064 6.69 3.33 9.64
7/13/2021 12:30:00 PM 18.07 64.526 0.064 6.67 3.26 9.61
7/13/2021 12:45:00 PM 18.04 64.472 0.064 6.65 3.46 9.55
7/13/2021 1:00:00 PM 18.16 64.688 0.064 6.67 3.55 9.58
7/13/2021 1:15:00 PM 18.08 64.544 0.064 6.66 3.24 9.57
7/13/2021 1:30:00 PM 18.17 64.706 0.064 6.66 3.43 9.52
7/13/2021 1:45:00 PM 18.19 64.742 0.064 6.64 3.21 9.52
7/13/2021 2:00:00 PM 18.27 64.886 0.064 6.65 3.4 9.52
7/13/2021 2:15:00 PM 18.26 64.868 0.064 6.64 3.32 9.5
7/13/2021 2:30:00 PM 18.52 65.336 0.064 6.67 3.22 9.49
7/13/2021 2:45:00 PM 18.64 65.552 0.064 6.67 3.3 9.47
7/13/2021 3:00:00 PM 18.77 65.786 0.064 6.67 3.39 9.45
7/13/2021 3:15:00 PM 18.93 66.074 0.064 6.67 3.48 9.4
7/13/2021 3:30:00 PM 19.04 66.272 0.064 6.66 3.39 9.37
7/13/2021 3:45:00 PM 19.07 66.326 0.064 6.65 3.3 9.36
7/13/2021 4:00:00 PM 19.09 66.362 0.064 6.66 3.38 9.35
7/13/2021 4:15:00 PM 19.13 66.434 0.064 6.65 3.25 9.33
7/13/2021 4:30:00 PM 19.1 66.38 0.064 6.63 3.6 9.33
7/13/2021 4:45:00 PM 19.12 66.416 0.064 6.63 3.36 9.3
7/13/2021 5:00:00 PM 19.11 66.398 0.064 6.62 3.31 9.31
7/13/2021 5:15:00 PM 19.08 66.344 0.064 6.62 3.72 9.3
7/13/2021 5:30:00 PM 19.05 66.29 0.064 6.62 3.23 9.26
7/13/2021 5:45:00 PM 19.01 66.218 0.064 6.61 3.28 9.3
7/13/2021 6:00:00 PM 18.98 66.164 0.064 6.62 3.19 9.3
7/13/2021 6:15:00 PM 18.87 65.966 0.064 6.59 3.19 9.28
7/13/2021 6:30:00 PM 18.83 65.894 0.064 6.59 3.41 9.29
7/13/2021 6:45:00 PM 18.82 65.876 0.062 6.6 4.36 9.27
7/13/2021 7:00:00 PM 18.71 65.67799 0.063 6.57 3.94 9.27
7/13/2021 7:15:00 PM 18.61 65.498 0.063 6.56 5.01 9.28
7/13/2021 7:30:00 PM 18.51 65.318 0.063 6.57 4.56 9.3
7/13/2021 7:45:00 PM 18.42 65.156 0.063 6.57 4.05 9.3
7/13/2021 8:00:00 PM 18.33 64.994 0.063 6.56 4.15 9.3
7/13/2021 8:15:00 PM 18.26 64.868 0.063 6.56 3.93 9.35
7/13/2021 8:30:00 PM 18.2 64.76 0.063 6.57 4.67 9.38
7/13/2021 8:45:00 PM 18.13 64.634 0.063 6.59 7.61 9.4
7/13/2021 9:00:00 PM 18.06 64.508 0.063 6.62 9.11 9.46
7/13/2021 9:15:00 PM 17.98 64.364 0.065 6.65 12.46 9.51
7/13/2021 9:30:00 PM 17.87 64.166 0.067 6.67 15.49 9.58
7/13/2021 9:45:00 PM 17.77 63.986 0.07 6.65 17.93 9.6
7/13/2021 10:00:00 PM 17.69 63.842 0.069 6.65 35.72 9.61
7/13/2021 10:15:00 PM 17.65 63.77 0.068 6.67 30.14 9.63
7/13/2021 10:30:00 PM 17.64 63.752 0.069 6.62 27.6 9.63
7/13/2021 10:45:00 PM 17.66 63.788 0.07 6.58 29.42 9.62
7/13/2021 11:00:00 PM 17.7 63.86 0.069 6.56 45.16 9.63
7/13/2021 11:15:00 PM 17.74 63.932 0.068 6.55 37.2 9.62
7/13/2021 11:30:00 PM 17.74 63.932 0.067 6.52 55.67 9.61
7/13/2021 11:45:00 PM 17.75 63.95 0.066 6.51 57.07 9.62
7/14/2021 12:00:00 AM 17.76 63.968 0.065 6.51 50.83 9.61
7/14/2021 12:15:00 AM 17.75 63.95 0.065 6.51 30.2 9.62
7/14/2021 12:30:00 AM 17.75 63.95 0.064 6.51 23.39 9.61
7/14/2021 12:45:00 AM 17.75 63.95 0.064 6.51 20.35 9.61
7/14/2021 1:00:00 AM 17.74 63.932 0.064 6.52 17.12 9.61
7/14/2021 1:15:00 AM 17.74 63.932 0.064 6.53 15.33 9.61
7/14/2021 1:30:00 AM 17.72 63.896 0.064 6.53 14.05 9.6
7/14/2021 1:45:00 AM 17.71 63.878 0.064 6.53 12.79 9.6
7/14/2021 2:00:00 AM 17.69 63.842 0.064 6.54 12.14 9.62
7/14/2021 2:15:00 AM 17.67 63.806 0.064 6.53 11.17 9.62
7/14/2021 2:30:00 AM 17.64 63.752 0.064 6.54 10.35 9.62
7/14/2021 2:45:00 AM 17.61 63.698 0.063 6.52 9.82 9.62
7/14/2021 3:00:00 AM 17.58 63.644 0.063 6.52 9.43 9.62
7/14/2021 3:15:00 AM 17.54 63.572 0.063 6.54 9.1 9.63
7/14/2021 3:30:00 AM 17.51 63.518 0.063 6.54 8.39 9.65
7/14/2021 3:45:00 AM 17.47 63.446 0.063 6.53 8.68 9.65
7/14/2021 4:00:00 AM 17.44 63.392 0.063 6.52 8.81 9.66
7/14/2021 4:15:00 AM 17.4 63.32 0.063 6.54 8.81 9.66
7/14/2021 4:30:00 AM 17.36 63.248 0.062 6.52 8.47 9.67
7/14/2021 4:45:00 AM 17.32 63.176 0.062 6.52 8.68 9.67
7/14/2021 5:00:00 AM 17.28 63.104 0.062 6.52 8.06 9.67
7/14/2021 5:15:00 AM 17.25 63.05 0.062 6.52 8.37 9.68
7/14/2021 5:30:00 AM 17.21 62.978 0.062 6.51 7.8 9.69
7/14/2021 5:45:00 AM 17.18 62.924 0.062 6.52 7.15 9.69
7/14/2021 6:00:00 AM 17.15 62.87 0.062 6.53 6.8 9.7
7/14/2021 6:15:00 AM 17.12 62.816 0.063 6.53 6.48 9.7
7/14/2021 6:30:00 AM 17.1 62.78 0.063 6.52 6.35 9.72
7/14/2021 6:45:00 AM 17.07 62.726 0.063 6.52 6.55 9.73
7/14/2021 7:00:00 AM 17.05 62.69 0.063 6.51 6.64 9.73
7/14/2021 7:15:00 AM 17.03 62.654 0.063 6.53 5.76 9.75
7/14/2021 7:30:00 AM 17.02 62.636 0.063 6.52 6.33 9.75
7/14/2021 7:45:00 AM 17 62.6 0.063 6.53 5.92 9.76
7/14/2021 8:00:00 AM 17 62.6 0.063 6.53 5.35 9.77
7/14/2021 8:15:00 AM 16.98 62.564 0.063 6.52 5.62 9.75
7/14/2021 8:30:00 AM 16.99 62.582 0.063 6.53 5.24 9.78
7/14/2021 8:45:00 AM 16.99 62.582 0.063 6.53 5.23 9.78
7/14/2021 9:00:00 AM 16.99 62.582 0.063 6.53 4.99 9.79
7/14/2021 9:15:00 AM 16.99 62.582 0.063 6.54 4.85 9.8
7/14/2021 9:30:00 AM 16.99 62.582 0.063 6.55 4.58 9.81
7/14/2021 9:45:00 AM 17.01 62.618 0.063 6.6 4.94 9.81
7/14/2021 10:00:00 AM 17.03 62.654 0.063 6.58 4.36 9.82
7/14/2021 10:15:00 AM 17.11 62.798 0.063 6.62 4.56 9.83
7/14/2021 10:30:00 AM 17.17 62.906 0.063 6.62 4.51 9.82
7/14/2021 10:45:00 AM 17.28 63.104 0.064 6.64 4.55 9.82
7/14/2021 11:00:00 AM 17.29 63.122 0.064 6.62 4.5 9.79
7/14/2021 11:15:00 AM 17.39 63.302 0.064 6.66 4.49 9.79
7/14/2021 11:30:00 AM 17.49 63.482 0.064 6.67 6.04 9.76
7/14/2021 11:45:00 AM 17.6 63.68 0.064 6.65 11.21 9.74
7/14/2021 12:00:00 PM 17.64 63.752 0.064 6.68 4.61 9.74
7/14/2021 12:15:00 PM 17.67 63.806 0.064 6.65 4.4 9.72
7/14/2021 12:30:00 PM 17.77 63.986 0.064 6.66 4.18 9.72
7/14/2021 12:45:00 PM 17.9 64.22 0.064 6.69 4.09 9.7
7/14/2021 1:00:00 PM 18.08 64.544 0.064 6.68 4 9.68
7/14/2021 1:15:00 PM 18.17 64.706 0.064 6.68 3.7 9.66
7/14/2021 1:30:00 PM 18.21 64.778 0.064 6.65 3.75 9.64
7/14/2021 1:45:00 PM 18.2 64.76 0.064 6.66 3.8 9.62
7/14/2021 2:00:00 PM 18.33 64.994 0.064 6.66 3.78 9.61
7/14/2021 2:15:00 PM 18.43 65.174 0.064 6.68 3.97 9.58
7/14/2021 2:30:00 PM 18.55 65.39 0.064 6.66 3.89 9.55
7/14/2021 2:45:00 PM 18.61 65.498 0.064 6.65 3.81 9.54
7/14/2021 3:00:00 PM 18.7 65.66 0.064 6.65 3.74 9.53
7/14/2021 3:15:00 PM 18.73 65.714 0.064 6.64 3.74 9.51
7/14/2021 3:30:00 PM 18.76 65.768 0.064 6.63 3.73 9.5
7/14/2021 3:45:00 PM 18.73 65.714 0.064 6.63 3.75 9.49
7/14/2021 4:00:00 PM 18.71 65.67799 0.064 6.62 3.54 9.48
7/14/2021 4:15:00 PM 18.7 65.66 0.064 6.62 3.76 9.5
7/14/2021 4:30:00 PM 18.7 65.66 0.064 6.63 3.82 9.48
7/14/2021 4:45:00 PM 18.65 65.57 0.064 6.61 3.56 9.47
7/14/2021 5:00:00 PM 18.64 65.552 0.065 6.61 3.54 9.45
7/14/2021 5:15:00 PM 18.65 65.57 0.065 6.62 3.76 9.45
7/14/2021 5:30:00 PM 18.64 65.552 0.065 6.62 3.59 9.46
7/14/2021 5:45:00 PM 18.59 65.462 0.065 6.6 3.47 9.46
7/14/2021 6:00:00 PM 18.53 65.354 0.065 6.6 3.15 9.47
7/14/2021 6:15:00 PM 18.49 65.282 0.065 6.59 3.31 9.46
7/14/2021 6:30:00 PM 18.43 65.174 0.065 6.59 3.43 9.46
7/14/2021 6:45:00 PM 18.41 65.138 0.065 6.62 3.27 9.44
7/14/2021 7:00:00 PM 18.37 65.066 0.065 6.59 3.22 9.46
7/14/2021 7:15:00 PM 18.32 64.976 0.065 6.58 3.34 9.46
7/14/2021 7:30:00 PM 18.26 64.868 0.065 6.57 3.37 9.43
7/14/2021 7:45:00 PM 18.2 64.76 0.065 6.56 3.52 9.44
7/14/2021 8:00:00 PM 18.15 64.67 0.065 6.56 3.22 9.45
7/14/2021 8:15:00 PM 18.1 64.58 0.065 6.55 3.52 9.45
7/14/2021 8:30:00 PM 18.04 64.472 0.065 6.55 3.36 9.45
7/14/2021 8:45:00 PM 17.99 64.382 0.065 6.55 3.3 9.46
7/14/2021 9:00:00 PM 17.94 64.292 0.065 6.56 3.3 9.47
7/14/2021 9:15:00 PM 17.89 64.202 0.065 6.55 3.42 9.49
7/14/2021 9:30:00 PM 17.85 64.13 0.065 6.56 3.52 9.49
7/14/2021 9:45:00 PM 17.81 64.058 0.065 6.56 3.48 9.5
7/14/2021 10:00:00 PM 17.76 63.968 0.065 6.56 3.23 9.5
7/14/2021 10:15:00 PM 17.72 63.896 0.065 6.6 3.14 9.51
7/14/2021 10:30:00 PM 17.68 63.824 0.065 6.57 3.25 9.51
7/14/2021 10:45:00 PM 17.64 63.752 0.065 6.57 3.18 9.53
7/14/2021 11:00:00 PM 17.6 63.68 0.065 6.57 3.25 9.53
7/14/2021 11:15:00 PM 17.57 63.626 0.065 6.57 3.26 9.55
7/14/2021 11:30:00 PM 17.53 63.554 0.065 6.57 3.13 9.55
7/14/2021 11:45:00 PM 17.49 63.482 0.065 6.57 3.21 9.56
7/15/2021 12:00:00 AM 17.46 63.428 0.065 6.57 2.91 9.55
7/15/2021 12:15:00 AM 17.42 63.356 0.065 6.57 3.19 9.57
7/15/2021 12:30:00 AM 17.38 63.284 0.065 6.57 3.12 9.56
7/15/2021 12:45:00 AM 17.35 63.23 0.065 6.59 3.08 9.59
7/15/2021 1:00:00 AM 17.32 63.176 0.065 6.58 3 9.58
7/15/2021 1:15:00 AM 17.29 63.122 0.065 6.58 3.09 9.59
7/15/2021 1:30:00 AM 17.26 63.068 0.065 6.57 3.1 9.61
7/15/2021 1:45:00 AM 17.23 63.014 0.065 6.58 3.14 9.61
7/15/2021 2:00:00 AM 17.2 62.96 0.065 6.57 3.51 9.63
7/15/2021 2:15:00 AM 17.17 62.906 0.065 6.57 3.59 9.61
7/15/2021 2:30:00 AM 17.14 62.852 0.065 6.57 3.41 9.64
7/15/2021 2:45:00 AM 17.11 62.798 0.066 6.57 3.3 9.64
7/15/2021 3:00:00 AM 17.08 62.744 0.066 6.59 3.35 9.65
7/15/2021 3:15:00 AM 17.05 62.69 0.066 6.58 3.39 9.64
7/15/2021 3:30:00 AM 17.02 62.636 0.066 6.59 3.91 9.65
7/15/2021 3:45:00 AM 16.99 62.582 0.066 6.57 3.66 9.64
7/15/2021 4:00:00 AM 16.95 62.51 0.066 6.57 3.15 9.66
7/15/2021 4:15:00 AM 16.92 62.456 0.066 6.57 3.04 9.66
7/15/2021 4:30:00 AM 16.89 62.402 0.066 6.57 3.14 9.67
7/15/2021 4:45:00 AM 16.87 62.366 0.066 6.57 3.01 9.67
7/15/2021 5:00:00 AM 16.84 62.312 0.066 6.6 2.98 9.69
7/15/2021 5:15:00 AM 16.81 62.258 0.066 6.59 3.04 9.69
7/15/2021 5:30:00 AM 16.78 62.204 0.066 6.58 3.15 9.69
7/15/2021 5:45:00 AM 16.76 62.168 0.066 6.58 3.21 9.71
7/15/2021 6:00:00 AM 16.73 62.114 0.066 6.61 3.35 9.7
7/15/2021 6:15:00 AM 16.71 62.078 0.066 6.58 3.34 9.71
7/15/2021 6:30:00 AM 16.68 62.024 0.066 6.61 3.44 9.73
7/15/2021 6:45:00 AM 16.66 61.988 0.066 6.59 3.33 9.73
7/15/2021 7:00:00 AM 16.64 61.952 0.066 6.59 3.21 9.74
7/15/2021 7:15:00 AM 16.62 61.916 0.066 6.59 3.15 9.74
7/15/2021 7:30:00 AM 16.61 61.898 0.066 6.59 3.16 9.75
7/15/2021 7:45:00 AM 16.6 61.88 0.066 6.63 3.11 9.75
7/15/2021 8:00:00 AM 16.6 61.88 0.066 6.61 3.24 9.78
7/15/2021 8:15:00 AM 16.6 61.88 0.066 6.61 3.18 9.78
7/15/2021 8:30:00 AM 16.61 61.898 0.066 6.62 3.13 9.81
7/15/2021 8:45:00 AM 16.64 61.952 0.066 6.62 3.04 9.8
7/15/2021 9:00:00 AM 16.68 62.024 0.066 6.65 3.32 9.82
7/15/2021 9:15:00 AM 16.72 62.096 0.066 6.64 3.22 9.81
7/15/2021 9:30:00 AM 16.78 62.204 0.066 6.65 3.39 9.81
7/15/2021 9:45:00 AM 16.86 62.348 0.066 6.65 3.25 9.79
7/15/2021 10:00:00 AM 16.97 62.546 0.066 6.67 3.11 9.8
7/15/2021 10:15:00 AM 17.05 62.69 0.066 6.66 3.21 9.78
7/15/2021 10:30:00 AM 17.16 62.888 0.066 6.66 3.22 9.76
7/15/2021 10:45:00 AM 17.27 63.086 0.066 6.67 3.15 9.74
7/15/2021 11:00:00 AM 17.36 63.248 0.066 6.66 3.15 9.72
7/15/2021 11:15:00 AM 17.54 63.572 0.066 6.68 3.13 9.7
7/15/2021 11:30:00 AM 17.62 63.716 0.066 6.68 3.17 9.68
7/15/2021 11:45:00 AM 17.67 63.806 0.066 6.68 3.28 9.66
7/15/2021 12:00:00 PM 17.86 64.148 0.066 6.69 3.27 9.61
7/15/2021 12:15:00 PM 18.04 64.472 0.066 6.7 3.25 9.58
7/15/2021 12:30:00 PM 18.24 64.832 0.066 6.71 3.37 9.54
7/15/2021 12:45:00 PM 18.24 64.832 0.066 6.71 3.21 9.54
7/15/2021 1:00:00 PM 18.23 64.814 0.066 6.67 3.29 9.55
7/15/2021 1:15:00 PM 18.19 64.742 0.066 6.66 3.35 9.55
7/15/2021 1:30:00 PM 18.17 64.706 0.066 6.66 3.27 9.55
7/15/2021 1:45:00 PM 18.26 64.868 0.066 6.68 3.32 9.53
7/15/2021 2:00:00 PM 18.39 65.102 0.066 6.69 3.35 9.53
7/15/2021 2:15:00 PM 18.43 65.174 0.066 6.68 3.46 9.52
7/15/2021 2:30:00 PM 18.37 65.066 0.066 6.66 3.49 9.51
7/15/2021 2:45:00 PM 18.52 65.336 0.066 6.69 3.53 9.48
7/15/2021 3:00:00 PM 18.58 65.444 0.066 6.68 3.46 9.47
7/15/2021 3:15:00 PM 18.6 65.48 0.066 6.7 3.46 9.48
7/15/2021 3:30:00 PM 18.69 65.642 0.066 6.68 3.37 9.46
7/15/2021 3:45:00 PM 18.72 65.696 0.066 6.67 3.22 9.44
7/15/2021 4:00:00 PM 18.73 65.714 0.066 6.67 3.59 9.44
7/15/2021 4:15:00 PM 18.7 65.66 0.066 6.66 3.64 9.4
7/15/2021 4:30:00 PM 18.73 65.714 0.066 6.69 3.62 9.42
7/15/2021 4:45:00 PM 18.74 65.732 0.066 6.67 3.62 9.39
7/15/2021 5:00:00 PM 18.68 65.624 0.066 6.65 3.19 9.39
7/15/2021 5:15:00 PM 18.61 65.498 0.066 6.63 3.23 9.39
7/15/2021 5:30:00 PM 18.67 65.606 0.066 6.66 3.49 9.38
7/15/2021 5:45:00 PM 18.63 65.534 0.066 6.65 3.09 9.41
7/15/2021 6:00:00 PM 18.55 65.39 0.066 6.62 3.29 9.37
7/15/2021 6:15:00 PM 18.53 65.354 0.066 6.66 3.83 9.35
7/15/2021 6:30:00 PM 18.47 65.246 0.066 6.62 3.2 9.34
7/15/2021 6:45:00 PM 18.42 65.156 0.066 6.62 3.33 9.37
7/15/2021 7:00:00 PM 18.35 65.03 0.066 6.61 3.36 9.36
7/15/2021 7:15:00 PM 18.3 64.94 0.066 6.63 3.77 9.37
7/15/2021 7:30:00 PM 18.24 64.832 0.066 6.6 3.24 9.37
7/15/2021 7:45:00 PM 18.18 64.724 0.066 6.61 3.23 9.36
7/15/2021 8:00:00 PM 18.12 64.616 0.066 6.59 3.23 9.37
7/15/2021 8:15:00 PM 18.05 64.49 0.066 6.58 3.61 9.37
7/15/2021 8:30:00 PM 17.99 64.382 0.066 6.58 3.36 9.34
7/15/2021 8:45:00 PM 17.94 64.292 0.066 6.58 3.07 9.38
7/15/2021 9:00:00 PM 17.9 64.22 0.066 6.58 3.12 9.37
7/15/2021 9:15:00 PM 17.86 64.148 0.066 6.57 3.17 9.37
7/15/2021 9:30:00 PM 17.82 64.076 0.066 6.57 3.27 9.38
7/15/2021 9:45:00 PM 17.79 64.022 0.066 6.61 3.23 9.38
7/15/2021 10:00:00 PM 17.76 63.968 0.066 6.57 3.25 9.4
7/15/2021 10:15:00 PM 17.73 63.914 0.066 6.61 3.26 9.38
7/15/2021 10:30:00 PM 17.7 63.86 0.066 6.59 3.24 9.4
7/15/2021 10:45:00 PM 17.67 63.806 0.066 6.59 3.12 9.41
7/15/2021 11:00:00 PM 17.65 63.77 0.066 6.58 3.07 9.41
7/15/2021 11:15:00 PM 17.63 63.734 0.066 6.59 3.12 9.41
7/15/2021 11:30:00 PM 17.61 63.698 0.066 6.62 3.18 9.44
7/15/2021 11:45:00 PM 17.59 63.662 0.066 6.6 3.2 9.42
7/16/2021 12:00:00 AM 17.57 63.626 0.066 6.6 3.38 9.44
7/16/2021 12:15:00 AM 17.55 63.59 0.066 6.6 3.35 9.44
7/16/2021 12:30:00 AM 17.53 63.554 0.066 6.6 3.29 9.44
7/16/2021 12:45:00 AM 17.51 63.518 0.066 6.61 3.43 9.46
7/16/2021 1:00:00 AM 17.49 63.482 0.067 6.62 3.13 9.45
7/16/2021 1:15:00 AM 17.47 63.446 0.067 6.6 3.2 9.47
7/16/2021 1:30:00 AM 17.46 63.428 0.067 6.63 3.28 9.45
7/16/2021 1:45:00 AM 17.44 63.392 0.067 6.6 3.05 9.45
7/16/2021 2:00:00 AM 17.42 63.356 0.067 6.64 3.14 9.46
7/16/2021 2:15:00 AM 17.4 63.32 0.067 6.62 3.47 9.47
7/16/2021 2:30:00 AM 17.38 63.284 0.067 6.6 3.27 9.47
7/16/2021 2:45:00 AM 17.35 63.23 0.067 6.6 3.22 9.43
7/16/2021 3:00:00 AM 17.32 63.176 0.067 6.6 3.46 9.47
7/16/2021 3:15:00 AM 17.3 63.14 0.067 6.6 3.33 9.5
7/16/2021 3:30:00 AM 17.27 63.086 0.067 6.62 3.4 9.5
7/16/2021 3:45:00 AM 17.24 63.032 0.067 6.59 3.25 9.52
7/16/2021 4:00:00 AM 17.21 62.978 0.067 6.58 3.28 9.51
7/16/2021 4:15:00 AM 17.19 62.942 0.067 6.62 3.38 9.52
7/16/2021 4:30:00 AM 17.16 62.888 0.067 6.59 3.33 9.52
7/16/2021 4:45:00 AM 17.13 62.834 0.067 6.58 3.23 9.49
7/16/2021 5:00:00 AM 17.09 62.762 0.067 6.61 3.33 9.53
7/16/2021 5:15:00 AM 17.07 62.726 0.067 6.6 3.48 9.53
7/16/2021 5:30:00 AM 17.05 62.69 0.067 6.59 3.84 9.54
7/16/2021 5:45:00 AM 17.02 62.636 0.067 6.58 3.58 9.55
7/16/2021 6:00:00 AM 17 62.6 0.067 6.57 4.01 9.51
7/16/2021 6:15:00 AM 16.98 62.564 0.067 6.58 3.63 9.53
7/16/2021 6:30:00 AM 16.96 62.528 0.067 6.58 3.75 9.57
7/16/2021 6:45:00 AM 16.94 62.492 0.067 6.59 3.37 9.57
7/16/2021 7:00:00 AM 16.93 62.474 0.067 6.6 3.5 9.6
7/16/2021 7:15:00 AM 16.92 62.456 0.067 6.62 3.53 9.62
7/16/2021 7:30:00 AM 16.93 62.474 0.067 6.6 3.34 9.65
7/16/2021 7:45:00 AM 16.92 62.456 0.067 6.6 3.4 9.66
7/16/2021 8:00:00 AM 16.91 62.438 0.067 6.6 3.35 9.65
7/16/2021 8:15:00 AM 16.91 62.438 0.067 6.6 3.34 9.65
7/16/2021 8:30:00 AM 16.93 62.474 0.067 6.62 3.35 9.66
7/16/2021 8:45:00 AM 17 62.6 0.067 6.63 3.27 9.68
7/16/2021 9:00:00 AM 17.03 62.654 0.067 6.62 3.36 9.68
7/16/2021 9:15:00 AM 17.09 62.762 0.067 6.63 3.25 9.65
7/16/2021 9:30:00 AM 17.18 62.924 0.067 6.67 3.37 9.68
7/16/2021 9:45:00 AM 17.26 63.068 0.067 6.67 3.35 9.67
7/16/2021 10:00:00 AM 17.38 63.284 0.067 6.67 3.38 9.66
7/16/2021 10:15:00 AM 17.46 63.428 0.067 6.67 3.41 9.66
7/16/2021 10:30:00 AM 17.5 63.5 0.067 6.67 3.28 9.64
7/16/2021 10:45:00 AM 17.6 63.68 0.067 6.69 3.37 9.63
7/16/2021 11:00:00 AM 17.66 63.788 0.067 6.69 3.4 9.64
7/16/2021 11:15:00 AM 17.7 63.86 0.067 6.69 3.47 9.63
7/16/2021 11:30:00 AM 17.76 63.968 0.067 6.69 3.36 9.6
7/16/2021 11:45:00 AM 17.81 64.058 0.067 6.69 3.38 9.58
7/16/2021 12:00:00 PM 17.85 64.13 0.067 6.69 3.5 9.59
7/16/2021 12:15:00 PM 17.97 64.346 0.067 6.7 3.46 9.59
7/16/2021 12:30:00 PM 18.06 64.508 0.067 6.7 3.49 9.59
7/16/2021 12:45:00 PM 18.15 64.67 0.067 6.72 3.54 9.55
7/16/2021 1:00:00 PM 18.38 65.084 0.067 6.72 3.51 9.51
7/16/2021 1:15:00 PM 18.51 65.318 0.067 6.71 3.43 9.47
7/16/2021 1:30:00 PM 18.65 65.57 0.067 6.71 3.4 9.45
7/16/2021 1:45:00 PM 18.83 65.894 0.067 6.74 3.45 9.43
7/16/2021 2:00:00 PM 18.97 66.146 0.067 6.73 3.51 9.43
7/16/2021 2:15:00 PM 18.86 65.948 0.067 6.68 3.55 9.41
7/16/2021 2:30:00 PM 18.86 65.948 0.067 6.68 3.53 9.38
7/16/2021 2:45:00 PM 18.98 66.164 0.067 6.7 3.55 9.39
7/16/2021 3:00:00 PM 18.8 65.84 0.067 6.65 3.65 9.34
7/16/2021 3:15:00 PM 18.77 65.786 0.067 6.69 3.53 9.38
7/16/2021 3:30:00 PM 18.67 65.606 0.067 6.65 3.76 9.37
7/16/2021 3:45:00 PM 18.58 65.444 0.067 6.63 3.7 9.37
7/16/2021 4:00:00 PM 18.55 65.39 0.066 6.64 4.33 9.31
7/16/2021 4:15:00 PM 18.63 65.534 0.064 6.66 5.66 9.29
7/16/2021 4:30:00 PM 18.65 65.57 0.063 6.64 7.54 9.27
7/16/2021 4:45:00 PM 18.54 65.372 0.062 6.63 14.67 9.33
7/16/2021 5:00:00 PM 18.44 65.192 0.06 6.62 17.8 9.4
7/16/2021 5:15:00 PM 18.45 65.21 0.059 6.62 31.34 9.38
7/16/2021 5:30:00 PM 18.55 65.39 0.058 6.69 43.53 9.38
7/16/2021 5:45:00 PM 18.5 65.3 0.06 6.85 79.69 9.41
7/16/2021 6:00:00 PM 18.33 64.994 0.06 6.9 72.94 9.47
7/16/2021 6:15:00 PM 18.14 64.652 0.06 6.82 63.93 9.54
7/16/2021 6:30:00 PM 18 64.4 0.06 6.78 77.82 9.56
7/16/2021 6:45:00 PM 17.95 64.31 0.06 6.8 49.36 9.59
7/16/2021 7:00:00 PM 17.94 64.292 0.059 6.76 56.31 9.6
7/16/2021 7:15:00 PM 17.93 64.274 0.06 6.71 95.18 9.59
7/16/2021 7:30:00 PM 17.9 64.22 0.06 6.67 59.5 9.6
7/16/2021 7:45:00 PM 17.84 64.112 0.06 6.64 45.47 9.61
7/16/2021 8:00:00 PM 17.79 64.022 0.061 6.6 37.91 9.62
7/16/2021 8:15:00 PM 17.74 63.932 0.061 6.59 32.09 9.62
7/16/2021 8:30:00 PM 17.71 63.878 0.061 6.58 31.9 9.63
7/16/2021 8:45:00 PM 17.71 63.878 0.061 6.61 20.22 9.64
7/16/2021 9:00:00 PM 17.68 63.824 0.062 6.56 21.51 9.63
7/16/2021 9:15:00 PM 17.65 63.77 0.061 6.55 20.34 9.64
7/16/2021 9:30:00 PM 17.62 63.716 0.061 6.54 19.92 9.64
7/16/2021 9:45:00 PM 17.59 63.662 0.061 6.54 18.41 9.65
7/16/2021 10:00:00 PM 17.56 63.608 0.061 6.56 17.36 9.66
7/16/2021 10:15:00 PM 17.53 63.554 0.06 6.54 19.33 9.66
7/16/2021 10:30:00 PM 17.49 63.482 0.06 6.55 17.47 9.67
7/16/2021 10:45:00 PM 17.45 63.41 0.06 6.54 16.74 9.68
7/16/2021 11:00:00 PM 17.41 63.338 0.06 6.54 13.58 9.69
7/16/2021 11:15:00 PM 17.37 63.266 0.06 6.53 15.21 9.7
7/16/2021 11:30:00 PM 17.33 63.194 0.06 6.52 14.57 9.71
7/16/2021 11:45:00 PM 17.29 63.122 0.059 6.53 13.99 9.72
7/17/2021 12:00:00 AM 17.25 63.05 0.059 6.52 13.66 9.73
7/17/2021 12:15:00 AM 17.21 62.978 0.059 6.55 13.28 9.73
7/17/2021 12:30:00 AM 17.18 62.924 0.059 6.52 12.22 9.74
7/17/2021 12:45:00 AM 17.14 62.852 0.059 6.54 11.99 9.74
7/17/2021 1:00:00 AM 17.11 62.798 0.059 6.51 11.41 9.75
7/17/2021 1:15:00 AM 17.07 62.726 0.059 6.54 11.47 9.76
7/17/2021 1:30:00 AM 17.04 62.672 0.058 6.51 10.55 9.76
7/17/2021 1:45:00 AM 17.01 62.618 0.058 6.51 10.18 9.76
7/17/2021 2:00:00 AM 16.97 62.546 0.058 6.5 10.13 9.77
7/17/2021 2:15:00 AM 16.93 62.474 0.058 6.51 9.32 9.77
7/17/2021 2:30:00 AM 16.9 62.42 0.058 6.51 9.08 9.79
7/17/2021 2:45:00 AM 16.86 62.348 0.058 6.54 9.03 9.79
7/17/2021 3:00:00 AM 16.82 62.276 0.057 6.51 9.15 9.79
7/17/2021 3:15:00 AM 16.79 62.222 0.057 6.51 9.21 9.8
7/17/2021 3:30:00 AM 16.75 62.15 0.057 6.51 8.95 9.8
7/17/2021 3:45:00 AM 16.73 62.114 0.057 6.52 8.3 9.81
7/17/2021 4:00:00 AM 16.69 62.042 0.057 6.52 8.32 9.82
7/17/2021 4:15:00 AM 16.66 61.988 0.057 6.52 8.14 9.83
7/17/2021 4:30:00 AM 16.64 61.952 0.057 6.52 8.21 9.83
7/17/2021 4:45:00 AM 16.61 61.898 0.057 6.53 7.64 9.84
7/17/2021 5:00:00 AM 16.58 61.844 0.057 6.54 7.61 9.85
7/17/2021 5:15:00 AM 16.55 61.79 0.057 6.55 7.85 9.85
7/17/2021 5:30:00 AM 16.52 61.736 0.057 6.53 7.5 9.86
7/17/2021 5:45:00 AM 16.49 61.682 0.057 6.55 6.94 9.86
7/17/2021 6:00:00 AM 16.46 61.628 0.057 6.53 6.97 9.87
7/17/2021 6:15:00 AM 16.43 61.574 0.057 6.53 6.67 9.88
7/17/2021 6:30:00 AM 16.41 61.538 0.057 6.54 6.88 9.89
7/17/2021 6:45:00 AM 16.39 61.502 0.057 6.55 6.51 9.9
7/17/2021 7:00:00 AM 16.37 61.466 0.057 6.55 6.77 9.9
7/17/2021 7:15:00 AM 16.35 61.43 0.057 6.55 6.53 9.91
7/17/2021 7:30:00 AM 16.33 61.394 0.057 6.59 6.06 9.92
7/17/2021 7:45:00 AM 16.31 61.358 0.057 6.56 6.07 9.93
7/17/2021 8:00:00 AM 16.3 61.34 0.056 6.56 6.11 9.93
7/17/2021 8:15:00 AM 16.28 61.304 0.056 6.56 5.98 9.94
7/17/2021 8:30:00 AM 16.28 61.304 0.057 6.59 5.74 9.95
7/17/2021 8:45:00 AM 16.3 61.34 0.057 6.6 5.91 9.97
7/17/2021 9:00:00 AM 16.31 61.358 0.057 6.59 5.6 9.98
7/17/2021 9:15:00 AM 16.32 61.376 0.057 6.59 5.63 9.98
7/17/2021 9:30:00 AM 16.32 61.376 0.057 6.59 5.54 9.95
7/17/2021 9:45:00 AM 16.38 61.484 0.056 6.62 5.79 9.94
7/17/2021 10:00:00 AM 16.37 61.466 0.056 6.59 6.3 9.94
7/17/2021 10:15:00 AM 16.4 61.52 0.056 6.59 6.39 9.96
7/17/2021 10:30:00 AM 16.44 61.592 0.056 6.6 6.26 9.96
7/17/2021 10:45:00 AM 16.53 61.754 0.056 6.63 6.27 9.96
7/17/2021 11:00:00 AM 16.61 61.898 0.056 6.64 7.32 9.96
7/17/2021 11:15:00 AM 16.68 62.024 0.056 6.65 6.94 9.95
7/17/2021 11:30:00 AM 16.71 62.078 0.056 6.65 7.26 9.93
7/17/2021 11:45:00 AM 16.73 62.114 0.056 6.69 7.01 9.92
7/17/2021 12:00:00 PM 16.76 62.168 0.056 6.66 6.98 9.93
7/17/2021 12:15:00 PM 16.83 62.294 0.056 6.66 6.79 9.92
7/17/2021 12:30:00 PM 16.94 62.492 0.056 6.67 6.67 9.91
7/17/2021 12:45:00 PM 17.01 62.618 0.056 6.67 6.77 9.89
7/17/2021 1:00:00 PM 17.06 62.708 0.057 6.66 6.91 9.86
7/17/2021 1:15:00 PM 17 62.6 0.057 6.63 7.16 9.83
7/17/2021 1:30:00 PM 17.01 62.618 0.056 6.64 7.13 9.8
7/17/2021 1:45:00 PM 16.98 62.564 0.056 6.63 7.3 9.79
7/17/2021 2:00:00 PM 16.99 62.582 0.055 6.62 8 9.8
7/17/2021 2:15:00 PM 17.12 62.816 0.055 6.64 13.94 9.81
7/17/2021 2:30:00 PM 17.35 63.23 0.054 6.7 47.04 9.77
7/17/2021 2:45:00 PM 17.46 63.428 0.053 6.83 124.22 9.74
7/17/2021 3:00:00 PM 17.46 63.428 0.032 6.68 183.82 9.74
7/17/2021 3:15:00 PM 17.62 63.716 0.05 6.72 175.1 9.71
7/17/2021 3:30:00 PM 17.77 63.986 0.047 6.54 173.02 9.68
7/17/2021 3:45:00 PM 17.83 64.094 0.047 6.47 136.43 9.67
7/17/2021 4:00:00 PM 17.8 64.04 0.047 6.4 113.56 9.67
7/17/2021 4:15:00 PM 17.71 63.878 0.047 6.4 81.01 9.69
7/17/2021 4:30:00 PM 17.63 63.734 0.047 6.37 66.68 9.69
7/17/2021 4:45:00 PM 17.55 63.59 0.047 6.39 58.66 9.7
7/17/2021 5:00:00 PM 17.47 63.446 0.047 6.35 51.28 9.72
7/17/2021 5:15:00 PM 17.39 63.302 0.047 6.34 49.46 9.73
7/17/2021 5:30:00 PM 17.31 63.158 0.047 6.34 38.84 9.75
7/17/2021 5:45:00 PM 17.24 63.032 0.047 6.36 33.49 9.77
7/17/2021 6:00:00 PM 17.18 62.924 0.047 6.35 31.57 9.79
7/17/2021 6:15:00 PM 17.13 62.834 0.047 6.4 30.71 9.8
7/17/2021 6:30:00 PM 17.1 62.78 0.047 6.39 27.49 9.81
7/17/2021 6:45:00 PM 17.06 62.708 0.047 6.41 25.71 9.81
7/17/2021 7:00:00 PM 17.02 62.636 0.047 6.42 23.71 9.82
7/17/2021 7:15:00 PM 16.97 62.546 0.047 6.4 23.08 9.83
7/17/2021 7:30:00 PM 16.91 62.438 0.047 6.4 22.33 9.83
7/17/2021 7:45:00 PM 16.85 62.33 0.047 6.4 21.36 9.84
7/17/2021 8:00:00 PM 16.79 62.222 0.047 6.43 19.95 9.84
7/17/2021 8:15:00 PM 16.72 62.096 0.047 6.39 20.16 9.85
7/17/2021 8:30:00 PM 16.67 62.006 0.047 6.39 18.81 9.86
7/17/2021 8:45:00 PM 16.61 61.898 0.048 6.41 17.97 9.87
7/17/2021 9:00:00 PM 16.55 61.79 0.048 6.39 17.3 9.88
7/17/2021 9:15:00 PM 16.5 61.7 0.048 6.38 16.42 9.89
7/17/2021 9:30:00 PM 16.45 61.61 0.048 6.37 15.83 9.89
7/17/2021 9:45:00 PM 16.41 61.538 0.048 6.4 16 9.9
7/17/2021 10:00:00 PM 16.37 61.466 0.048 6.39 18.58 9.91
7/17/2021 10:15:00 PM 16.33 61.394 0.048 6.4 15.26 9.92
7/17/2021 10:30:00 PM 16.29 61.322 0.048 6.4 14.48 9.93
7/17/2021 10:45:00 PM 16.26 61.268 0.049 6.43 14.23 9.93
7/17/2021 11:00:00 PM 16.23 61.214 0.049 6.43 13.65 9.93
7/17/2021 11:15:00 PM 16.21 61.178 0.049 6.41 14.15 9.94
7/17/2021 11:30:00 PM 16.19 61.142 0.049 6.45 12.71 9.94
7/17/2021 11:45:00 PM 16.16 61.088 0.049 6.4 12.81 9.95
7/18/2021 12:00:00 AM 16.15 61.07 0.049 6.43 12.87 9.96
7/18/2021 12:15:00 AM 16.14 61.052 0.049 6.46 12.81 9.96
7/18/2021 12:30:00 AM 16.12 61.016 0.049 6.47 12.67 9.97
7/18/2021 12:45:00 AM 16.09 60.962 0.049 6.5 12.04 9.98
7/18/2021 1:00:00 AM 16.07 60.926 0.049 6.48 12.06 9.99
7/18/2021 1:15:00 AM 16.05 60.89 0.049 6.48 12.25 10
7/18/2021 1:30:00 AM 16.01 60.818 0.049 6.47 12.64 10.01
7/18/2021 1:45:00 AM 15.99 60.782 0.049 6.48 11.8 10.02
7/18/2021 2:00:00 AM 15.95 60.71 0.05 6.48 11.97 10.03
7/18/2021 2:15:00 AM 15.91 60.638 0.05 6.48 12.19 10.04
7/18/2021 2:30:00 AM 15.88 60.584 0.05 6.47 13.84 10.05
7/18/2021 2:45:00 AM 15.85 60.53 0.049 6.47 14.73 10.06
7/18/2021 3:00:00 AM 15.83 60.494 0.049 6.5 14.83 10.06
7/18/2021 3:15:00 AM 15.81 60.458 0.049 6.49 16.41 10.07
7/18/2021 3:30:00 AM 15.8 60.44 0.049 6.51 17.24 10.08
7/18/2021 3:45:00 AM 15.78 60.404 0.048 6.5 16.81 10.07
7/18/2021 4:00:00 AM 15.76 60.368 0.048 6.51 17.97 10.08
7/18/2021 4:30:00 AM 15.7 60.26 0.048 6.46 19.32 10.1
7/18/2021 4:45:00 AM 15.68 60.224 0.048 6.46 24.44 10.1
7/18/2021 5:00:00 AM 15.67 60.206 0.048 6.46 21.71 10.11
7/18/2021 5:15:00 AM 15.67 60.206 0.048 6.46 21.48 10.11
7/18/2021 5:30:00 AM 15.68 60.224 0.048 6.45 22.24 10.11
7/18/2021 5:45:00 AM 15.68 60.224 0.048 6.47 21 10.11
7/18/2021 6:00:00 AM 15.69 60.242 0.049 6.43 20.35 10.11
7/18/2021 6:15:00 AM 15.68 60.224 0.049 6.43 20.14 10.12
7/18/2021 6:30:00 AM 15.67 60.206 0.049 6.43 19.39 10.12
7/18/2021 6:45:00 AM 15.66 60.188 0.049 6.43 18.84 10.14
7/18/2021 7:00:00 AM 15.65 60.17 0.049 6.43 18.19 10.14
7/18/2021 7:15:00 AM 15.63 60.134 0.049 6.51 17.86 10.14
7/18/2021 7:30:00 AM 15.61 60.098 0.049 6.43 17.24 10.14
7/18/2021 7:45:00 AM 15.58 60.044 0.048 6.44 16.68 10.16
7/18/2021 8:00:00 AM 15.56 60.008 0.048 6.43 15.76 10.17
7/18/2021 8:15:00 AM 15.53 59.954 0.048 6.44 15.57 10.18
7/18/2021 8:30:00 AM 15.5 59.9 0.048 6.46 14.72 10.19
7/18/2021 8:45:00 AM 15.47 59.846 0.048 6.45 14.3 10.19
7/18/2021 9:00:00 AM 15.45 59.81 0.048 6.49 13.75 10.2
7/18/2021 9:15:00 AM 15.43 59.774 0.048 6.46 13.13 10.21
7/18/2021 9:30:00 AM 15.42 59.756 0.048 6.47 12.82 10.22
7/18/2021 9:45:00 AM 15.42 59.756 0.048 6.46 12.48 10.23
7/18/2021 10:00:00 AM 15.42 59.756 0.048 6.51 12.16 10.23
7/18/2021 10:15:00 AM 15.45 59.81 0.048 6.48 11.7 10.24
7/18/2021 10:30:00 AM 15.47 59.846 0.049 6.49 11.4 10.24
7/18/2021 10:45:00 AM 15.49 59.882 0.049 6.5 11.09 10.24
7/18/2021 11:00:00 AM 15.49 59.882 0.049 6.5 10.9 10.24
7/18/2021 11:15:00 AM 15.5 59.9 0.049 6.49 10.76 10.23
7/18/2021 11:30:00 AM 15.51 59.918 0.048 6.49 10.36 10.24
7/18/2021 11:45:00 AM 15.5 59.9 0.048 6.5 10.23 10.23
7/18/2021 12:00:00 PM 15.5 59.9 0.048 6.49 10.56 10.23
7/18/2021 12:15:00 PM 15.5 59.9 0.048 6.5 9.97 10.23
7/18/2021 12:30:00 PM 15.5 59.9 0.048 6.52 9.7 10.23
7/18/2021 12:45:00 PM 15.52 59.936 0.048 6.51 9.56 10.24
7/18/2021 1:00:00 PM 15.56 60.008 0.048 6.53 9.57 10.23
7/18/2021 1:15:00 PM 15.59 60.062 0.048 6.51 9.44 10.23
7/18/2021 1:30:00 PM 15.62 60.116 0.048 6.51 9 10.22
7/18/2021 1:45:00 PM 15.63 60.134 0.048 6.5 9.25 10.22
7/18/2021 2:00:00 PM 15.69 60.242 0.048 6.51 8.81 10.21
7/18/2021 2:15:00 PM 15.76 60.368 0.048 6.52 8.97 10.2
7/18/2021 2:30:00 PM 15.84 60.512 0.048 6.55 8.79 10.18
7/18/2021 2:45:00 PM 15.87 60.566 0.048 6.53 8.63 10.17
7/18/2021 3:00:00 PM 15.91 60.638 0.048 6.52 8.43 10.16
7/18/2021 3:15:00 PM 15.96 60.728 0.048 6.53 8.8 10.14
7/18/2021 3:30:00 PM 15.98 60.764 0.048 6.52 9.39 10.14
7/18/2021 3:45:00 PM 16 60.8 0.048 6.53 8.99 10.13
7/18/2021 4:00:00 PM 16.04 60.872 0.048 6.52 8.59 10.12
7/18/2021 4:15:00 PM 16.04 60.872 0.048 6.52 8.32 10.11
7/18/2021 4:30:00 PM 16.06 60.908 0.048 6.52 8.16 10.1
7/18/2021 4:45:00 PM 16.04 60.872 0.048 6.51 8.05 10.1
7/18/2021 5:00:00 PM 16.02 60.836 0.048 6.51 8.06 10.09
7/18/2021 5:15:00 PM 16.03 60.854 0.048 6.5 8.04 10.09
7/18/2021 5:30:00 PM 16.02 60.836 0.048 6.53 7.73 10.09
7/18/2021 5:45:00 PM 16 60.8 0.048 6.43 7.96 10.09
7/18/2021 6:00:00 PM 15.97 60.746 0.049 6.45 7.56 10.09
7/18/2021 6:15:00 PM 15.94 60.692 0.049 6.44 7.39 10.1
7/18/2021 6:30:00 PM 15.91 60.638 0.049 6.43 7.53 10.1
7/18/2021 6:45:00 PM 15.88 60.584 0.049 6.43 7.33 10.09
7/18/2021 7:00:00 PM 15.84 60.512 0.049 6.44 7.24 10.11
7/18/2021 7:15:00 PM 15.81 60.458 0.049 6.43 7.14 10.1
7/18/2021 7:30:00 PM 15.77 60.386 0.049 6.44 7.02 10.11
7/18/2021 7:45:00 PM 15.73 60.314 0.049 6.45 7.18 10.1
7/18/2021 8:00:00 PM 15.69 60.242 0.049 6.43 7.12 10.12
7/18/2021 8:15:00 PM 15.65 60.17 0.049 6.43 7.16 10.12
7/18/2021 8:30:00 PM 15.61 60.098 0.049 6.41 7 10.13
7/18/2021 8:45:00 PM 15.57 60.026 0.049 6.41 6.95 10.14
7/18/2021 9:00:00 PM 15.52 59.936 0.049 6.4 6.71 10.14
7/18/2021 9:15:00 PM 15.48 59.864 0.049 6.41 6.58 10.15
7/18/2021 9:30:00 PM 15.43 59.774 0.049 6.41 6.63 10.16
7/18/2021 9:45:00 PM 15.39 59.702 0.049 6.51 6.81 10.17
7/18/2021 10:00:00 PM 15.34 59.612 0.049 6.43 6.69 10.18
7/18/2021 10:15:00 PM 15.3 59.54 0.049 6.44 6.74 10.2
7/18/2021 10:30:00 PM 15.25 59.45 0.049 6.44 6.54 10.2
7/18/2021 10:45:00 PM 15.2 59.36 0.049 6.45 6.5 10.22
7/18/2021 11:00:00 PM 15.16 59.288 0.049 6.41 6.35 10.23
7/18/2021 11:15:00 PM 15.11 59.198 0.049 6.38 6.15 10.24
7/18/2021 11:30:00 PM 15.06 59.108 0.049 6.4 6.37 10.25
7/18/2021 11:45:00 PM 15.02 59.036 0.049 6.43 6.21 10.26
7/19/2021 12:00:00 AM 14.97 58.946 0.049 6.42 6.27 10.27
7/19/2021 12:15:00 AM 14.92 58.856 0.049 6.41 6.22 10.29
7/19/2021 12:30:00 AM 14.87 58.766 0.049 6.43 5.78 10.3
7/19/2021 12:45:00 AM 14.82 58.676 0.049 6.41 6.08 10.31
7/19/2021 1:00:00 AM 14.77 58.586 0.049 6.42 5.88 10.31
7/19/2021 1:15:00 AM 14.72 58.496 0.049 6.39 5.76 10.33
7/19/2021 1:30:00 AM 14.67 58.406 0.049 6.41 5.68 10.34
7/19/2021 1:45:00 AM 14.62 58.316 0.049 6.41 6.04 10.35
7/19/2021 2:00:00 AM 14.58 58.244 0.049 6.48 6.67 10.37
7/19/2021 2:15:00 AM 14.53 58.154 0.049 6.45 6 10.37
7/19/2021 2:30:00 AM 14.49 58.082 0.049 6.47 5.65 10.38
7/19/2021 2:45:00 AM 14.45 58.01 0.05 6.46 5.47 10.39
7/19/2021 3:00:00 AM 14.42 57.956 0.05 6.5 5.75 10.4
7/19/2021 3:15:00 AM 14.38 57.884 0.05 6.42 5.57 10.41
7/19/2021 3:30:00 AM 14.35 57.83 0.05 6.41 5.56 10.41
7/19/2021 3:45:00 AM 14.32 57.776 0.05 6.42 5.4 10.42
7/19/2021 4:00:00 AM 14.28 57.704 0.05 6.41 5.26 10.42
7/19/2021 4:15:00 AM 14.26 57.668 0.05 6.44 5.37 10.44
7/19/2021 4:30:00 AM 14.23 57.614 0.05 6.43 5.35 10.44
7/19/2021 4:45:00 AM 14.2 57.56 0.05 6.43 5.25 10.45
7/19/2021 5:00:00 AM 14.17 57.506 0.05 6.44 5.13 10.45
7/19/2021 5:15:00 AM 14.15 57.47 0.05 6.43 5.38 10.46
7/19/2021 5:30:00 AM 14.12 57.416 0.05 6.41 5.21 10.47
7/19/2021 5:45:00 AM 14.1 57.38 0.05 6.4 5.22 10.47
7/19/2021 6:00:00 AM 14.08 57.344 0.05 6.43 5.25 10.47
7/19/2021 6:15:00 AM 14.06 57.308 0.05 6.43 5.49 10.48
7/19/2021 6:30:00 AM 14.04 57.272 0.05 6.44 5.29 10.48
7/19/2021 6:45:00 AM 14.03 57.254 0.05 6.45 5.78 10.49
7/19/2021 7:00:00 AM 14.06 57.308 0.05 6.48 5.09 10.49
7/19/2021 7:15:00 AM 14.05 57.29 0.05 6.47 5.21 10.49
7/19/2021 7:30:00 AM 14.04 57.272 0.05 6.49 5.12 10.5
7/19/2021 7:45:00 AM 14.04 57.272 0.05 6.45 5.09 10.51
7/19/2021 8:00:00 AM 14.04 57.272 0.05 6.48 4.99 10.51
7/19/2021 8:15:00 AM 14.05 57.29 0.05 6.48 5.08 10.52
7/19/2021 8:30:00 AM 14.05 57.29 0.05 6.48 5.15 10.52
7/19/2021 8:45:00 AM 14.07 57.326 0.05 6.46 5.01 10.52
7/19/2021 9:00:00 AM 14.09 57.362 0.05 6.51 4.84 10.53
7/19/2021 9:15:00 AM 14.11 57.398 0.05 6.49 4.9 10.52
7/19/2021 9:30:00 AM 14.15 57.47 0.05 6.49 4.8 10.53
7/19/2021 9:45:00 AM 14.21 57.578 0.05 6.5 4.83 10.52
7/19/2021 10:00:00 AM 14.26 57.668 0.05 6.5 4.7 10.51
7/19/2021 10:15:00 AM 14.32 57.776 0.05 6.5 4.87 10.5
7/19/2021 10:30:00 AM 14.39 57.902 0.05 6.5 4.77 10.49
7/19/2021 10:45:00 AM 14.45 58.01 0.05 6.51 4.66 10.47
7/19/2021 11:00:00 AM 14.53 58.154 0.05 6.51 4.92 10.47
7/19/2021 11:15:00 AM 14.62 58.316 0.05 6.53 4.78 10.45
7/19/2021 11:30:00 AM 14.7 58.46 0.05 6.53 4.6 10.43
7/19/2021 11:45:00 AM 14.79 58.622 0.05 6.52 4.64 10.41
7/19/2021 12:00:00 PM 14.88 58.784 0.05 6.54 4.67 10.4
7/19/2021 12:15:00 PM 14.97 58.946 0.05 6.53 4.6 10.38
7/19/2021 12:30:00 PM 15.06 59.108 0.05 6.52 4.64 10.35
7/19/2021 12:45:00 PM 15.15 59.27 0.051 6.54 4.59 10.33
7/19/2021 1:00:00 PM 15.22 59.396 0.051 6.54 4.67 10.31
7/19/2021 1:15:00 PM 15.3 59.54 0.051 6.54 4.67 10.3
7/19/2021 1:30:00 PM 15.41 59.738 0.051 6.56 4.59 10.27
7/19/2021 1:45:00 PM 15.47 59.846 0.051 6.56 4.79 10.25
7/19/2021 2:00:00 PM 15.49 59.882 0.051 6.53 4.74 10.23
7/19/2021 2:15:00 PM 15.61 60.098 0.051 6.56 4.65 10.21
7/19/2021 2:30:00 PM 15.72 60.296 0.051 6.56 4.62 10.2
7/19/2021 2:45:00 PM 15.8 60.44 0.051 6.56 5.44 10.17
7/19/2021 3:00:00 PM 15.85 60.53 0.051 6.54 6.13 10.16
7/19/2021 3:15:00 PM 15.9 60.62 0.051 6.53 4.84 10.14
7/19/2021 3:30:00 PM 15.93 60.674 0.051 6.55 4.62 10.13
7/19/2021 3:45:00 PM 15.95 60.71 0.051 6.53 5.57 10.12
7/19/2021 4:00:00 PM 15.96 60.728 0.051 6.56 4.84 10.11
7/19/2021 4:15:00 PM 15.96 60.728 0.051 6.53 4.58 10.1
7/19/2021 4:30:00 PM 15.96 60.728 0.051 6.51 4.48 10.1
7/19/2021 4:45:00 PM 15.94 60.692 0.051 6.5 4.46 10.08
7/19/2021 5:00:00 PM 15.89 60.602 0.051 6.49 4.68 10.08
7/19/2021 5:15:00 PM 15.88 60.584 0.051 6.48 4.59 10.09
7/19/2021 5:30:00 PM 15.89 60.602 0.051 6.52 4.63 10.09
7/19/2021 5:45:00 PM 15.9 60.62 0.051 6.5 4.44 10.08
7/19/2021 6:00:00 PM 15.9 60.62 0.051 6.49 4.36 10.06
7/19/2021 6:15:00 PM 15.89 60.602 0.051 6.5 4.41 10.06
7/19/2021 6:30:00 PM 15.86 60.548 0.051 6.48 4.25 10.06
7/19/2021 6:45:00 PM 15.85 60.53 0.051 6.48 4.33 10.06
7/19/2021 7:00:00 PM 15.83 60.494 0.051 6.48 4.31 10.06
7/19/2021 7:15:00 PM 15.82 60.476 0.051 6.48 4.29 10.06
7/19/2021 7:30:00 PM 15.79 60.422 0.051 6.47 4.21 10.06
7/19/2021 7:45:00 PM 15.77 60.386 0.051 6.49 4.41 10.05
7/19/2021 8:00:00 PM 15.74 60.332 0.051 6.47 4.17 10.05
7/19/2021 8:15:00 PM 15.7 60.26 0.051 6.45 4.21 10.06
7/19/2021 8:30:00 PM 15.67 60.206 0.051 6.44 4.32 10.05
7/19/2021 8:45:00 PM 15.64 60.152 0.051 6.43 4.29 10.07
7/19/2021 9:00:00 PM 15.6 60.08 0.051 6.45 4.2 10.06
7/19/2021 9:15:00 PM 15.57 60.026 0.051 6.44 4.26 10.07
7/19/2021 9:30:00 PM 15.54 59.972 0.052 6.46 4.34 10.08
7/19/2021 9:45:00 PM 15.51 59.918 0.052 6.44 4.29 10.09
7/19/2021 10:00:00 PM 15.48 59.864 0.052 6.44 4.47 10.09
7/19/2021 10:15:00 PM 15.45 59.81 0.052 6.48 4.28 10.1
7/19/2021 10:30:00 PM 15.41 59.738 0.052 6.46 4.17 10.12
7/19/2021 10:45:00 PM 15.38 59.684 0.052 6.45 4.44 10.12
7/19/2021 11:00:00 PM 15.34 59.612 0.052 6.45 4.05 10.13
7/19/2021 11:15:00 PM 15.31 59.558 0.052 6.44 4.26 10.13
7/19/2021 11:30:00 PM 15.27 59.486 0.052 6.44 4.01 10.15
7/19/2021 11:45:00 PM 15.24 59.432 0.052 6.45 4.11 10.15
7/20/2021 12:00:00 AM 15.2 59.36 0.052 6.45 4.08 10.16
7/20/2021 12:15:00 AM 15.16 59.288 0.052 6.48 3.92 10.17
7/20/2021 12:30:00 AM 15.12 59.216 0.052 6.45 3.84 10.17
7/20/2021 12:45:00 AM 15.08 59.144 0.052 6.45 4.1 10.18
7/20/2021 1:00:00 AM 15.04 59.072 0.052 6.44 3.86 10.19
7/20/2021 1:15:00 AM 15.01 59.018 0.052 6.45 3.95 10.2
7/20/2021 1:30:00 AM 14.97 58.946 0.052 6.45 3.8 10.21
7/20/2021 1:45:00 AM 14.94 58.892 0.052 6.44 3.84 10.21
7/20/2021 2:00:00 AM 14.9 58.82 0.052 6.45 3.86 10.23
7/20/2021 2:15:00 AM 14.87 58.766 0.052 6.45 3.84 10.23
7/20/2021 2:30:00 AM 14.83 58.694 0.052 6.44 3.7 10.24
7/20/2021 2:45:00 AM 14.8 58.64 0.052 6.44 3.82 10.24
7/20/2021 3:00:00 AM 14.77 58.586 0.052 6.46 3.71 10.25
7/20/2021 3:15:00 AM 14.74 58.532 0.052 6.45 3.84 10.26
7/20/2021 3:30:00 AM 14.71 58.478 0.052 6.45 4.01 10.26
7/20/2021 3:45:00 AM 14.68 58.424 0.052 6.46 3.88 10.27
7/20/2021 4:00:00 AM 14.65 58.37 0.053 6.45 3.87 10.28
7/20/2021 4:15:00 AM 14.62 58.316 0.053 6.45 3.76 10.28
7/20/2021 4:30:00 AM 14.6 58.28 0.053 6.47 3.66 10.28
7/20/2021 4:45:00 AM 14.57 58.226 0.053 6.47 3.82 10.29
7/20/2021 5:00:00 AM 14.55 58.19 0.053 6.46 3.73 10.29
7/20/2021 5:15:00 AM 14.52 58.136 0.053 6.46 3.81 10.3
7/20/2021 5:30:00 AM 14.5 58.1 0.053 6.46 3.76 10.31
7/20/2021 5:45:00 AM 14.48 58.064 0.053 6.47 3.7 10.3
7/20/2021 6:00:00 AM 14.46 58.028 0.053 6.5 3.81 10.32
7/20/2021 6:15:00 AM 14.44 57.992 0.053 6.47 3.8 10.32
7/20/2021 6:30:00 AM 14.42 57.956 0.053 6.49 3.57 10.33
7/20/2021 6:45:00 AM 14.41 57.938 0.053 6.47 3.67 10.33
7/20/2021 7:00:00 AM 14.4 57.92 0.053 6.5 3.63 10.35
7/20/2021 7:15:00 AM 14.39 57.902 0.053 6.49 3.6 10.35
7/20/2021 7:30:00 AM 14.38 57.884 0.053 6.49 3.59 10.36
7/20/2021 7:45:00 AM 14.39 57.902 0.053 6.51 3.56 10.37
7/20/2021 8:00:00 AM 14.4 57.92 0.053 6.51 3.58 10.38
7/20/2021 8:15:00 AM 14.41 57.938 0.053 6.51 3.51 10.39
7/20/2021 8:30:00 AM 14.43 57.974 0.053 6.52 3.59 10.39
7/20/2021 8:45:00 AM 14.45 58.01 0.053 6.53 3.46 10.4
7/20/2021 9:00:00 AM 14.47 58.046 0.053 6.54 3.51 10.4
7/20/2021 9:15:00 AM 14.51 58.118 0.053 6.53 3.53 10.4
7/20/2021 9:30:00 AM 14.53 58.154 0.053 6.53 3.49 10.4
7/20/2021 9:45:00 AM 14.58 58.244 0.053 6.57 3.51 10.39
7/20/2021 10:00:00 AM 14.62 58.316 0.053 6.55 3.6 10.39
7/20/2021 10:15:00 AM 14.68 58.424 0.053 6.55 3.62 10.38
7/20/2021 10:30:00 AM 14.76 58.568 0.053 6.57 3.48 10.37
7/20/2021 10:45:00 AM 14.83 58.694 0.053 6.56 3.52 10.36
7/20/2021 11:00:00 AM 14.91 58.838 0.054 6.56 3.55 10.35
7/20/2021 11:15:00 AM 14.99 58.982 0.054 6.58 3.42 10.33
7/20/2021 11:30:00 AM 15.08 59.144 0.054 6.57 3.45 10.31
7/20/2021 11:45:00 AM 15.16 59.288 0.054 6.57 3.48 10.29
7/20/2021 12:00:00 PM 15.2 59.36 0.054 6.57 3.34 10.28
7/20/2021 12:15:00 PM 15.28 59.504 0.054 6.59 4.3 10.27
7/20/2021 12:30:00 PM 15.38 59.684 0.054 6.62 3.89 10.25
7/20/2021 12:45:00 PM 15.44 59.792 0.054 6.57 3.42 10.24
7/20/2021 1:00:00 PM 15.46 59.828 0.054 6.58 3.61 10.22
7/20/2021 1:15:00 PM 15.58 60.044 0.054 6.61 3.42 10.21
7/20/2021 1:30:00 PM 15.67 60.206 0.054 6.6 3.61 10.18
7/20/2021 1:45:00 PM 15.76 60.368 0.054 6.61 3.56 10.17
7/20/2021 2:00:00 PM 15.79 60.422 0.054 6.62 3.82 10.14
7/20/2021 2:15:00 PM 15.87 60.566 0.054 6.59 3.56 10.13
7/20/2021 2:30:00 PM 15.92 60.656 0.054 6.6 3.48 10.12
7/20/2021 2:45:00 PM 15.98 60.764 0.054 6.6 3.51 10.1
7/20/2021 3:00:00 PM 16.05 60.89 0.054 6.6 3.47 10.08
7/20/2021 3:15:00 PM 16.08 60.944 0.054 6.61 3.26 10.06
7/20/2021 3:30:00 PM 16.06 60.908 0.054 6.58 3.51 10.05
7/20/2021 3:45:00 PM 16.04 60.872 0.054 6.6 3.24 10.04
7/20/2021 4:00:00 PM 16.04 60.872 0.054 6.58 3.49 10.03
7/20/2021 4:15:00 PM 16.07 60.926 0.054 6.57 3.46 10.03
7/20/2021 4:30:00 PM 16.06 60.908 0.054 6.56 3.29 10.02
7/20/2021 4:45:00 PM 16.08 60.944 0.054 6.56 3.3 10.02
7/20/2021 5:00:00 PM 16.09 60.962 0.054 6.59 3.48 10.02
7/20/2021 5:15:00 PM 16.11 60.998 0.054 6.56 3.27 10
7/20/2021 5:30:00 PM 16.14 61.052 0.054 6.58 3.3 9.99
7/20/2021 5:45:00 PM 16.15 61.07 0.054 6.56 3.34 9.99
7/20/2021 6:00:00 PM 16.14 61.052 0.054 6.55 3.35 9.98
7/20/2021 6:15:00 PM 16.13 61.034 0.054 6.55 3.9 9.97
7/20/2021 6:30:00 PM 16.1 60.98 0.054 6.57 3.62 9.96
7/20/2021 6:45:00 PM 16.08 60.944 0.054 6.54 3.44 9.96
7/20/2021 7:00:00 PM 16.06 60.908 0.054 6.53 3.59 9.95
7/20/2021 7:15:00 PM 16.04 60.872 0.055 6.52 3.25 9.94
7/20/2021 7:30:00 PM 16.01 60.818 0.055 6.51 3.34 9.93
7/20/2021 7:45:00 PM 15.98 60.764 0.055 6.51 3.84 9.92
7/20/2021 8:00:00 PM 15.96 60.728 0.055 6.5 3.32 9.93
7/20/2021 8:15:00 PM 15.93 60.674 0.055 6.49 3.35 9.92
7/20/2021 8:30:00 PM 15.91 60.638 0.055 6.5 3.24 9.92
7/20/2021 8:45:00 PM 15.89 60.602 0.055 6.49 3.43 9.92
7/20/2021 9:00:00 PM 15.87 60.566 0.055 6.49 3.37 9.92
7/20/2021 9:15:00 PM 15.85 60.53 0.055 6.51 3.28 9.93
7/20/2021 9:30:00 PM 15.84 60.512 0.055 6.49 4.45 9.93
7/20/2021 9:45:00 PM 15.83 60.494 0.055 6.5 3.35 9.93
7/20/2021 10:00:00 PM 15.83 60.494 0.055 6.5 3.61 9.93
7/20/2021 10:15:00 PM 15.83 60.494 0.055 6.5 3.42 9.93
7/20/2021 10:30:00 PM 15.81 60.458 0.055 6.53 3.43 9.94
7/20/2021 10:45:00 PM 15.79 60.422 0.055 6.51 3.22 9.94
7/20/2021 11:00:00 PM 15.76 60.368 0.055 6.55 3.26 9.95
7/20/2021 11:15:00 PM 15.73 60.314 0.055 6.53 3.25 9.96
7/20/2021 11:30:00 PM 15.7 60.26 0.055 6.53 3.31 9.96
7/20/2021 11:45:00 PM 15.67 60.206 0.055 6.53 3.31 9.96
7/21/2021 12:00:00 AM 15.64 60.152 0.055 6.53 3.27 9.98
7/21/2021 12:15:00 AM 15.62 60.116 0.055 6.53 3.12 9.98
7/21/2021 12:30:00 AM 15.59 60.062 0.055 6.53 3.37 9.99
7/21/2021 12:45:00 AM 15.57 60.026 0.055 6.53 3.33 10
7/21/2021 1:00:00 AM 15.54 59.972 0.055 6.52 3.32 9.99
7/21/2021 1:15:00 AM 15.51 59.918 0.055 6.54 3.17 10
7/21/2021 1:30:00 AM 15.48 59.864 0.055 6.52 3.05 10.01
7/21/2021 1:45:00 AM 15.45 59.81 0.055 6.52 2.95 10.01
7/21/2021 2:00:00 AM 15.42 59.756 0.056 6.55 2.94 10.02
7/21/2021 2:15:00 AM 15.39 59.702 0.056 6.52 3.06 10.02
7/21/2021 2:30:00 AM 15.36 59.648 0.056 6.52 3.22 10.03
7/21/2021 2:45:00 AM 15.33 59.594 0.056 6.52 3.22 10.03
7/21/2021 3:00:00 AM 15.31 59.558 0.056 6.52 3.12 10.04
7/21/2021 3:15:00 AM 15.28 59.504 0.056 6.54 3 10.04
7/21/2021 3:30:00 AM 15.26 59.468 0.056 6.52 3.11 10.05
7/21/2021 3:45:00 AM 15.24 59.432 0.056 6.52 3.12 10.05
7/21/2021 4:00:00 AM 15.22 59.396 0.056 6.52 3.15 10.06
7/21/2021 4:15:00 AM 15.19 59.342 0.056 6.52 3.07 10.06
7/21/2021 4:30:00 AM 15.17 59.306 0.056 6.52 2.97 10.07
7/21/2021 4:45:00 AM 15.15 59.27 0.056 6.52 2.89 10.07
7/21/2021 5:00:00 AM 15.13 59.234 0.056 6.53 3 10.08
7/21/2021 5:15:00 AM 15.12 59.216 0.056 6.53 2.93 10.09
7/21/2021 5:30:00 AM 15.1 59.18 0.056 6.54 2.85 10.09
7/21/2021 5:45:00 AM 15.08 59.144 0.056 6.54 2.96 10.09
7/21/2021 6:00:00 AM 15.06 59.108 0.056 6.56 3.1 10.09
7/21/2021 6:15:00 AM 15.05 59.09 0.056 6.54 3.03 10.1
7/21/2021 6:30:00 AM 15.03 59.054 0.056 6.54 3.5 10.1
7/21/2021 6:45:00 AM 15.02 59.036 0.056 6.53 3.09 10.1
7/21/2021 7:00:00 AM 15 59 0.056 6.53 3 10.13
7/21/2021 7:15:00 AM 15 59 0.056 6.53 3.01 10.14
7/21/2021 7:30:00 AM 14.99 58.982 0.056 6.54 3.03 10.15
7/21/2021 7:45:00 AM 14.99 58.982 0.056 6.54 3.05 10.16
7/21/2021 8:00:00 AM 14.99 58.982 0.056 6.54 3.13 10.17
7/21/2021 8:15:00 AM 15.01 59.018 0.056 6.56 3.25 10.2
7/21/2021 8:30:00 AM 15.02 59.036 0.056 6.57 3.17 10.2
7/21/2021 8:45:00 AM 15.02 59.036 0.056 6.57 3.12 10.19
7/21/2021 9:00:00 AM 15.03 59.054 0.056 6.56 3.06 10.2
7/21/2021 9:15:00 AM 15.04 59.072 0.056 6.56 3.12 10.2
7/21/2021 9:30:00 AM 15.05 59.09 0.056 6.56 3.09 10.22
7/21/2021 9:45:00 AM 15.07 59.126 0.057 6.57 3.27 10.22
7/21/2021 10:00:00 AM 15.11 59.198 0.057 6.57 3.26 10.23
7/21/2021 10:15:00 AM 15.17 59.306 0.056 6.58 3.29 10.24
7/21/2021 10:30:00 AM 15.22 59.396 0.057 6.62 3.24 10.23
7/21/2021 10:45:00 AM 15.3 59.54 0.057 6.6 3.12 10.22
7/21/2021 11:00:00 AM 15.36 59.648 0.057 6.61 2.93 10.21
7/21/2021 11:15:00 AM 15.38 59.684 0.057 6.63 2.98 10.2
7/21/2021 11:30:00 AM 15.42 59.756 0.057 6.62 2.94 10.18
7/21/2021 11:45:00 AM 15.49 59.882 0.057 6.61 2.88 10.17
7/21/2021 12:00:00 PM 15.67 60.206 0.057 6.64 3.01 10.17
7/21/2021 12:15:00 PM 15.75 60.35 0.057 6.64 2.94 10.14
7/21/2021 12:30:00 PM 15.9 60.62 0.057 6.63 3.01 10.11
7/21/2021 12:45:00 PM 16.01 60.818 0.057 6.65 2.95 10.1
7/21/2021 1:00:00 PM 16.19 61.142 0.057 6.64 2.83 10.07
7/21/2021 1:15:00 PM 16.21 61.178 0.057 6.62 2.83 10.03
7/21/2021 1:30:00 PM 16.25 61.25 0.057 6.61 2.91 10.02
7/21/2021 1:45:00 PM 16.24 61.232 0.057 6.6 3.01 10.03
7/21/2021 2:00:00 PM 16.21 61.178 0.057 6.63 2.86 10.03
7/21/2021 2:15:00 PM 16.27 61.286 0.057 6.62 2.78 10.02
7/21/2021 2:30:00 PM 16.28 61.304 0.058 6.6 2.7 10.01
7/21/2021 2:45:00 PM 16.38 61.484 0.058 6.61 2.89 10
7/21/2021 3:00:00 PM 16.4 61.52 0.058 6.63 2.89 9.99
7/21/2021 3:15:00 PM 16.43 61.574 0.058 6.6 2.89 9.98
7/21/2021 3:30:00 PM 16.41 61.538 0.058 6.59 3.02 9.98
7/21/2021 3:45:00 PM 16.51 61.718 0.058 6.64 3.15 9.97
7/21/2021 4:00:00 PM 16.59 61.862 0.058 6.63 2.95 9.95
7/21/2021 4:15:00 PM 16.53 61.754 0.058 6.59 2.89 9.94
7/21/2021 4:30:00 PM 16.59 61.862 0.058 6.61 3.09 9.94
7/21/2021 4:45:00 PM 16.56 61.808 0.058 6.6 3 9.93
7/21/2021 5:00:00 PM 16.51 61.718 0.058 6.61 3.01 9.92
7/21/2021 5:15:00 PM 16.52 61.736 0.058 6.6 2.92 9.92
7/21/2021 5:30:00 PM 16.52 61.736 0.058 6.59 2.91 9.93
7/21/2021 5:45:00 PM 16.45 61.61 0.058 6.58 2.94 9.91
7/21/2021 6:00:00 PM 16.43 61.574 0.058 6.57 2.76 9.91
7/21/2021 6:15:00 PM 16.4 61.52 0.058 6.57 2.89 9.91
7/21/2021 6:30:00 PM 16.35 61.43 0.058 6.57 2.91 9.9
7/21/2021 6:45:00 PM 16.3 61.34 0.058 6.59 2.88 9.9
7/21/2021 7:00:00 PM 16.26 61.268 0.058 6.55 2.96 9.91
7/21/2021 7:15:00 PM 16.22 61.196 0.058 6.55 2.88 9.91
7/21/2021 7:30:00 PM 16.2 61.16 0.058 6.58 2.79 9.91
7/21/2021 7:45:00 PM 16.15 61.07 0.058 6.55 2.77 9.91
7/21/2021 8:00:00 PM 16.11 60.998 0.058 6.54 2.85 9.91
7/21/2021 8:15:00 PM 16.06 60.908 0.058 6.54 2.94 9.91
7/21/2021 8:30:00 PM 16.01 60.818 0.058 6.54 2.79 9.91
7/21/2021 8:45:00 PM 15.95 60.71 0.058 6.56 2.83 9.91
7/21/2021 9:00:00 PM 15.9 60.62 0.058 6.54 2.9 9.92
7/21/2021 9:15:00 PM 15.85 60.53 0.058 6.54 2.98 9.94
7/21/2021 9:30:00 PM 15.79 60.422 0.058 6.53 2.87 9.94
7/21/2021 9:45:00 PM 15.74 60.332 0.058 6.53 2.9 9.95
7/21/2021 10:00:00 PM 15.69 60.242 0.058 6.53 2.82 9.97
7/21/2021 10:15:00 PM 15.63 60.134 0.058 6.53 2.93 9.99
7/21/2021 10:30:00 PM 15.58 60.044 0.058 6.57 3 10
7/21/2021 10:45:00 PM 15.53 59.954 0.058 6.55 3.03 10.01
7/21/2021 11:00:00 PM 15.48 59.864 0.058 6.55 2.98 10.02
7/21/2021 11:15:00 PM 15.42 59.756 0.058 6.53 2.86 10.03
7/21/2021 11:30:00 PM 15.37 59.666 0.058 6.53 2.77 10.04
7/21/2021 11:45:00 PM 15.32 59.576 0.058 6.55 2.85 10.06
7/22/2021 12:00:00 AM 15.26 59.468 0.058 6.53 2.97 10.07
7/22/2021 12:15:00 AM 15.21 59.378 0.058 6.53 2.79 10.08
7/22/2021 12:30:00 AM 15.15 59.27 0.058 6.54 2.89 10.09
7/22/2021 12:45:00 AM 15.1 59.18 0.058 6.55 2.76 10.11
7/22/2021 1:00:00 AM 15.04 59.072 0.058 6.54 2.73 10.13
7/22/2021 1:15:00 AM 14.98 58.964 0.058 6.53 2.8 10.13
7/22/2021 1:30:00 AM 14.93 58.874 0.058 6.55 2.84 10.15
7/22/2021 1:45:00 AM 14.87 58.766 0.058 6.53 2.76 10.16
7/22/2021 2:00:00 AM 14.83 58.694 0.058 6.53 2.95 10.18
7/22/2021 2:15:00 AM 14.78 58.604 0.058 6.56 2.83 10.19
7/22/2021 2:30:00 AM 14.73 58.514 0.058 6.54 2.72 10.2
7/22/2021 2:45:00 AM 14.69 58.442 0.058 6.56 2.93 10.21
7/22/2021 3:00:00 AM 14.65 58.37 0.059 6.54 2.71 10.22
7/22/2021 3:15:00 AM 14.61 58.298 0.059 6.55 2.77 10.23
7/22/2021 3:30:00 AM 14.57 58.226 0.059 6.54 2.63 10.24
7/22/2021 3:45:00 AM 14.53 58.154 0.059 6.57 2.62 10.25
7/22/2021 4:00:00 AM 14.49 58.082 0.059 6.54 2.88 10.27
7/22/2021 4:15:00 AM 14.45 58.01 0.059 6.54 2.64 10.27
7/22/2021 4:30:00 AM 14.41 57.938 0.059 6.57 4.61 10.28
7/22/2021 4:45:00 AM 14.38 57.884 0.059 6.56 2.57 10.28
7/22/2021 5:00:00 AM 14.34 57.812 0.059 6.54 2.66 10.3
7/22/2021 5:15:00 AM 14.3 57.74 0.059 6.56 2.79 10.31
7/22/2021 5:30:00 AM 14.26 57.668 0.059 6.54 2.83 10.31
7/22/2021 5:45:00 AM 14.22 57.596 0.059 6.54 2.7 10.32
7/22/2021 6:00:00 AM 14.17 57.506 0.059 6.54 2.73 10.34
7/22/2021 6:15:00 AM 14.13 57.434 0.059 6.57 2.8 10.35
7/22/2021 6:30:00 AM 14.09 57.362 0.059 6.55 2.66 10.37
7/22/2021 6:45:00 AM 14.06 57.308 0.059 6.58 2.67 10.4
7/22/2021 7:00:00 AM 14.04 57.272 0.059 6.56 2.68 10.42
7/22/2021 7:15:00 AM 14.02 57.236 0.059 6.56 2.76 10.43
7/22/2021 7:30:00 AM 13.99 57.182 0.059 6.58 2.71 10.45
7/22/2021 7:45:00 AM 13.99 57.182 0.059 6.59 2.58 10.46
7/22/2021 8:00:00 AM 13.97 57.146 0.059 6.59 2.76 10.48
7/22/2021 8:15:00 AM 13.96 57.128 0.059 6.6 2.53 10.49
7/22/2021 8:30:00 AM 13.97 57.146 0.059 6.59 2.77 10.5
7/22/2021 8:45:00 AM 14 57.2 0.059 6.6 2.54 10.52
7/22/2021 9:00:00 AM 14.01 57.218 0.059 6.6 2.62 10.52
7/22/2021 9:15:00 AM 14.03 57.254 0.059 6.6 3.11 10.53
7/22/2021 9:30:00 AM 14.06 57.308 0.059 6.64 2.87 10.53
7/22/2021 9:45:00 AM 14.17 57.506 0.059 6.64 2.61 10.54
7/22/2021 10:00:00 AM 14.2 57.56 0.059 6.62 2.46 10.52
7/22/2021 10:15:00 AM 14.26 57.668 0.059 6.63 2.52 10.52
7/22/2021 10:30:00 AM 14.28 57.704 0.059 6.62 2.65 10.5
7/22/2021 10:45:00 AM 14.35 57.83 0.059 6.65 2.49 10.5
7/22/2021 11:00:00 AM 14.46 58.028 0.059 6.66 2.66 10.48
7/22/2021 11:15:00 AM 14.52 58.136 0.059 6.64 2.56 10.48
7/22/2021 11:30:00 AM 14.57 58.226 0.059 6.64 2.62 10.46
7/22/2021 11:45:00 AM 14.67 58.406 0.059 6.65 2.48 10.45
7/22/2021 12:00:00 PM 14.72 58.496 0.059 6.64 2.52 10.43
7/22/2021 12:15:00 PM 14.86 58.748 0.06 6.65 2.47 10.41
7/22/2021 12:30:00 PM 14.94 58.892 0.059 6.64 2.61 10.4
7/22/2021 12:45:00 PM 14.96 58.928 0.06 6.63 2.67 10.37
7/22/2021 1:00:00 PM 14.96 58.928 0.06 6.66 2.51 10.35
7/22/2021 1:15:00 PM 15.11 59.198 0.06 6.65 2.46 10.33
7/22/2021 1:30:00 PM 15.29 59.522 0.06 6.66 2.6 10.32
7/22/2021 1:45:00 PM 15.23 59.414 0.06 6.63 2.57 10.29
7/22/2021 2:00:00 PM 15.38 59.684 0.06 6.64 2.52 10.27
7/22/2021 2:15:00 PM 15.56 60.008 0.06 6.66 2.59 10.26
7/22/2021 2:30:00 PM 15.64 60.152 0.06 6.65 2.54 10.25
7/22/2021 2:45:00 PM 15.6 60.08 0.06 6.63 2.42 10.22
7/22/2021 3:00:00 PM 15.75 60.35 0.06 6.69 2.59 10.2
7/22/2021 3:15:00 PM 15.74 60.332 0.06 6.64 2.49 10.19
7/22/2021 3:30:00 PM 15.75 60.35 0.06 6.64 2.51 10.18
7/22/2021 3:45:00 PM 15.84 60.512 0.06 6.64 2.74 10.17
7/22/2021 4:00:00 PM 15.91 60.638 0.06 6.64 2.8 10.17
7/22/2021 4:15:00 PM 15.91 60.638 0.06 6.66 2.56 10.16
7/22/2021 4:30:00 PM 15.84 60.512 0.06 6.64 2.59 10.15
7/22/2021 4:45:00 PM 15.87 60.566 0.06 6.63 2.5 10.14
7/22/2021 5:00:00 PM 15.93 60.674 0.06 6.63 2.54 10.12
7/22/2021 5:15:00 PM 15.94 60.692 0.06 6.62 2.38 10.11
7/22/2021 5:30:00 PM 15.94 60.692 0.06 6.66 2.52 10.11
7/22/2021 5:45:00 PM 15.92 60.656 0.06 6.62 2.53 10.1
7/22/2021 6:00:00 PM 15.86 60.548 0.06 6.63 2.41 10.08
7/22/2021 6:15:00 PM 15.83 60.494 0.06 6.61 2.55 10.09
7/22/2021 6:30:00 PM 15.79 60.422 0.06 6.6 2.61 10.06
7/22/2021 6:45:00 PM 15.75 60.35 0.06 6.59 2.52 10.06
7/22/2021 7:00:00 PM 15.71 60.278 0.06 6.58 2.6 10.05
7/22/2021 7:15:00 PM 15.67 60.206 0.06 6.58 2.46 10.05
7/22/2021 7:30:00 PM 15.64 60.152 0.06 6.58 2.54 10.04
7/22/2021 7:45:00 PM 15.59 60.062 0.061 6.58 2.48 10.05
7/22/2021 8:00:00 PM 15.54 59.972 0.061 6.57 2.51 10.05
7/22/2021 8:15:00 PM 15.49 59.882 0.061 6.56 2.63 10.04
7/22/2021 8:30:00 PM 15.44 59.792 0.061 6.56 2.48 10.04
7/22/2021 8:45:00 PM 15.39 59.702 0.061 6.58 2.44 10.04
7/22/2021 9:00:00 PM 15.34 59.612 0.061 6.57 2.46 10.04
7/22/2021 9:15:00 PM 15.29 59.522 0.061 6.56 2.5 10.05
7/22/2021 9:30:00 PM 15.24 59.432 0.061 6.56 2.61 10.06
7/22/2021 9:45:00 PM 15.2 59.36 0.061 6.56 2.58 10.07
7/22/2021 10:00:00 PM 15.15 59.27 0.061 6.56 2.51 10.08
7/22/2021 10:15:00 PM 15.11 59.198 0.061 6.56 2.61 10.09
7/22/2021 10:30:00 PM 15.06 59.108 0.061 6.59 2.6 10.1
7/22/2021 10:45:00 PM 15.02 59.036 0.061 6.56 2.56 10.1
7/22/2021 11:00:00 PM 14.98 58.964 0.061 6.56 2.55 10.11
7/22/2021 11:15:00 PM 14.93 58.874 0.061 6.56 2.56 10.12
7/22/2021 11:30:00 PM 14.89 58.802 0.061 6.56 2.56 10.13
7/22/2021 11:45:00 PM 14.84 58.712 0.061 6.56 2.55 10.15
7/23/2021 12:00:00 AM 14.8 58.64 0.061 6.58 2.86 10.15
7/23/2021 12:15:00 AM 14.76 58.568 0.061 6.56 2.53 10.16
7/23/2021 12:30:00 AM 14.71 58.478 0.061 6.56 2.55 10.17
7/23/2021 12:45:00 AM 14.67 58.406 0.061 6.55 2.66 10.18
7/23/2021 1:00:00 AM 14.63 58.334 0.061 6.56 2.53 10.19
7/23/2021 1:15:00 AM 14.59 58.262 0.061 6.57 2.53 10.21
7/23/2021 1:30:00 AM 14.55 58.19 0.061 6.56 2.35 10.22
7/23/2021 1:45:00 AM 14.51 58.118 0.061 6.56 2.42 10.22
7/23/2021 2:00:00 AM 14.47 58.046 0.061 6.55 2.43 10.22
7/23/2021 2:15:00 AM 14.42 57.956 0.061 6.56 2.65 10.24
7/23/2021 2:30:00 AM 14.38 57.884 0.061 6.56 2.49 10.25
7/23/2021 2:45:00 AM 14.34 57.812 0.061 6.55 2.51 10.26
7/23/2021 3:00:00 AM 14.29 57.722 0.061 6.55 2.59 10.26
7/23/2021 3:15:00 AM 14.24 57.632 0.061 6.55 2.42 10.27
7/23/2021 3:30:00 AM 14.2 57.56 0.061 6.55 2.54 10.29
7/23/2021 3:45:00 AM 14.17 57.506 0.061 6.56 2.35 10.3
7/23/2021 4:00:00 AM 14.14 57.452 0.062 6.55 2.52 10.31
7/23/2021 4:15:00 AM 14.11 57.398 0.062 6.56 2.52 10.32
7/23/2021 4:30:00 AM 14.08 57.344 0.062 6.56 2.44 10.33
7/23/2021 4:45:00 AM 14.05 57.29 0.062 6.56 2.62 10.33
7/23/2021 5:00:00 AM 14.03 57.254 0.062 6.56 2.46 10.34
7/23/2021 5:15:00 AM 14 57.2 0.062 6.56 2.46 10.35
7/23/2021 5:30:00 AM 13.97 57.146 0.062 6.56 2.51 10.35
7/23/2021 5:45:00 AM 13.95 57.11 0.062 6.56 2.57 10.36
7/23/2021 6:00:00 AM 13.93 57.074 0.062 6.56 2.79 10.37
7/23/2021 6:15:00 AM 13.9 57.02 0.062 6.56 2.55 10.37
7/23/2021 6:30:00 AM 13.88 56.984 0.062 6.56 2.47 10.4
7/23/2021 6:45:00 AM 13.84 56.912 0.062 6.56 2.57 10.41
7/23/2021 7:00:00 AM 13.83 56.894 0.062 6.57 2.44 10.43
7/23/2021 7:15:00 AM 13.83 56.894 0.062 6.58 2.6 10.46
7/23/2021 7:30:00 AM 13.83 56.894 0.062 6.58 2.37 10.47
7/23/2021 7:45:00 AM 13.83 56.894 0.062 6.59 2.38 10.5
7/23/2021 8:00:00 AM 13.84 56.912 0.062 6.59 2.34 10.5
7/23/2021 8:15:00 AM 13.85 56.93 0.062 6.61 2.4 10.51
7/23/2021 8:30:00 AM 13.87 56.966 0.062 6.61 2.38 10.52
7/23/2021 8:45:00 AM 13.9 57.02 0.062 6.62 2.31 10.53
7/23/2021 9:00:00 AM 13.95 57.11 0.062 6.62 2.51 10.52
7/23/2021 9:15:00 AM 14.02 57.236 0.062 6.63 2.29 10.51
7/23/2021 9:30:00 AM 14.12 57.416 0.062 6.64 2.31 10.51
7/23/2021 9:45:00 AM 14.22 57.596 0.062 6.65 2.31 10.51
7/23/2021 10:00:00 AM 14.33 57.794 0.062 6.65 2.29 10.49
7/23/2021 10:15:00 AM 14.46 58.028 0.062 6.66 2.3 10.46
7/23/2021 10:30:00 AM 14.6 58.28 0.062 6.69 2.32 10.44
7/23/2021 10:45:00 AM 14.73 58.514 0.062 6.67 2.2 10.41
7/23/2021 11:00:00 AM 14.88 58.784